<?xml version="1.0" encoding="UTF-8" standalone="no" ?>
<gpx xmlns="http://www.topografix.com/GPX/1/1" xmlns:xsi="http://www.w3.org/2001/XMLSchema-instance" xsi:schemaLocation="http://www.topografix.com/GPX/1/1 http://www.topografix.com/GPX/1/1/gpx.xsd" version="1.1" creator="VisuGPX - https://www.visugpx.com">
  <metadata>
    <name>83-D-Salernes</name>
    <desc><![CDATA[83-D-Salernes : la Croix de Solliès]]></desc>
  </metadata>
  <trk>
    <name><![CDATA[2019-02-03-D-Salernes]]></name>
    <trkseg>
      <trkpt lat="43.5653" lon="6.22568">
        <ele>218.6</ele>
        <time>2019-02-03T08:30:17Z</time>
      </trkpt>
      <trkpt lat="43.5653" lon="6.22569">
        <ele>218.6</ele>
        <time>2019-02-03T08:30:18Z</time>
      </trkpt>
      <trkpt lat="43.56527" lon="6.22556">
        <ele>218.7</ele>
        <time>2019-02-03T08:31:21Z</time>
      </trkpt>
      <trkpt lat="43.56522" lon="6.22568">
        <ele>217.1</ele>
        <time>2019-02-03T08:32:48Z</time>
      </trkpt>
      <trkpt lat="43.56523" lon="6.2258">
        <ele>217.3</ele>
        <time>2019-02-03T08:34:05Z</time>
      </trkpt>
      <trkpt lat="43.56522" lon="6.22593">
        <ele>217.3</ele>
        <time>2019-02-03T08:34:16Z</time>
      </trkpt>
      <trkpt lat="43.56521" lon="6.22606">
        <ele>217.1</ele>
        <time>2019-02-03T08:34:26Z</time>
      </trkpt>
      <trkpt lat="43.56521" lon="6.22619">
        <ele>216.7</ele>
        <time>2019-02-03T08:34:35Z</time>
      </trkpt>
      <trkpt lat="43.56521" lon="6.22632">
        <ele>216.6</ele>
        <time>2019-02-03T08:34:42Z</time>
      </trkpt>
      <trkpt lat="43.5652" lon="6.22645">
        <ele>216.5</ele>
        <time>2019-02-03T08:34:49Z</time>
      </trkpt>
      <trkpt lat="43.56521" lon="6.22658">
        <ele>216.4</ele>
        <time>2019-02-03T08:34:57Z</time>
      </trkpt>
      <trkpt lat="43.56522" lon="6.22671">
        <ele>216.4</ele>
        <time>2019-02-03T08:35:06Z</time>
      </trkpt>
      <trkpt lat="43.56524" lon="6.22683">
        <ele>216.6</ele>
        <time>2019-02-03T08:35:16Z</time>
      </trkpt>
      <trkpt lat="43.56524" lon="6.22697">
        <ele>216.7</ele>
        <time>2019-02-03T08:35:25Z</time>
      </trkpt>
      <trkpt lat="43.56526" lon="6.22709">
        <ele>216.7</ele>
        <time>2019-02-03T08:35:33Z</time>
      </trkpt>
      <trkpt lat="43.56524" lon="6.22722">
        <ele>216.4</ele>
        <time>2019-02-03T08:35:40Z</time>
      </trkpt>
      <trkpt lat="43.56524" lon="6.22736">
        <ele>216.2</ele>
        <time>2019-02-03T08:35:49Z</time>
      </trkpt>
      <trkpt lat="43.56525" lon="6.2275">
        <ele>216.1</ele>
        <time>2019-02-03T08:35:58Z</time>
      </trkpt>
      <trkpt lat="43.56525" lon="6.22764">
        <ele>216</ele>
        <time>2019-02-03T08:36:06Z</time>
      </trkpt>
      <trkpt lat="43.56527" lon="6.22776">
        <ele>216.1</ele>
        <time>2019-02-03T08:36:13Z</time>
      </trkpt>
      <trkpt lat="43.56529" lon="6.2279">
        <ele>216.3</ele>
        <time>2019-02-03T08:36:22Z</time>
      </trkpt>
      <trkpt lat="43.5653" lon="6.22804">
        <ele>216.6</ele>
        <time>2019-02-03T08:36:30Z</time>
      </trkpt>
      <trkpt lat="43.56533" lon="6.22816">
        <ele>216.8</ele>
        <time>2019-02-03T08:36:39Z</time>
      </trkpt>
      <trkpt lat="43.56536" lon="6.22829">
        <ele>217.2</ele>
        <time>2019-02-03T08:36:48Z</time>
      </trkpt>
      <trkpt lat="43.56539" lon="6.22841">
        <ele>217.5</ele>
        <time>2019-02-03T08:36:55Z</time>
      </trkpt>
      <trkpt lat="43.56543" lon="6.22853">
        <ele>217.9</ele>
        <time>2019-02-03T08:37:04Z</time>
      </trkpt>
      <trkpt lat="43.56547" lon="6.22866">
        <ele>218.3</ele>
        <time>2019-02-03T08:37:12Z</time>
      </trkpt>
      <trkpt lat="43.56553" lon="6.22875">
        <ele>218.9</ele>
        <time>2019-02-03T08:37:20Z</time>
      </trkpt>
      <trkpt lat="43.56559" lon="6.22884">
        <ele>219.6</ele>
        <time>2019-02-03T08:37:27Z</time>
      </trkpt>
      <trkpt lat="43.56569" lon="6.22889">
        <ele>220.5</ele>
        <time>2019-02-03T08:37:35Z</time>
      </trkpt>
      <trkpt lat="43.56575" lon="6.22899">
        <ele>221.2</ele>
        <time>2019-02-03T08:37:43Z</time>
      </trkpt>
      <trkpt lat="43.5657" lon="6.2291">
        <ele>221.8</ele>
        <time>2019-02-03T08:37:53Z</time>
      </trkpt>
      <trkpt lat="43.56563" lon="6.22918">
        <ele>222.3</ele>
        <time>2019-02-03T08:38:37Z</time>
      </trkpt>
      <trkpt lat="43.56559" lon="6.22929">
        <ele>222.2</ele>
        <time>2019-02-03T08:38:52Z</time>
      </trkpt>
      <trkpt lat="43.56552" lon="6.22937">
        <ele>221.9</ele>
        <time>2019-02-03T08:39:12Z</time>
      </trkpt>
      <trkpt lat="43.56546" lon="6.22947">
        <ele>221.8</ele>
        <time>2019-02-03T08:39:24Z</time>
      </trkpt>
      <trkpt lat="43.56537" lon="6.2295">
        <ele>221.7</ele>
        <time>2019-02-03T08:39:37Z</time>
      </trkpt>
      <trkpt lat="43.56529" lon="6.22955">
        <ele>221.4</ele>
        <time>2019-02-03T08:39:47Z</time>
      </trkpt>
      <trkpt lat="43.56527" lon="6.22968">
        <ele>221.1</ele>
        <time>2019-02-03T08:40:01Z</time>
      </trkpt>
      <trkpt lat="43.56525" lon="6.2298">
        <ele>220.3</ele>
        <time>2019-02-03T08:40:40Z</time>
      </trkpt>
      <trkpt lat="43.56517" lon="6.22988">
        <ele>220.4</ele>
        <time>2019-02-03T08:40:50Z</time>
      </trkpt>
      <trkpt lat="43.56509" lon="6.22996">
        <ele>220.5</ele>
        <time>2019-02-03T08:40:57Z</time>
      </trkpt>
      <trkpt lat="43.56503" lon="6.23007">
        <ele>220.5</ele>
        <time>2019-02-03T08:41:12Z</time>
      </trkpt>
      <trkpt lat="43.56495" lon="6.23013">
        <ele>220.5</ele>
        <time>2019-02-03T08:41:18Z</time>
      </trkpt>
      <trkpt lat="43.56487" lon="6.2302">
        <ele>220.4</ele>
        <time>2019-02-03T08:41:26Z</time>
      </trkpt>
      <trkpt lat="43.56479" lon="6.23026">
        <ele>220.4</ele>
        <time>2019-02-03T08:41:39Z</time>
      </trkpt>
      <trkpt lat="43.56474" lon="6.23036">
        <ele>220.9</ele>
        <time>2019-02-03T08:42:01Z</time>
      </trkpt>
      <trkpt lat="43.5647" lon="6.23048">
        <ele>221.1</ele>
        <time>2019-02-03T08:42:08Z</time>
      </trkpt>
      <trkpt lat="43.56464" lon="6.23058">
        <ele>221</ele>
        <time>2019-02-03T08:42:14Z</time>
      </trkpt>
      <trkpt lat="43.56456" lon="6.23066">
        <ele>220.7</ele>
        <time>2019-02-03T08:42:22Z</time>
      </trkpt>
      <trkpt lat="43.56451" lon="6.23078">
        <ele>220.5</ele>
        <time>2019-02-03T08:42:28Z</time>
      </trkpt>
      <trkpt lat="43.5644" lon="6.23084">
        <ele>220</ele>
        <time>2019-02-03T08:42:37Z</time>
      </trkpt>
      <trkpt lat="43.56427" lon="6.23083">
        <ele>220.3</ele>
        <time>2019-02-03T08:42:44Z</time>
      </trkpt>
      <trkpt lat="43.56419" lon="6.23074">
        <ele>220.1</ele>
        <time>2019-02-03T08:42:48Z</time>
      </trkpt>
      <trkpt lat="43.5641" lon="6.23079">
        <ele>219.2</ele>
        <time>2019-02-03T08:42:56Z</time>
      </trkpt>
      <trkpt lat="43.56401" lon="6.2308">
        <ele>218.4</ele>
        <time>2019-02-03T08:43:05Z</time>
      </trkpt>
      <trkpt lat="43.56391" lon="6.23078">
        <ele>216.8</ele>
        <time>2019-02-03T08:43:17Z</time>
      </trkpt>
      <trkpt lat="43.56381" lon="6.23077">
        <ele>215.9</ele>
        <time>2019-02-03T08:43:26Z</time>
      </trkpt>
      <trkpt lat="43.56372" lon="6.23073">
        <ele>215.3</ele>
        <time>2019-02-03T08:43:35Z</time>
      </trkpt>
      <trkpt lat="43.56363" lon="6.23067">
        <ele>214.5</ele>
        <time>2019-02-03T08:43:44Z</time>
      </trkpt>
      <trkpt lat="43.56354" lon="6.23064">
        <ele>213.8</ele>
        <time>2019-02-03T08:43:52Z</time>
      </trkpt>
      <trkpt lat="43.56349" lon="6.23053">
        <ele>212.1</ele>
        <time>2019-02-03T08:44:05Z</time>
      </trkpt>
      <trkpt lat="43.56338" lon="6.23053">
        <ele>211.8</ele>
        <time>2019-02-03T08:44:15Z</time>
      </trkpt>
      <trkpt lat="43.5633" lon="6.23059">
        <ele>211.8</ele>
        <time>2019-02-03T08:44:21Z</time>
      </trkpt>
      <trkpt lat="43.56323" lon="6.23065">
        <ele>211.8</ele>
        <time>2019-02-03T08:44:30Z</time>
      </trkpt>
      <trkpt lat="43.56314" lon="6.23072">
        <ele>211.5</ele>
        <time>2019-02-03T08:44:38Z</time>
      </trkpt>
      <trkpt lat="43.56307" lon="6.2308">
        <ele>211</ele>
        <time>2019-02-03T08:44:46Z</time>
      </trkpt>
      <trkpt lat="43.56299" lon="6.23087">
        <ele>210.8</ele>
        <time>2019-02-03T08:44:56Z</time>
      </trkpt>
      <trkpt lat="43.56291" lon="6.23094">
        <ele>210.7</ele>
        <time>2019-02-03T08:45:03Z</time>
      </trkpt>
      <trkpt lat="43.56283" lon="6.23101">
        <ele>210.4</ele>
        <time>2019-02-03T08:45:13Z</time>
      </trkpt>
      <trkpt lat="43.56278" lon="6.23111">
        <ele>210.2</ele>
        <time>2019-02-03T08:45:21Z</time>
      </trkpt>
      <trkpt lat="43.56271" lon="6.23121">
        <ele>209.9</ele>
        <time>2019-02-03T08:45:29Z</time>
      </trkpt>
      <trkpt lat="43.56264" lon="6.2313">
        <ele>209.8</ele>
        <time>2019-02-03T08:45:37Z</time>
      </trkpt>
      <trkpt lat="43.56258" lon="6.23139">
        <ele>209.7</ele>
        <time>2019-02-03T08:45:44Z</time>
      </trkpt>
      <trkpt lat="43.5625" lon="6.23147">
        <ele>209.5</ele>
        <time>2019-02-03T08:45:52Z</time>
      </trkpt>
      <trkpt lat="43.56243" lon="6.23156">
        <ele>209.4</ele>
        <time>2019-02-03T08:46:00Z</time>
      </trkpt>
      <trkpt lat="43.56235" lon="6.23164">
        <ele>209.2</ele>
        <time>2019-02-03T08:46:08Z</time>
      </trkpt>
      <trkpt lat="43.5623" lon="6.23176">
        <ele>209</ele>
        <time>2019-02-03T08:46:16Z</time>
      </trkpt>
      <trkpt lat="43.56222" lon="6.23184">
        <ele>208.7</ele>
        <time>2019-02-03T08:46:23Z</time>
      </trkpt>
      <trkpt lat="43.56215" lon="6.23193">
        <ele>208.5</ele>
        <time>2019-02-03T08:46:31Z</time>
      </trkpt>
      <trkpt lat="43.56209" lon="6.23203">
        <ele>208.4</ele>
        <time>2019-02-03T08:46:38Z</time>
      </trkpt>
      <trkpt lat="43.56202" lon="6.23212">
        <ele>208.4</ele>
        <time>2019-02-03T08:46:45Z</time>
      </trkpt>
      <trkpt lat="43.56194" lon="6.2322">
        <ele>208.4</ele>
        <time>2019-02-03T08:46:52Z</time>
      </trkpt>
      <trkpt lat="43.56187" lon="6.23229">
        <ele>208.4</ele>
        <time>2019-02-03T08:47:01Z</time>
      </trkpt>
      <trkpt lat="43.56179" lon="6.23237">
        <ele>208.4</ele>
        <time>2019-02-03T08:47:07Z</time>
      </trkpt>
      <trkpt lat="43.56173" lon="6.23247">
        <ele>208.2</ele>
        <time>2019-02-03T08:47:15Z</time>
      </trkpt>
      <trkpt lat="43.56165" lon="6.23254">
        <ele>208</ele>
        <time>2019-02-03T08:47:24Z</time>
      </trkpt>
      <trkpt lat="43.56156" lon="6.23261">
        <ele>208</ele>
        <time>2019-02-03T08:47:31Z</time>
      </trkpt>
      <trkpt lat="43.56147" lon="6.23265">
        <ele>207.9</ele>
        <time>2019-02-03T08:47:40Z</time>
      </trkpt>
      <trkpt lat="43.56138" lon="6.23271">
        <ele>207.9</ele>
        <time>2019-02-03T08:47:49Z</time>
      </trkpt>
      <trkpt lat="43.5613" lon="6.23279">
        <ele>207.7</ele>
        <time>2019-02-03T08:47:58Z</time>
      </trkpt>
      <trkpt lat="43.56123" lon="6.23289">
        <ele>207.3</ele>
        <time>2019-02-03T08:48:07Z</time>
      </trkpt>
      <trkpt lat="43.56114" lon="6.23295">
        <ele>207.1</ele>
        <time>2019-02-03T08:48:16Z</time>
      </trkpt>
      <trkpt lat="43.56106" lon="6.23301">
        <ele>207</ele>
        <time>2019-02-03T08:48:25Z</time>
      </trkpt>
      <trkpt lat="43.56098" lon="6.23308">
        <ele>207.2</ele>
        <time>2019-02-03T08:48:32Z</time>
      </trkpt>
      <trkpt lat="43.56089" lon="6.23314">
        <ele>207.2</ele>
        <time>2019-02-03T08:48:40Z</time>
      </trkpt>
      <trkpt lat="43.56081" lon="6.23321">
        <ele>207.2</ele>
        <time>2019-02-03T08:48:49Z</time>
      </trkpt>
      <trkpt lat="43.56071" lon="6.23325">
        <ele>207.1</ele>
        <time>2019-02-03T08:48:58Z</time>
      </trkpt>
      <trkpt lat="43.56068" lon="6.23337">
        <ele>207.2</ele>
        <time>2019-02-03T08:49:13Z</time>
      </trkpt>
      <trkpt lat="43.56059" lon="6.23335">
        <ele>207.3</ele>
        <time>2019-02-03T08:49:26Z</time>
      </trkpt>
      <trkpt lat="43.56049" lon="6.23335">
        <ele>207.3</ele>
        <time>2019-02-03T08:49:36Z</time>
      </trkpt>
      <trkpt lat="43.5604" lon="6.23334">
        <ele>207.5</ele>
        <time>2019-02-03T08:49:44Z</time>
      </trkpt>
      <trkpt lat="43.5603" lon="6.23333">
        <ele>207.8</ele>
        <time>2019-02-03T08:49:52Z</time>
      </trkpt>
      <trkpt lat="43.56021" lon="6.23332">
        <ele>208.7</ele>
        <time>2019-02-03T08:50:26Z</time>
      </trkpt>
      <trkpt lat="43.56012" lon="6.23338">
        <ele>208.8</ele>
        <time>2019-02-03T08:50:35Z</time>
      </trkpt>
      <trkpt lat="43.56003" lon="6.23343">
        <ele>208.4</ele>
        <time>2019-02-03T08:50:45Z</time>
      </trkpt>
      <trkpt lat="43.55995" lon="6.23351">
        <ele>207.8</ele>
        <time>2019-02-03T08:51:12Z</time>
      </trkpt>
      <trkpt lat="43.55988" lon="6.23359">
        <ele>207.8</ele>
        <time>2019-02-03T08:51:32Z</time>
      </trkpt>
      <trkpt lat="43.55978" lon="6.23364">
        <ele>207.1</ele>
        <time>2019-02-03T08:51:44Z</time>
      </trkpt>
      <trkpt lat="43.55969" lon="6.23364">
        <ele>206.6</ele>
        <time>2019-02-03T08:51:53Z</time>
      </trkpt>
      <trkpt lat="43.5596" lon="6.23361">
        <ele>206.4</ele>
        <time>2019-02-03T08:52:02Z</time>
      </trkpt>
      <trkpt lat="43.5595" lon="6.23361">
        <ele>206.2</ele>
        <time>2019-02-03T08:52:10Z</time>
      </trkpt>
      <trkpt lat="43.5594" lon="6.23365">
        <ele>206.1</ele>
        <time>2019-02-03T08:52:16Z</time>
      </trkpt>
      <trkpt lat="43.55929" lon="6.23366">
        <ele>206</ele>
        <time>2019-02-03T08:52:22Z</time>
      </trkpt>
      <trkpt lat="43.5592" lon="6.23362">
        <ele>205.8</ele>
        <time>2019-02-03T08:52:32Z</time>
      </trkpt>
      <trkpt lat="43.55911" lon="6.23355">
        <ele>205.4</ele>
        <time>2019-02-03T08:52:44Z</time>
      </trkpt>
      <trkpt lat="43.55903" lon="6.23349">
        <ele>205.4</ele>
        <time>2019-02-03T08:52:54Z</time>
      </trkpt>
      <trkpt lat="43.55894" lon="6.23346">
        <ele>205.3</ele>
        <time>2019-02-03T08:53:03Z</time>
      </trkpt>
      <trkpt lat="43.55884" lon="6.23342">
        <ele>205.2</ele>
        <time>2019-02-03T08:53:13Z</time>
      </trkpt>
      <trkpt lat="43.55874" lon="6.23337">
        <ele>205.1</ele>
        <time>2019-02-03T08:53:20Z</time>
      </trkpt>
      <trkpt lat="43.55864" lon="6.23336">
        <ele>205.1</ele>
        <time>2019-02-03T08:53:28Z</time>
      </trkpt>
      <trkpt lat="43.55855" lon="6.23338">
        <ele>204.9</ele>
        <time>2019-02-03T08:53:35Z</time>
      </trkpt>
      <trkpt lat="43.55846" lon="6.23337">
        <ele>204.8</ele>
        <time>2019-02-03T08:53:42Z</time>
      </trkpt>
      <trkpt lat="43.55836" lon="6.23336">
        <ele>204.6</ele>
        <time>2019-02-03T08:53:49Z</time>
      </trkpt>
      <trkpt lat="43.55827" lon="6.23333">
        <ele>204.6</ele>
        <time>2019-02-03T08:53:58Z</time>
      </trkpt>
      <trkpt lat="43.55818" lon="6.23333">
        <ele>204.7</ele>
        <time>2019-02-03T08:54:06Z</time>
      </trkpt>
      <trkpt lat="43.5581" lon="6.23328">
        <ele>204.7</ele>
        <time>2019-02-03T08:54:12Z</time>
      </trkpt>
      <trkpt lat="43.55801" lon="6.23322">
        <ele>204.7</ele>
        <time>2019-02-03T08:54:19Z</time>
      </trkpt>
      <trkpt lat="43.55793" lon="6.23317">
        <ele>204.7</ele>
        <time>2019-02-03T08:54:27Z</time>
      </trkpt>
      <trkpt lat="43.55782" lon="6.23315">
        <ele>204.7</ele>
        <time>2019-02-03T08:54:33Z</time>
      </trkpt>
      <trkpt lat="43.55772" lon="6.2331">
        <ele>204.7</ele>
        <time>2019-02-03T08:54:41Z</time>
      </trkpt>
      <trkpt lat="43.55764" lon="6.23303">
        <ele>204.8</ele>
        <time>2019-02-03T08:54:49Z</time>
      </trkpt>
      <trkpt lat="43.55755" lon="6.23299">
        <ele>204.9</ele>
        <time>2019-02-03T08:54:56Z</time>
      </trkpt>
      <trkpt lat="43.55746" lon="6.23292">
        <ele>205</ele>
        <time>2019-02-03T08:55:05Z</time>
      </trkpt>
      <trkpt lat="43.55738" lon="6.23287">
        <ele>205.3</ele>
        <time>2019-02-03T08:55:14Z</time>
      </trkpt>
      <trkpt lat="43.55729" lon="6.23283">
        <ele>205.4</ele>
        <time>2019-02-03T08:55:24Z</time>
      </trkpt>
      <trkpt lat="43.5572" lon="6.23281">
        <ele>205.4</ele>
        <time>2019-02-03T08:55:31Z</time>
      </trkpt>
      <trkpt lat="43.55711" lon="6.23278">
        <ele>205.5</ele>
        <time>2019-02-03T08:55:38Z</time>
      </trkpt>
      <trkpt lat="43.55702" lon="6.23275">
        <ele>205.4</ele>
        <time>2019-02-03T08:55:45Z</time>
      </trkpt>
      <trkpt lat="43.55693" lon="6.23273">
        <ele>205.7</ele>
        <time>2019-02-03T08:55:52Z</time>
      </trkpt>
      <trkpt lat="43.55685" lon="6.23268">
        <ele>206.1</ele>
        <time>2019-02-03T08:56:01Z</time>
      </trkpt>
      <trkpt lat="43.55676" lon="6.23265">
        <ele>206.3</ele>
        <time>2019-02-03T08:56:08Z</time>
      </trkpt>
      <trkpt lat="43.55668" lon="6.23258">
        <ele>206.6</ele>
        <time>2019-02-03T08:56:16Z</time>
      </trkpt>
      <trkpt lat="43.5566" lon="6.23252">
        <ele>207</ele>
        <time>2019-02-03T08:56:21Z</time>
      </trkpt>
      <trkpt lat="43.55652" lon="6.23244">
        <ele>207.3</ele>
        <time>2019-02-03T08:56:30Z</time>
      </trkpt>
      <trkpt lat="43.55643" lon="6.23237">
        <ele>207.2</ele>
        <time>2019-02-03T08:56:37Z</time>
      </trkpt>
      <trkpt lat="43.55635" lon="6.23233">
        <ele>207.3</ele>
        <time>2019-02-03T08:56:46Z</time>
      </trkpt>
      <trkpt lat="43.55626" lon="6.23227">
        <ele>208</ele>
        <time>2019-02-03T08:56:55Z</time>
      </trkpt>
      <trkpt lat="43.55619" lon="6.23218">
        <ele>208.9</ele>
        <time>2019-02-03T08:57:04Z</time>
      </trkpt>
      <trkpt lat="43.5561" lon="6.23213">
        <ele>209.3</ele>
        <time>2019-02-03T08:57:09Z</time>
      </trkpt>
      <trkpt lat="43.55602" lon="6.23207">
        <ele>209.6</ele>
        <time>2019-02-03T08:57:14Z</time>
      </trkpt>
      <trkpt lat="43.55593" lon="6.23202">
        <ele>210.1</ele>
        <time>2019-02-03T08:57:21Z</time>
      </trkpt>
      <trkpt lat="43.55585" lon="6.23195">
        <ele>210.8</ele>
        <time>2019-02-03T08:57:29Z</time>
      </trkpt>
      <trkpt lat="43.55577" lon="6.23188">
        <ele>211.4</ele>
        <time>2019-02-03T08:57:37Z</time>
      </trkpt>
      <trkpt lat="43.55571" lon="6.23178">
        <ele>212.2</ele>
        <time>2019-02-03T08:57:46Z</time>
      </trkpt>
      <trkpt lat="43.55564" lon="6.2317">
        <ele>212.9</ele>
        <time>2019-02-03T08:57:55Z</time>
      </trkpt>
      <trkpt lat="43.55557" lon="6.23159">
        <ele>213.5</ele>
        <time>2019-02-03T08:58:04Z</time>
      </trkpt>
      <trkpt lat="43.55551" lon="6.23149">
        <ele>214</ele>
        <time>2019-02-03T08:58:13Z</time>
      </trkpt>
      <trkpt lat="43.55543" lon="6.2314">
        <ele>214.8</ele>
        <time>2019-02-03T08:58:24Z</time>
      </trkpt>
      <trkpt lat="43.55535" lon="6.23133">
        <ele>215.6</ele>
        <time>2019-02-03T08:58:32Z</time>
      </trkpt>
      <trkpt lat="43.55532" lon="6.2312">
        <ele>216.5</ele>
        <time>2019-02-03T08:58:41Z</time>
      </trkpt>
      <trkpt lat="43.55531" lon="6.23107">
        <ele>217.8</ele>
        <time>2019-02-03T08:58:51Z</time>
      </trkpt>
      <trkpt lat="43.55532" lon="6.23094">
        <ele>218.7</ele>
        <time>2019-02-03T08:59:00Z</time>
      </trkpt>
      <trkpt lat="43.55531" lon="6.23081">
        <ele>219.7</ele>
        <time>2019-02-03T08:59:10Z</time>
      </trkpt>
      <trkpt lat="43.5553" lon="6.23067">
        <ele>220.5</ele>
        <time>2019-02-03T08:59:19Z</time>
      </trkpt>
      <trkpt lat="43.55526" lon="6.23054">
        <ele>221.5</ele>
        <time>2019-02-03T08:59:29Z</time>
      </trkpt>
      <trkpt lat="43.55525" lon="6.23041">
        <ele>222.4</ele>
        <time>2019-02-03T08:59:39Z</time>
      </trkpt>
      <trkpt lat="43.55526" lon="6.23028">
        <ele>223.6</ele>
        <time>2019-02-03T08:59:50Z</time>
      </trkpt>
      <trkpt lat="43.55526" lon="6.23015">
        <ele>224.5</ele>
        <time>2019-02-03T08:59:58Z</time>
      </trkpt>
      <trkpt lat="43.55526" lon="6.23002">
        <ele>225.7</ele>
        <time>2019-02-03T09:00:08Z</time>
      </trkpt>
      <trkpt lat="43.55527" lon="6.22988">
        <ele>226.7</ele>
        <time>2019-02-03T09:00:17Z</time>
      </trkpt>
      <trkpt lat="43.55528" lon="6.22976">
        <ele>227.5</ele>
        <time>2019-02-03T09:00:26Z</time>
      </trkpt>
      <trkpt lat="43.55524" lon="6.22964">
        <ele>228.3</ele>
        <time>2019-02-03T09:00:35Z</time>
      </trkpt>
      <trkpt lat="43.55523" lon="6.2295">
        <ele>229.1</ele>
        <time>2019-02-03T09:00:44Z</time>
      </trkpt>
      <trkpt lat="43.55522" lon="6.22938">
        <ele>230.1</ele>
        <time>2019-02-03T09:00:53Z</time>
      </trkpt>
      <trkpt lat="43.55519" lon="6.22926">
        <ele>231.2</ele>
        <time>2019-02-03T09:01:01Z</time>
      </trkpt>
      <trkpt lat="43.55516" lon="6.22914">
        <ele>232.3</ele>
        <time>2019-02-03T09:01:09Z</time>
      </trkpt>
      <trkpt lat="43.55513" lon="6.22902">
        <ele>233.3</ele>
        <time>2019-02-03T09:01:17Z</time>
      </trkpt>
      <trkpt lat="43.55512" lon="6.22889">
        <ele>234.2</ele>
        <time>2019-02-03T09:01:27Z</time>
      </trkpt>
      <trkpt lat="43.5551" lon="6.22876">
        <ele>234.8</ele>
        <time>2019-02-03T09:01:36Z</time>
      </trkpt>
      <trkpt lat="43.55509" lon="6.22862">
        <ele>235.5</ele>
        <time>2019-02-03T09:01:45Z</time>
      </trkpt>
      <trkpt lat="43.55508" lon="6.22849">
        <ele>236.3</ele>
        <time>2019-02-03T09:01:53Z</time>
      </trkpt>
      <trkpt lat="43.55508" lon="6.22836">
        <ele>236.8</ele>
        <time>2019-02-03T09:02:02Z</time>
      </trkpt>
      <trkpt lat="43.55504" lon="6.22825">
        <ele>237.4</ele>
        <time>2019-02-03T09:02:12Z</time>
      </trkpt>
      <trkpt lat="43.55499" lon="6.22814">
        <ele>238.7</ele>
        <time>2019-02-03T09:02:22Z</time>
      </trkpt>
      <trkpt lat="43.55497" lon="6.22801">
        <ele>239.9</ele>
        <time>2019-02-03T09:02:33Z</time>
      </trkpt>
      <trkpt lat="43.55492" lon="6.2279">
        <ele>240.7</ele>
        <time>2019-02-03T09:02:42Z</time>
      </trkpt>
      <trkpt lat="43.55491" lon="6.22777">
        <ele>242.1</ele>
        <time>2019-02-03T09:02:53Z</time>
      </trkpt>
      <trkpt lat="43.55495" lon="6.22766">
        <ele>244</ele>
        <time>2019-02-03T09:03:31Z</time>
      </trkpt>
      <trkpt lat="43.55493" lon="6.22753">
        <ele>244</ele>
        <time>2019-02-03T09:04:16Z</time>
      </trkpt>
      <trkpt lat="43.55493" lon="6.2274">
        <ele>244.2</ele>
        <time>2019-02-03T09:04:28Z</time>
      </trkpt>
      <trkpt lat="43.55498" lon="6.22729">
        <ele>244.5</ele>
        <time>2019-02-03T09:04:36Z</time>
      </trkpt>
      <trkpt lat="43.55502" lon="6.22717">
        <ele>245.4</ele>
        <time>2019-02-03T09:04:46Z</time>
      </trkpt>
      <trkpt lat="43.55502" lon="6.22704">
        <ele>246.2</ele>
        <time>2019-02-03T09:04:55Z</time>
      </trkpt>
      <trkpt lat="43.55506" lon="6.22691">
        <ele>246.7</ele>
        <time>2019-02-03T09:05:03Z</time>
      </trkpt>
      <trkpt lat="43.55504" lon="6.22677">
        <ele>247.5</ele>
        <time>2019-02-03T09:05:14Z</time>
      </trkpt>
      <trkpt lat="43.55495" lon="6.22674">
        <ele>248.3</ele>
        <time>2019-02-03T09:05:22Z</time>
      </trkpt>
      <trkpt lat="43.55493" lon="6.22661">
        <ele>250.3</ele>
        <time>2019-02-03T09:05:34Z</time>
      </trkpt>
      <trkpt lat="43.55489" lon="6.22649">
        <ele>251.6</ele>
        <time>2019-02-03T09:05:45Z</time>
      </trkpt>
      <trkpt lat="43.55486" lon="6.22637">
        <ele>252.7</ele>
        <time>2019-02-03T09:05:57Z</time>
      </trkpt>
      <trkpt lat="43.55492" lon="6.22626">
        <ele>253.7</ele>
        <time>2019-02-03T09:06:06Z</time>
      </trkpt>
      <trkpt lat="43.55496" lon="6.22615">
        <ele>254.4</ele>
        <time>2019-02-03T09:06:15Z</time>
      </trkpt>
      <trkpt lat="43.55498" lon="6.22602">
        <ele>255.3</ele>
        <time>2019-02-03T09:06:24Z</time>
      </trkpt>
      <trkpt lat="43.55501" lon="6.2259">
        <ele>256.4</ele>
        <time>2019-02-03T09:06:32Z</time>
      </trkpt>
      <trkpt lat="43.55504" lon="6.22578">
        <ele>257.7</ele>
        <time>2019-02-03T09:06:43Z</time>
      </trkpt>
      <trkpt lat="43.55503" lon="6.22564">
        <ele>258.4</ele>
        <time>2019-02-03T09:06:52Z</time>
      </trkpt>
      <trkpt lat="43.55501" lon="6.22552">
        <ele>259.1</ele>
        <time>2019-02-03T09:07:01Z</time>
      </trkpt>
      <trkpt lat="43.555" lon="6.22539">
        <ele>259.7</ele>
        <time>2019-02-03T09:07:10Z</time>
      </trkpt>
      <trkpt lat="43.55498" lon="6.22526">
        <ele>260.4</ele>
        <time>2019-02-03T09:07:20Z</time>
      </trkpt>
      <trkpt lat="43.55499" lon="6.22513">
        <ele>260.9</ele>
        <time>2019-02-03T09:07:30Z</time>
      </trkpt>
      <trkpt lat="43.55499" lon="6.22499">
        <ele>261.2</ele>
        <time>2019-02-03T09:07:40Z</time>
      </trkpt>
      <trkpt lat="43.55497" lon="6.22486">
        <ele>261.4</ele>
        <time>2019-02-03T09:07:50Z</time>
      </trkpt>
      <trkpt lat="43.55496" lon="6.22472">
        <ele>261.9</ele>
        <time>2019-02-03T09:07:58Z</time>
      </trkpt>
      <trkpt lat="43.55496" lon="6.22459">
        <ele>262.2</ele>
        <time>2019-02-03T09:08:05Z</time>
      </trkpt>
      <trkpt lat="43.55494" lon="6.22446">
        <ele>262.6</ele>
        <time>2019-02-03T09:08:15Z</time>
      </trkpt>
      <trkpt lat="43.55493" lon="6.22434">
        <ele>263.3</ele>
        <time>2019-02-03T09:08:24Z</time>
      </trkpt>
      <trkpt lat="43.5549" lon="6.2242">
        <ele>264</ele>
        <time>2019-02-03T09:08:33Z</time>
      </trkpt>
      <trkpt lat="43.55488" lon="6.22407">
        <ele>264.6</ele>
        <time>2019-02-03T09:08:43Z</time>
      </trkpt>
      <trkpt lat="43.55494" lon="6.22398">
        <ele>265.6</ele>
        <time>2019-02-03T09:09:23Z</time>
      </trkpt>
      <trkpt lat="43.55501" lon="6.2239">
        <ele>266.2</ele>
        <time>2019-02-03T09:10:26Z</time>
      </trkpt>
      <trkpt lat="43.55508" lon="6.22381">
        <ele>267.1</ele>
        <time>2019-02-03T09:10:36Z</time>
      </trkpt>
      <trkpt lat="43.55515" lon="6.22371">
        <ele>268.8</ele>
        <time>2019-02-03T09:10:49Z</time>
      </trkpt>
      <trkpt lat="43.55523" lon="6.22364">
        <ele>271.6</ele>
        <time>2019-02-03T09:11:05Z</time>
      </trkpt>
      <trkpt lat="43.55531" lon="6.22369">
        <ele>273.7</ele>
        <time>2019-02-03T09:11:17Z</time>
      </trkpt>
      <trkpt lat="43.55541" lon="6.22373">
        <ele>276.3</ele>
        <time>2019-02-03T09:11:34Z</time>
      </trkpt>
      <trkpt lat="43.55548" lon="6.22381">
        <ele>277.6</ele>
        <time>2019-02-03T09:11:44Z</time>
      </trkpt>
      <trkpt lat="43.55553" lon="6.22392">
        <ele>278.8</ele>
        <time>2019-02-03T09:11:57Z</time>
      </trkpt>
      <trkpt lat="43.55564" lon="6.2239">
        <ele>279.7</ele>
        <time>2019-02-03T09:12:05Z</time>
      </trkpt>
      <trkpt lat="43.55572" lon="6.22396">
        <ele>280.6</ele>
        <time>2019-02-03T09:12:13Z</time>
      </trkpt>
      <trkpt lat="43.55579" lon="6.22404">
        <ele>281.5</ele>
        <time>2019-02-03T09:12:23Z</time>
      </trkpt>
      <trkpt lat="43.55585" lon="6.22414">
        <ele>282.2</ele>
        <time>2019-02-03T09:12:32Z</time>
      </trkpt>
      <trkpt lat="43.55592" lon="6.22424">
        <ele>283</ele>
        <time>2019-02-03T09:12:42Z</time>
      </trkpt>
      <trkpt lat="43.55597" lon="6.22434">
        <ele>283.5</ele>
        <time>2019-02-03T09:12:52Z</time>
      </trkpt>
      <trkpt lat="43.55605" lon="6.22443">
        <ele>283.7</ele>
        <time>2019-02-03T09:12:59Z</time>
      </trkpt>
      <trkpt lat="43.55612" lon="6.22452">
        <ele>283.8</ele>
        <time>2019-02-03T09:13:08Z</time>
      </trkpt>
      <trkpt lat="43.55618" lon="6.22462">
        <ele>284.7</ele>
        <time>2019-02-03T09:13:18Z</time>
      </trkpt>
      <trkpt lat="43.55624" lon="6.22472">
        <ele>285.2</ele>
        <time>2019-02-03T09:13:27Z</time>
      </trkpt>
      <trkpt lat="43.55631" lon="6.22481">
        <ele>285.5</ele>
        <time>2019-02-03T09:13:36Z</time>
      </trkpt>
      <trkpt lat="43.55638" lon="6.2249">
        <ele>285.7</ele>
        <time>2019-02-03T09:13:45Z</time>
      </trkpt>
      <trkpt lat="43.55643" lon="6.22501">
        <ele>285.9</ele>
        <time>2019-02-03T09:13:54Z</time>
      </trkpt>
      <trkpt lat="43.55649" lon="6.22512">
        <ele>286</ele>
        <time>2019-02-03T09:14:03Z</time>
      </trkpt>
      <trkpt lat="43.55654" lon="6.22524">
        <ele>286.3</ele>
        <time>2019-02-03T09:14:12Z</time>
      </trkpt>
      <trkpt lat="43.55658" lon="6.22535">
        <ele>287</ele>
        <time>2019-02-03T09:14:21Z</time>
      </trkpt>
      <trkpt lat="43.55665" lon="6.22545">
        <ele>287.3</ele>
        <time>2019-02-03T09:14:29Z</time>
      </trkpt>
      <trkpt lat="43.55673" lon="6.22553">
        <ele>287.8</ele>
        <time>2019-02-03T09:14:37Z</time>
      </trkpt>
      <trkpt lat="43.55681" lon="6.22558">
        <ele>288.2</ele>
        <time>2019-02-03T09:14:45Z</time>
      </trkpt>
      <trkpt lat="43.55689" lon="6.22564">
        <ele>288.8</ele>
        <time>2019-02-03T09:14:54Z</time>
      </trkpt>
      <trkpt lat="43.55693" lon="6.22577">
        <ele>289.3</ele>
        <time>2019-02-03T09:15:03Z</time>
      </trkpt>
      <trkpt lat="43.55694" lon="6.2259">
        <ele>289.8</ele>
        <time>2019-02-03T09:15:11Z</time>
      </trkpt>
      <trkpt lat="43.55697" lon="6.22602">
        <ele>290.4</ele>
        <time>2019-02-03T09:15:18Z</time>
      </trkpt>
      <trkpt lat="43.55694" lon="6.22616">
        <ele>291</ele>
        <time>2019-02-03T09:15:26Z</time>
      </trkpt>
      <trkpt lat="43.55697" lon="6.22629">
        <ele>292.3</ele>
        <time>2019-02-03T09:15:36Z</time>
      </trkpt>
      <trkpt lat="43.55697" lon="6.22642">
        <ele>293.4</ele>
        <time>2019-02-03T09:15:44Z</time>
      </trkpt>
      <trkpt lat="43.55697" lon="6.22655">
        <ele>294.6</ele>
        <time>2019-02-03T09:15:55Z</time>
      </trkpt>
      <trkpt lat="43.55697" lon="6.22668">
        <ele>295.5</ele>
        <time>2019-02-03T09:16:03Z</time>
      </trkpt>
      <trkpt lat="43.55698" lon="6.22682">
        <ele>296.3</ele>
        <time>2019-02-03T09:16:10Z</time>
      </trkpt>
      <trkpt lat="43.55697" lon="6.22694">
        <ele>296.8</ele>
        <time>2019-02-03T09:16:19Z</time>
      </trkpt>
      <trkpt lat="43.55702" lon="6.22706">
        <ele>296.8</ele>
        <time>2019-02-03T09:16:28Z</time>
      </trkpt>
      <trkpt lat="43.5571" lon="6.22714">
        <ele>296.7</ele>
        <time>2019-02-03T09:16:34Z</time>
      </trkpt>
      <trkpt lat="43.55719" lon="6.22716">
        <ele>296.9</ele>
        <time>2019-02-03T09:16:40Z</time>
      </trkpt>
      <trkpt lat="43.55728" lon="6.22714">
        <ele>297.1</ele>
        <time>2019-02-03T09:16:50Z</time>
      </trkpt>
      <trkpt lat="43.55738" lon="6.22714">
        <ele>297.3</ele>
        <time>2019-02-03T09:16:58Z</time>
      </trkpt>
      <trkpt lat="43.55747" lon="6.22717">
        <ele>297</ele>
        <time>2019-02-03T09:17:07Z</time>
      </trkpt>
      <trkpt lat="43.55756" lon="6.22718">
        <ele>296.2</ele>
        <time>2019-02-03T09:17:17Z</time>
      </trkpt>
      <trkpt lat="43.55765" lon="6.22717">
        <ele>295.9</ele>
        <time>2019-02-03T09:17:23Z</time>
      </trkpt>
      <trkpt lat="43.55773" lon="6.22721">
        <ele>295.6</ele>
        <time>2019-02-03T09:17:32Z</time>
      </trkpt>
      <trkpt lat="43.55783" lon="6.22718">
        <ele>295.4</ele>
        <time>2019-02-03T09:19:22Z</time>
      </trkpt>
      <trkpt lat="43.55778" lon="6.22728">
        <ele>294.1</ele>
        <time>2019-02-03T09:21:42Z</time>
      </trkpt>
      <trkpt lat="43.55787" lon="6.22727">
        <ele>295.2</ele>
        <time>2019-02-03T09:22:36Z</time>
      </trkpt>
      <trkpt lat="43.55796" lon="6.22731">
        <ele>295.1</ele>
        <time>2019-02-03T09:22:51Z</time>
      </trkpt>
      <trkpt lat="43.55804" lon="6.22739">
        <ele>295.6</ele>
        <time>2019-02-03T09:23:03Z</time>
      </trkpt>
      <trkpt lat="43.55811" lon="6.22747">
        <ele>296.4</ele>
        <time>2019-02-03T09:23:17Z</time>
      </trkpt>
      <trkpt lat="43.5582" lon="6.22756">
        <ele>296.8</ele>
        <time>2019-02-03T09:23:26Z</time>
      </trkpt>
      <trkpt lat="43.55828" lon="6.22763">
        <ele>297</ele>
        <time>2019-02-03T09:23:35Z</time>
      </trkpt>
      <trkpt lat="43.55835" lon="6.22771">
        <ele>297.2</ele>
        <time>2019-02-03T09:23:43Z</time>
      </trkpt>
      <trkpt lat="43.55845" lon="6.22773">
        <ele>297.6</ele>
        <time>2019-02-03T09:23:51Z</time>
      </trkpt>
      <trkpt lat="43.55855" lon="6.22773">
        <ele>298.1</ele>
        <time>2019-02-03T09:23:58Z</time>
      </trkpt>
      <trkpt lat="43.55863" lon="6.22778">
        <ele>298.6</ele>
        <time>2019-02-03T09:24:08Z</time>
      </trkpt>
      <trkpt lat="43.55873" lon="6.22779">
        <ele>298.9</ele>
        <time>2019-02-03T09:24:14Z</time>
      </trkpt>
      <trkpt lat="43.55883" lon="6.22776">
        <ele>299.2</ele>
        <time>2019-02-03T09:24:23Z</time>
      </trkpt>
      <trkpt lat="43.55892" lon="6.22774">
        <ele>299.3</ele>
        <time>2019-02-03T09:24:28Z</time>
      </trkpt>
      <trkpt lat="43.55901" lon="6.22768">
        <ele>299.3</ele>
        <time>2019-02-03T09:24:35Z</time>
      </trkpt>
      <trkpt lat="43.55909" lon="6.22761">
        <ele>299.2</ele>
        <time>2019-02-03T09:24:41Z</time>
      </trkpt>
      <trkpt lat="43.55918" lon="6.22754">
        <ele>299</ele>
        <time>2019-02-03T09:24:49Z</time>
      </trkpt>
      <trkpt lat="43.55927" lon="6.22749">
        <ele>299</ele>
        <time>2019-02-03T09:25:01Z</time>
      </trkpt>
      <trkpt lat="43.55938" lon="6.22747">
        <ele>299.1</ele>
        <time>2019-02-03T09:25:14Z</time>
      </trkpt>
      <trkpt lat="43.55945" lon="6.22758">
        <ele>299.2</ele>
        <time>2019-02-03T09:25:26Z</time>
      </trkpt>
      <trkpt lat="43.55955" lon="6.22758">
        <ele>299.2</ele>
        <time>2019-02-03T09:25:33Z</time>
      </trkpt>
      <trkpt lat="43.55963" lon="6.22761">
        <ele>299.4</ele>
        <time>2019-02-03T09:25:42Z</time>
      </trkpt>
      <trkpt lat="43.55972" lon="6.22759">
        <ele>299.5</ele>
        <time>2019-02-03T09:25:48Z</time>
      </trkpt>
      <trkpt lat="43.55982" lon="6.22761">
        <ele>299.4</ele>
        <time>2019-02-03T09:25:56Z</time>
      </trkpt>
      <trkpt lat="43.55992" lon="6.22765">
        <ele>299.2</ele>
        <time>2019-02-03T09:26:05Z</time>
      </trkpt>
      <trkpt lat="43.56001" lon="6.22768">
        <ele>299.2</ele>
        <time>2019-02-03T09:26:17Z</time>
      </trkpt>
      <trkpt lat="43.5601" lon="6.22776">
        <ele>298.7</ele>
        <time>2019-02-03T09:26:27Z</time>
      </trkpt>
      <trkpt lat="43.56015" lon="6.22787">
        <ele>298</ele>
        <time>2019-02-03T09:26:35Z</time>
      </trkpt>
      <trkpt lat="43.56024" lon="6.22789">
        <ele>297.4</ele>
        <time>2019-02-03T09:26:43Z</time>
      </trkpt>
      <trkpt lat="43.56034" lon="6.22786">
        <ele>296.7</ele>
        <time>2019-02-03T09:26:49Z</time>
      </trkpt>
      <trkpt lat="43.56044" lon="6.22787">
        <ele>295.9</ele>
        <time>2019-02-03T09:26:57Z</time>
      </trkpt>
      <trkpt lat="43.56053" lon="6.22788">
        <ele>295.5</ele>
        <time>2019-02-03T09:27:03Z</time>
      </trkpt>
      <trkpt lat="43.56062" lon="6.22785">
        <ele>295</ele>
        <time>2019-02-03T09:27:10Z</time>
      </trkpt>
      <trkpt lat="43.56072" lon="6.22784">
        <ele>294.7</ele>
        <time>2019-02-03T09:27:17Z</time>
      </trkpt>
      <trkpt lat="43.56082" lon="6.22778">
        <ele>294.4</ele>
        <time>2019-02-03T09:27:25Z</time>
      </trkpt>
      <trkpt lat="43.56091" lon="6.22775">
        <ele>294</ele>
        <time>2019-02-03T09:27:33Z</time>
      </trkpt>
      <trkpt lat="43.561" lon="6.2277">
        <ele>293.7</ele>
        <time>2019-02-03T09:27:38Z</time>
      </trkpt>
      <trkpt lat="43.56109" lon="6.22765">
        <ele>293.5</ele>
        <time>2019-02-03T09:27:45Z</time>
      </trkpt>
      <trkpt lat="43.56115" lon="6.22756">
        <ele>293.3</ele>
        <time>2019-02-03T09:27:54Z</time>
      </trkpt>
      <trkpt lat="43.56121" lon="6.22745">
        <ele>293.3</ele>
        <time>2019-02-03T09:28:03Z</time>
      </trkpt>
      <trkpt lat="43.56125" lon="6.22733">
        <ele>293.4</ele>
        <time>2019-02-03T09:28:11Z</time>
      </trkpt>
      <trkpt lat="43.56127" lon="6.22721">
        <ele>293.6</ele>
        <time>2019-02-03T09:28:19Z</time>
      </trkpt>
      <trkpt lat="43.56125" lon="6.22708">
        <ele>294.1</ele>
        <time>2019-02-03T09:28:30Z</time>
      </trkpt>
      <trkpt lat="43.56123" lon="6.22695">
        <ele>294.4</ele>
        <time>2019-02-03T09:28:38Z</time>
      </trkpt>
      <trkpt lat="43.56126" lon="6.22682">
        <ele>294.7</ele>
        <time>2019-02-03T09:28:47Z</time>
      </trkpt>
      <trkpt lat="43.56123" lon="6.22671">
        <ele>295.6</ele>
        <time>2019-02-03T09:28:57Z</time>
      </trkpt>
      <trkpt lat="43.56124" lon="6.22656">
        <ele>296.6</ele>
        <time>2019-02-03T09:29:09Z</time>
      </trkpt>
      <trkpt lat="43.56126" lon="6.22643">
        <ele>296.9</ele>
        <time>2019-02-03T09:29:17Z</time>
      </trkpt>
      <trkpt lat="43.56126" lon="6.2263">
        <ele>297.9</ele>
        <time>2019-02-03T09:29:30Z</time>
      </trkpt>
      <trkpt lat="43.56124" lon="6.22618">
        <ele>299.1</ele>
        <time>2019-02-03T09:29:46Z</time>
      </trkpt>
      <trkpt lat="43.56126" lon="6.22605">
        <ele>300.4</ele>
        <time>2019-02-03T09:30:01Z</time>
      </trkpt>
      <trkpt lat="43.56119" lon="6.22595">
        <ele>301.7</ele>
        <time>2019-02-03T09:30:12Z</time>
      </trkpt>
      <trkpt lat="43.5611" lon="6.22592">
        <ele>303.4</ele>
        <time>2019-02-03T09:30:23Z</time>
      </trkpt>
      <trkpt lat="43.56102" lon="6.22599">
        <ele>305.8</ele>
        <time>2019-02-03T09:30:39Z</time>
      </trkpt>
      <trkpt lat="43.56093" lon="6.22603">
        <ele>307.2</ele>
        <time>2019-02-03T09:30:49Z</time>
      </trkpt>
      <trkpt lat="43.56086" lon="6.22595">
        <ele>310.4</ele>
        <time>2019-02-03T09:31:11Z</time>
      </trkpt>
      <trkpt lat="43.56088" lon="6.22583">
        <ele>311.9</ele>
        <time>2019-02-03T09:31:20Z</time>
      </trkpt>
      <trkpt lat="43.56083" lon="6.22572">
        <ele>313.3</ele>
        <time>2019-02-03T09:31:30Z</time>
      </trkpt>
      <trkpt lat="43.56079" lon="6.2256">
        <ele>314.3</ele>
        <time>2019-02-03T09:31:41Z</time>
      </trkpt>
      <trkpt lat="43.56077" lon="6.22547">
        <ele>314.9</ele>
        <time>2019-02-03T09:31:50Z</time>
      </trkpt>
      <trkpt lat="43.56078" lon="6.22534">
        <ele>315.3</ele>
        <time>2019-02-03T09:31:59Z</time>
      </trkpt>
      <trkpt lat="43.56077" lon="6.22521">
        <ele>315.9</ele>
        <time>2019-02-03T09:32:09Z</time>
      </trkpt>
      <trkpt lat="43.56075" lon="6.22508">
        <ele>316.2</ele>
        <time>2019-02-03T09:32:16Z</time>
      </trkpt>
      <trkpt lat="43.56072" lon="6.22496">
        <ele>317</ele>
        <time>2019-02-03T09:32:26Z</time>
      </trkpt>
      <trkpt lat="43.56071" lon="6.22483">
        <ele>317.6</ele>
        <time>2019-02-03T09:32:36Z</time>
      </trkpt>
      <trkpt lat="43.56077" lon="6.22474">
        <ele>317.9</ele>
        <time>2019-02-03T09:32:44Z</time>
      </trkpt>
      <trkpt lat="43.56076" lon="6.22461">
        <ele>318.3</ele>
        <time>2019-02-03T09:32:53Z</time>
      </trkpt>
      <trkpt lat="43.56072" lon="6.22449">
        <ele>319.1</ele>
        <time>2019-02-03T09:33:02Z</time>
      </trkpt>
      <trkpt lat="43.56065" lon="6.22441">
        <ele>319.8</ele>
        <time>2019-02-03T09:33:10Z</time>
      </trkpt>
      <trkpt lat="43.56069" lon="6.2243">
        <ele>320.5</ele>
        <time>2019-02-03T09:33:21Z</time>
      </trkpt>
      <trkpt lat="43.56063" lon="6.22419">
        <ele>321.5</ele>
        <time>2019-02-03T09:33:33Z</time>
      </trkpt>
      <trkpt lat="43.56061" lon="6.22406">
        <ele>322.1</ele>
        <time>2019-02-03T09:33:43Z</time>
      </trkpt>
      <trkpt lat="43.56068" lon="6.22396">
        <ele>322.5</ele>
        <time>2019-02-03T09:33:53Z</time>
      </trkpt>
      <trkpt lat="43.56076" lon="6.22388">
        <ele>322.6</ele>
        <time>2019-02-03T09:33:59Z</time>
      </trkpt>
      <trkpt lat="43.56083" lon="6.22379">
        <ele>322.7</ele>
        <time>2019-02-03T09:34:05Z</time>
      </trkpt>
      <trkpt lat="43.56089" lon="6.22369">
        <ele>322.9</ele>
        <time>2019-02-03T09:34:12Z</time>
      </trkpt>
      <trkpt lat="43.56093" lon="6.22358">
        <ele>323.2</ele>
        <time>2019-02-03T09:34:24Z</time>
      </trkpt>
      <trkpt lat="43.56097" lon="6.22346">
        <ele>323.5</ele>
        <time>2019-02-03T09:34:34Z</time>
      </trkpt>
      <trkpt lat="43.56099" lon="6.22334">
        <ele>323.9</ele>
        <time>2019-02-03T09:34:43Z</time>
      </trkpt>
      <trkpt lat="43.56103" lon="6.22322">
        <ele>324.2</ele>
        <time>2019-02-03T09:34:52Z</time>
      </trkpt>
      <trkpt lat="43.56111" lon="6.22315">
        <ele>324.5</ele>
        <time>2019-02-03T09:34:57Z</time>
      </trkpt>
      <trkpt lat="43.56115" lon="6.22303">
        <ele>325</ele>
        <time>2019-02-03T09:35:05Z</time>
      </trkpt>
      <trkpt lat="43.56116" lon="6.2229">
        <ele>326.3</ele>
        <time>2019-02-03T09:35:16Z</time>
      </trkpt>
      <trkpt lat="43.56115" lon="6.22278">
        <ele>327.1</ele>
        <time>2019-02-03T09:35:26Z</time>
      </trkpt>
      <trkpt lat="43.5612" lon="6.22266">
        <ele>328.2</ele>
        <time>2019-02-03T09:35:38Z</time>
      </trkpt>
      <trkpt lat="43.56118" lon="6.22254">
        <ele>328.8</ele>
        <time>2019-02-03T09:35:47Z</time>
      </trkpt>
      <trkpt lat="43.56119" lon="6.22241">
        <ele>329.8</ele>
        <time>2019-02-03T09:35:58Z</time>
      </trkpt>
      <trkpt lat="43.56115" lon="6.22228">
        <ele>330.2</ele>
        <time>2019-02-03T09:36:06Z</time>
      </trkpt>
      <trkpt lat="43.56108" lon="6.2222">
        <ele>330.4</ele>
        <time>2019-02-03T09:36:13Z</time>
      </trkpt>
      <trkpt lat="43.56105" lon="6.22207">
        <ele>330.6</ele>
        <time>2019-02-03T09:36:22Z</time>
      </trkpt>
      <trkpt lat="43.56099" lon="6.22196">
        <ele>330.9</ele>
        <time>2019-02-03T09:36:30Z</time>
      </trkpt>
      <trkpt lat="43.56096" lon="6.22184">
        <ele>331.2</ele>
        <time>2019-02-03T09:36:37Z</time>
      </trkpt>
      <trkpt lat="43.5609" lon="6.22174">
        <ele>331.8</ele>
        <time>2019-02-03T09:36:47Z</time>
      </trkpt>
      <trkpt lat="43.56086" lon="6.22162">
        <ele>334.6</ele>
        <time>2019-02-03T09:37:10Z</time>
      </trkpt>
      <trkpt lat="43.56079" lon="6.22152">
        <ele>335.1</ele>
        <time>2019-02-03T09:37:16Z</time>
      </trkpt>
      <trkpt lat="43.56073" lon="6.22143">
        <ele>335.9</ele>
        <time>2019-02-03T09:37:24Z</time>
      </trkpt>
      <trkpt lat="43.56069" lon="6.22131">
        <ele>336.9</ele>
        <time>2019-02-03T09:37:33Z</time>
      </trkpt>
      <trkpt lat="43.56068" lon="6.22117">
        <ele>337.3</ele>
        <time>2019-02-03T09:37:42Z</time>
      </trkpt>
      <trkpt lat="43.56068" lon="6.22104">
        <ele>337.8</ele>
        <time>2019-02-03T09:37:50Z</time>
      </trkpt>
      <trkpt lat="43.56069" lon="6.22091">
        <ele>337.9</ele>
        <time>2019-02-03T09:38:01Z</time>
      </trkpt>
      <trkpt lat="43.56062" lon="6.22082">
        <ele>338</ele>
        <time>2019-02-03T09:38:07Z</time>
      </trkpt>
      <trkpt lat="43.5606" lon="6.2207">
        <ele>338.9</ele>
        <time>2019-02-03T09:38:19Z</time>
      </trkpt>
      <trkpt lat="43.56056" lon="6.22058">
        <ele>340.2</ele>
        <time>2019-02-03T09:38:33Z</time>
      </trkpt>
      <trkpt lat="43.56057" lon="6.22044">
        <ele>341.5</ele>
        <time>2019-02-03T09:38:42Z</time>
      </trkpt>
      <trkpt lat="43.56051" lon="6.22034">
        <ele>342.9</ele>
        <time>2019-02-03T09:38:52Z</time>
      </trkpt>
      <trkpt lat="43.56049" lon="6.22022">
        <ele>344.1</ele>
        <time>2019-02-03T09:39:03Z</time>
      </trkpt>
      <trkpt lat="43.56049" lon="6.22009">
        <ele>344.9</ele>
        <time>2019-02-03T09:39:11Z</time>
      </trkpt>
      <trkpt lat="43.56052" lon="6.21997">
        <ele>345.6</ele>
        <time>2019-02-03T09:39:21Z</time>
      </trkpt>
      <trkpt lat="43.56048" lon="6.21986">
        <ele>346.8</ele>
        <time>2019-02-03T09:39:33Z</time>
      </trkpt>
      <trkpt lat="43.5604" lon="6.21979">
        <ele>347.8</ele>
        <time>2019-02-03T09:39:50Z</time>
      </trkpt>
      <trkpt lat="43.5604" lon="6.21966">
        <ele>349.1</ele>
        <time>2019-02-03T09:40:23Z</time>
      </trkpt>
      <trkpt lat="43.56034" lon="6.21957">
        <ele>349.8</ele>
        <time>2019-02-03T09:40:33Z</time>
      </trkpt>
      <trkpt lat="43.56032" lon="6.21944">
        <ele>350.3</ele>
        <time>2019-02-03T09:40:45Z</time>
      </trkpt>
      <trkpt lat="43.5603" lon="6.21931">
        <ele>350.9</ele>
        <time>2019-02-03T09:40:55Z</time>
      </trkpt>
      <trkpt lat="43.56029" lon="6.21918">
        <ele>351.9</ele>
        <time>2019-02-03T09:41:05Z</time>
      </trkpt>
      <trkpt lat="43.56026" lon="6.21906">
        <ele>352.7</ele>
        <time>2019-02-03T09:41:16Z</time>
      </trkpt>
      <trkpt lat="43.56022" lon="6.21894">
        <ele>354</ele>
        <time>2019-02-03T09:41:27Z</time>
      </trkpt>
      <trkpt lat="43.56019" lon="6.21882">
        <ele>355.5</ele>
        <time>2019-02-03T09:41:39Z</time>
      </trkpt>
      <trkpt lat="43.56017" lon="6.2187">
        <ele>357.2</ele>
        <time>2019-02-03T09:41:52Z</time>
      </trkpt>
      <trkpt lat="43.56009" lon="6.21863">
        <ele>359</ele>
        <time>2019-02-03T09:42:03Z</time>
      </trkpt>
      <trkpt lat="43.56001" lon="6.21859">
        <ele>360.4</ele>
        <time>2019-02-03T09:42:12Z</time>
      </trkpt>
      <trkpt lat="43.55992" lon="6.21861">
        <ele>363.4</ele>
        <time>2019-02-03T09:42:43Z</time>
      </trkpt>
      <trkpt lat="43.55983" lon="6.21857">
        <ele>366.8</ele>
        <time>2019-02-03T09:44:01Z</time>
      </trkpt>
      <trkpt lat="43.55984" lon="6.2187">
        <ele>368.8</ele>
        <time>2019-02-03T09:44:16Z</time>
      </trkpt>
      <trkpt lat="43.55975" lon="6.21871">
        <ele>372.8</ele>
        <time>2019-02-03T09:44:50Z</time>
      </trkpt>
      <trkpt lat="43.55965" lon="6.21871">
        <ele>374.2</ele>
        <time>2019-02-03T09:45:03Z</time>
      </trkpt>
      <trkpt lat="43.55956" lon="6.21867">
        <ele>379.7</ele>
        <time>2019-02-03T09:45:51Z</time>
      </trkpt>
      <trkpt lat="43.55946" lon="6.21868">
        <ele>382.6</ele>
        <time>2019-02-03T09:46:06Z</time>
      </trkpt>
      <trkpt lat="43.55937" lon="6.21869">
        <ele>384.4</ele>
        <time>2019-02-03T09:46:17Z</time>
      </trkpt>
      <trkpt lat="43.5593" lon="6.21877">
        <ele>387.9</ele>
        <time>2019-02-03T09:46:38Z</time>
      </trkpt>
      <trkpt lat="43.55922" lon="6.21884">
        <ele>391</ele>
        <time>2019-02-03T09:47:15Z</time>
      </trkpt>
      <trkpt lat="43.55928" lon="6.21874">
        <ele>393</ele>
        <time>2019-02-03T09:47:55Z</time>
      </trkpt>
      <trkpt lat="43.5592" lon="6.21865">
        <ele>394.7</ele>
        <time>2019-02-03T09:48:10Z</time>
      </trkpt>
      <trkpt lat="43.55913" lon="6.21858">
        <ele>397.7</ele>
        <time>2019-02-03T09:48:28Z</time>
      </trkpt>
      <trkpt lat="43.55912" lon="6.21845">
        <ele>400.8</ele>
        <time>2019-02-03T09:48:52Z</time>
      </trkpt>
      <trkpt lat="43.55904" lon="6.21839">
        <ele>402.7</ele>
        <time>2019-02-03T09:49:24Z</time>
      </trkpt>
      <trkpt lat="43.55897" lon="6.21849">
        <ele>402.1</ele>
        <time>2019-02-03T09:51:12Z</time>
      </trkpt>
      <trkpt lat="43.55897" lon="6.21862">
        <ele>403.4</ele>
        <time>2019-02-03T09:52:11Z</time>
      </trkpt>
      <trkpt lat="43.55895" lon="6.21874">
        <ele>405.3</ele>
        <time>2019-02-03T09:52:31Z</time>
      </trkpt>
      <trkpt lat="43.55898" lon="6.21886">
        <ele>405.8</ele>
        <time>2019-02-03T09:52:43Z</time>
      </trkpt>
      <trkpt lat="43.55896" lon="6.21899">
        <ele>406.4</ele>
        <time>2019-02-03T09:53:00Z</time>
      </trkpt>
      <trkpt lat="43.55894" lon="6.21912">
        <ele>407.3</ele>
        <time>2019-02-03T09:53:10Z</time>
      </trkpt>
      <trkpt lat="43.55893" lon="6.21925">
        <ele>407.9</ele>
        <time>2019-02-03T09:53:18Z</time>
      </trkpt>
      <trkpt lat="43.55891" lon="6.21937">
        <ele>408.2</ele>
        <time>2019-02-03T09:53:28Z</time>
      </trkpt>
      <trkpt lat="43.55888" lon="6.2195">
        <ele>408.4</ele>
        <time>2019-02-03T09:53:35Z</time>
      </trkpt>
      <trkpt lat="43.55884" lon="6.21961">
        <ele>408.6</ele>
        <time>2019-02-03T09:53:42Z</time>
      </trkpt>
      <trkpt lat="43.5588" lon="6.21974">
        <ele>409.7</ele>
        <time>2019-02-03T09:53:51Z</time>
      </trkpt>
      <trkpt lat="43.55878" lon="6.21987">
        <ele>410.4</ele>
        <time>2019-02-03T09:54:00Z</time>
      </trkpt>
      <trkpt lat="43.55876" lon="6.22">
        <ele>410.9</ele>
        <time>2019-02-03T09:54:08Z</time>
      </trkpt>
      <trkpt lat="43.55874" lon="6.22012">
        <ele>412.2</ele>
        <time>2019-02-03T09:54:18Z</time>
      </trkpt>
      <trkpt lat="43.55875" lon="6.22024">
        <ele>413.1</ele>
        <time>2019-02-03T09:54:27Z</time>
      </trkpt>
      <trkpt lat="43.55878" lon="6.22037">
        <ele>414</ele>
        <time>2019-02-03T09:54:37Z</time>
      </trkpt>
      <trkpt lat="43.55883" lon="6.22048">
        <ele>414.9</ele>
        <time>2019-02-03T09:54:47Z</time>
      </trkpt>
      <trkpt lat="43.55887" lon="6.2206">
        <ele>415.8</ele>
        <time>2019-02-03T09:54:59Z</time>
      </trkpt>
      <trkpt lat="43.55895" lon="6.22066">
        <ele>417.2</ele>
        <time>2019-02-03T09:55:25Z</time>
      </trkpt>
      <trkpt lat="43.55903" lon="6.22073">
        <ele>417.7</ele>
        <time>2019-02-03T09:55:36Z</time>
      </trkpt>
      <trkpt lat="43.55912" lon="6.22077">
        <ele>417.9</ele>
        <time>2019-02-03T09:55:49Z</time>
      </trkpt>
      <trkpt lat="43.5592" lon="6.22084">
        <ele>417.8</ele>
        <time>2019-02-03T09:55:56Z</time>
      </trkpt>
      <trkpt lat="43.55928" lon="6.22091">
        <ele>417.3</ele>
        <time>2019-02-03T09:56:04Z</time>
      </trkpt>
      <trkpt lat="43.55934" lon="6.22101">
        <ele>416.3</ele>
        <time>2019-02-03T09:56:17Z</time>
      </trkpt>
      <trkpt lat="43.5593" lon="6.22112">
        <ele>415.3</ele>
        <time>2019-02-03T09:56:26Z</time>
      </trkpt>
      <trkpt lat="43.55931" lon="6.22125">
        <ele>414.6</ele>
        <time>2019-02-03T09:56:35Z</time>
      </trkpt>
      <trkpt lat="43.55928" lon="6.22137">
        <ele>413.2</ele>
        <time>2019-02-03T09:56:46Z</time>
      </trkpt>
      <trkpt lat="43.55927" lon="6.22151">
        <ele>412.4</ele>
        <time>2019-02-03T09:56:54Z</time>
      </trkpt>
      <trkpt lat="43.55928" lon="6.22165">
        <ele>411.5</ele>
        <time>2019-02-03T09:57:02Z</time>
      </trkpt>
      <trkpt lat="43.55929" lon="6.22178">
        <ele>410.6</ele>
        <time>2019-02-03T09:57:12Z</time>
      </trkpt>
      <trkpt lat="43.55929" lon="6.22191">
        <ele>410.1</ele>
        <time>2019-02-03T09:57:21Z</time>
      </trkpt>
      <trkpt lat="43.55932" lon="6.22203">
        <ele>409.3</ele>
        <time>2019-02-03T09:57:32Z</time>
      </trkpt>
      <trkpt lat="43.55929" lon="6.22216">
        <ele>408.9</ele>
        <time>2019-02-03T09:57:39Z</time>
      </trkpt>
      <trkpt lat="43.5593" lon="6.22228">
        <ele>408.8</ele>
        <time>2019-02-03T09:57:46Z</time>
      </trkpt>
      <trkpt lat="43.55931" lon="6.22241">
        <ele>408.6</ele>
        <time>2019-02-03T09:58:01Z</time>
      </trkpt>
      <trkpt lat="43.55926" lon="6.22253">
        <ele>408.6</ele>
        <time>2019-02-03T09:58:09Z</time>
      </trkpt>
      <trkpt lat="43.55925" lon="6.22265">
        <ele>408.6</ele>
        <time>2019-02-03T09:58:20Z</time>
      </trkpt>
      <trkpt lat="43.55925" lon="6.22278">
        <ele>408.6</ele>
        <time>2019-02-03T09:58:32Z</time>
      </trkpt>
      <trkpt lat="43.55917" lon="6.22285">
        <ele>408.8</ele>
        <time>2019-02-03T09:58:43Z</time>
      </trkpt>
      <trkpt lat="43.55909" lon="6.22291">
        <ele>408.9</ele>
        <time>2019-02-03T09:59:24Z</time>
      </trkpt>
      <trkpt lat="43.55912" lon="6.22302">
        <ele>408</ele>
        <time>2019-02-03T09:59:47Z</time>
      </trkpt>
      <trkpt lat="43.55922" lon="6.22305">
        <ele>407.7</ele>
        <time>2019-02-03T10:00:02Z</time>
      </trkpt>
      <trkpt lat="43.55932" lon="6.22306">
        <ele>407.5</ele>
        <time>2019-02-03T10:00:15Z</time>
      </trkpt>
      <trkpt lat="43.55941" lon="6.2231">
        <ele>406.5</ele>
        <time>2019-02-03T10:00:29Z</time>
      </trkpt>
      <trkpt lat="43.55949" lon="6.22314">
        <ele>404.5</ele>
        <time>2019-02-03T10:00:51Z</time>
      </trkpt>
      <trkpt lat="43.55947" lon="6.22327">
        <ele>403.7</ele>
        <time>2019-02-03T10:01:08Z</time>
      </trkpt>
      <trkpt lat="43.55954" lon="6.22337">
        <ele>402.8</ele>
        <time>2019-02-03T10:01:35Z</time>
      </trkpt>
      <trkpt lat="43.55944" lon="6.22333">
        <ele>401</ele>
        <time>2019-02-03T10:02:54Z</time>
      </trkpt>
      <trkpt lat="43.55937" lon="6.22342">
        <ele>401</ele>
        <time>2019-02-03T10:03:03Z</time>
      </trkpt>
      <trkpt lat="43.5594" lon="6.22354">
        <ele>400.1</ele>
        <time>2019-02-03T10:03:15Z</time>
      </trkpt>
      <trkpt lat="43.55945" lon="6.22365">
        <ele>399.3</ele>
        <time>2019-02-03T10:03:25Z</time>
      </trkpt>
      <trkpt lat="43.55945" lon="6.22378">
        <ele>397.9</ele>
        <time>2019-02-03T10:03:38Z</time>
      </trkpt>
      <trkpt lat="43.55954" lon="6.22376">
        <ele>397.6</ele>
        <time>2019-02-03T10:06:29Z</time>
      </trkpt>
      <trkpt lat="43.55946" lon="6.2237">
        <ele>396.4</ele>
        <time>2019-02-03T10:07:46Z</time>
      </trkpt>
      <trkpt lat="43.55955" lon="6.22367">
        <ele>396.4</ele>
        <time>2019-02-03T10:07:57Z</time>
      </trkpt>
      <trkpt lat="43.55946" lon="6.2237">
        <ele>396.2</ele>
        <time>2019-02-03T10:08:49Z</time>
      </trkpt>
      <trkpt lat="43.55936" lon="6.2237">
        <ele>396.7</ele>
        <time>2019-02-03T10:10:11Z</time>
      </trkpt>
      <trkpt lat="43.55929" lon="6.22362">
        <ele>397.4</ele>
        <time>2019-02-03T10:10:24Z</time>
      </trkpt>
      <trkpt lat="43.5592" lon="6.22359">
        <ele>398.8</ele>
        <time>2019-02-03T10:10:36Z</time>
      </trkpt>
      <trkpt lat="43.5591" lon="6.22357">
        <ele>399.4</ele>
        <time>2019-02-03T10:10:45Z</time>
      </trkpt>
      <trkpt lat="43.559" lon="6.2236">
        <ele>399.7</ele>
        <time>2019-02-03T10:10:54Z</time>
      </trkpt>
      <trkpt lat="43.55891" lon="6.22359">
        <ele>399.6</ele>
        <time>2019-02-03T10:11:01Z</time>
      </trkpt>
      <trkpt lat="43.5589" lon="6.22346">
        <ele>399.4</ele>
        <time>2019-02-03T10:11:14Z</time>
      </trkpt>
      <trkpt lat="43.5589" lon="6.22334">
        <ele>400.1</ele>
        <time>2019-02-03T10:11:24Z</time>
      </trkpt>
      <trkpt lat="43.55892" lon="6.22321">
        <ele>400.9</ele>
        <time>2019-02-03T10:11:35Z</time>
      </trkpt>
      <trkpt lat="43.55895" lon="6.22309">
        <ele>402.6</ele>
        <time>2019-02-03T10:11:54Z</time>
      </trkpt>
      <trkpt lat="43.55903" lon="6.22302">
        <ele>403.6</ele>
        <time>2019-02-03T10:12:05Z</time>
      </trkpt>
      <trkpt lat="43.5591" lon="6.22293">
        <ele>404.5</ele>
        <time>2019-02-03T10:12:15Z</time>
      </trkpt>
      <trkpt lat="43.55909" lon="6.2228">
        <ele>405.9</ele>
        <time>2019-02-03T10:12:27Z</time>
      </trkpt>
      <trkpt lat="43.55905" lon="6.22269">
        <ele>407.1</ele>
        <time>2019-02-03T10:12:38Z</time>
      </trkpt>
      <trkpt lat="43.55911" lon="6.22258">
        <ele>409.4</ele>
        <time>2019-02-03T10:13:04Z</time>
      </trkpt>
      <trkpt lat="43.55903" lon="6.22251">
        <ele>411.3</ele>
        <time>2019-02-03T10:13:22Z</time>
      </trkpt>
      <trkpt lat="43.55896" lon="6.22242">
        <ele>413.2</ele>
        <time>2019-02-03T10:13:35Z</time>
      </trkpt>
      <trkpt lat="43.55889" lon="6.22235">
        <ele>418.9</ele>
        <time>2019-02-03T10:14:42Z</time>
      </trkpt>
      <trkpt lat="43.55882" lon="6.22226">
        <ele>419.8</ele>
        <time>2019-02-03T10:14:55Z</time>
      </trkpt>
      <trkpt lat="43.55874" lon="6.22221">
        <ele>420.5</ele>
        <time>2019-02-03T10:15:19Z</time>
      </trkpt>
      <trkpt lat="43.55882" lon="6.22226">
        <ele>421.4</ele>
        <time>2019-02-03T10:16:26Z</time>
      </trkpt>
      <trkpt lat="43.55892" lon="6.22229">
        <ele>421.7</ele>
        <time>2019-02-03T10:18:12Z</time>
      </trkpt>
      <trkpt lat="43.55885" lon="6.22237">
        <ele>420.5</ele>
        <time>2019-02-03T10:19:02Z</time>
      </trkpt>
      <trkpt lat="43.55881" lon="6.22225">
        <ele>420.4</ele>
        <time>2019-02-03T10:19:18Z</time>
      </trkpt>
      <trkpt lat="43.55872" lon="6.22222">
        <ele>418.8</ele>
        <time>2019-02-03T10:21:54Z</time>
      </trkpt>
      <trkpt lat="43.55868" lon="6.22234">
        <ele>418.3</ele>
        <time>2019-02-03T10:24:31Z</time>
      </trkpt>
      <trkpt lat="43.55876" lon="6.22228">
        <ele>417.3</ele>
        <time>2019-02-03T10:31:13Z</time>
      </trkpt>
      <trkpt lat="43.55884" lon="6.22235">
        <ele>417.4</ele>
        <time>2019-02-03T10:31:28Z</time>
      </trkpt>
      <trkpt lat="43.55893" lon="6.2223">
        <ele>417.3</ele>
        <time>2019-02-03T10:31:42Z</time>
      </trkpt>
      <trkpt lat="43.55897" lon="6.22218">
        <ele>418.1</ele>
        <time>2019-02-03T10:32:00Z</time>
      </trkpt>
      <trkpt lat="43.55897" lon="6.22205">
        <ele>418</ele>
        <time>2019-02-03T10:32:16Z</time>
      </trkpt>
      <trkpt lat="43.55888" lon="6.22206">
        <ele>418.8</ele>
        <time>2019-02-03T10:32:41Z</time>
      </trkpt>
      <trkpt lat="43.55886" lon="6.22193">
        <ele>420.1</ele>
        <time>2019-02-03T10:33:56Z</time>
      </trkpt>
      <trkpt lat="43.55884" lon="6.2218">
        <ele>419.5</ele>
        <time>2019-02-03T10:34:08Z</time>
      </trkpt>
      <trkpt lat="43.55886" lon="6.22166">
        <ele>419.1</ele>
        <time>2019-02-03T10:34:18Z</time>
      </trkpt>
      <trkpt lat="43.55887" lon="6.22154">
        <ele>419.1</ele>
        <time>2019-02-03T10:34:27Z</time>
      </trkpt>
      <trkpt lat="43.55888" lon="6.22141">
        <ele>419.1</ele>
        <time>2019-02-03T10:34:37Z</time>
      </trkpt>
      <trkpt lat="43.55888" lon="6.22128">
        <ele>418.4</ele>
        <time>2019-02-03T10:34:45Z</time>
      </trkpt>
      <trkpt lat="43.55891" lon="6.22116">
        <ele>417.7</ele>
        <time>2019-02-03T10:34:54Z</time>
      </trkpt>
      <trkpt lat="43.55898" lon="6.22108">
        <ele>416.8</ele>
        <time>2019-02-03T10:35:04Z</time>
      </trkpt>
      <trkpt lat="43.55906" lon="6.22102">
        <ele>415.2</ele>
        <time>2019-02-03T10:35:12Z</time>
      </trkpt>
      <trkpt lat="43.55914" lon="6.22094">
        <ele>412.4</ele>
        <time>2019-02-03T10:35:27Z</time>
      </trkpt>
      <trkpt lat="43.55918" lon="6.22082">
        <ele>410.9</ele>
        <time>2019-02-03T10:35:38Z</time>
      </trkpt>
      <trkpt lat="43.55911" lon="6.22072">
        <ele>409.9</ele>
        <time>2019-02-03T10:35:46Z</time>
      </trkpt>
      <trkpt lat="43.55903" lon="6.22066">
        <ele>409.3</ele>
        <time>2019-02-03T10:35:54Z</time>
      </trkpt>
      <trkpt lat="43.55895" lon="6.2206">
        <ele>408.8</ele>
        <time>2019-02-03T10:36:02Z</time>
      </trkpt>
      <trkpt lat="43.5589" lon="6.22048">
        <ele>408.3</ele>
        <time>2019-02-03T10:36:14Z</time>
      </trkpt>
      <trkpt lat="43.55882" lon="6.22041">
        <ele>408</ele>
        <time>2019-02-03T10:36:22Z</time>
      </trkpt>
      <trkpt lat="43.55877" lon="6.2203">
        <ele>407.6</ele>
        <time>2019-02-03T10:36:33Z</time>
      </trkpt>
      <trkpt lat="43.55878" lon="6.22017">
        <ele>406.6</ele>
        <time>2019-02-03T10:36:45Z</time>
      </trkpt>
      <trkpt lat="43.5588" lon="6.22005">
        <ele>405.5</ele>
        <time>2019-02-03T10:36:58Z</time>
      </trkpt>
      <trkpt lat="43.5588" lon="6.21993">
        <ele>404.5</ele>
        <time>2019-02-03T10:37:08Z</time>
      </trkpt>
      <trkpt lat="43.55885" lon="6.21981">
        <ele>403.5</ele>
        <time>2019-02-03T10:37:19Z</time>
      </trkpt>
      <trkpt lat="43.55887" lon="6.21968">
        <ele>402.5</ele>
        <time>2019-02-03T10:37:30Z</time>
      </trkpt>
      <trkpt lat="43.55891" lon="6.21955">
        <ele>402.1</ele>
        <time>2019-02-03T10:37:38Z</time>
      </trkpt>
      <trkpt lat="43.55896" lon="6.21943">
        <ele>401.2</ele>
        <time>2019-02-03T10:37:49Z</time>
      </trkpt>
      <trkpt lat="43.55899" lon="6.2193">
        <ele>400.7</ele>
        <time>2019-02-03T10:37:58Z</time>
      </trkpt>
      <trkpt lat="43.559" lon="6.21917">
        <ele>400.1</ele>
        <time>2019-02-03T10:38:06Z</time>
      </trkpt>
      <trkpt lat="43.55903" lon="6.21904">
        <ele>399.2</ele>
        <time>2019-02-03T10:38:16Z</time>
      </trkpt>
      <trkpt lat="43.55905" lon="6.21892">
        <ele>398</ele>
        <time>2019-02-03T10:38:26Z</time>
      </trkpt>
      <trkpt lat="43.55905" lon="6.21878">
        <ele>397.1</ele>
        <time>2019-02-03T10:38:37Z</time>
      </trkpt>
      <trkpt lat="43.55905" lon="6.21865">
        <ele>396.5</ele>
        <time>2019-02-03T10:38:48Z</time>
      </trkpt>
      <trkpt lat="43.55902" lon="6.21851">
        <ele>396</ele>
        <time>2019-02-03T10:38:57Z</time>
      </trkpt>
      <trkpt lat="43.55904" lon="6.21838">
        <ele>395.7</ele>
        <time>2019-02-03T10:39:05Z</time>
      </trkpt>
      <trkpt lat="43.55906" lon="6.21825">
        <ele>395.6</ele>
        <time>2019-02-03T10:39:14Z</time>
      </trkpt>
      <trkpt lat="43.55906" lon="6.21812">
        <ele>395.7</ele>
        <time>2019-02-03T10:39:23Z</time>
      </trkpt>
      <trkpt lat="43.55906" lon="6.21799">
        <ele>396</ele>
        <time>2019-02-03T10:39:31Z</time>
      </trkpt>
      <trkpt lat="43.55898" lon="6.2179">
        <ele>396.7</ele>
        <time>2019-02-03T10:39:40Z</time>
      </trkpt>
      <trkpt lat="43.55893" lon="6.2178">
        <ele>397.1</ele>
        <time>2019-02-03T10:39:49Z</time>
      </trkpt>
      <trkpt lat="43.55894" lon="6.21767">
        <ele>397.8</ele>
        <time>2019-02-03T10:40:01Z</time>
      </trkpt>
      <trkpt lat="43.55895" lon="6.21753">
        <ele>398.6</ele>
        <time>2019-02-03T10:40:14Z</time>
      </trkpt>
      <trkpt lat="43.559" lon="6.21742">
        <ele>399.6</ele>
        <time>2019-02-03T10:40:23Z</time>
      </trkpt>
      <trkpt lat="43.55902" lon="6.2173">
        <ele>401</ele>
        <time>2019-02-03T10:40:34Z</time>
      </trkpt>
      <trkpt lat="43.55905" lon="6.21718">
        <ele>402.2</ele>
        <time>2019-02-03T10:40:43Z</time>
      </trkpt>
      <trkpt lat="43.55906" lon="6.21705">
        <ele>403.6</ele>
        <time>2019-02-03T10:40:53Z</time>
      </trkpt>
      <trkpt lat="43.55908" lon="6.21692">
        <ele>405.3</ele>
        <time>2019-02-03T10:41:07Z</time>
      </trkpt>
      <trkpt lat="43.55912" lon="6.21681">
        <ele>406.2</ele>
        <time>2019-02-03T10:41:14Z</time>
      </trkpt>
      <trkpt lat="43.55911" lon="6.21669">
        <ele>407.3</ele>
        <time>2019-02-03T10:41:27Z</time>
      </trkpt>
      <trkpt lat="43.55914" lon="6.21657">
        <ele>408</ele>
        <time>2019-02-03T10:41:34Z</time>
      </trkpt>
      <trkpt lat="43.55914" lon="6.21644">
        <ele>409</ele>
        <time>2019-02-03T10:41:44Z</time>
      </trkpt>
      <trkpt lat="43.55914" lon="6.21631">
        <ele>409.9</ele>
        <time>2019-02-03T10:41:53Z</time>
      </trkpt>
      <trkpt lat="43.5591" lon="6.21619">
        <ele>410.4</ele>
        <time>2019-02-03T10:41:59Z</time>
      </trkpt>
      <trkpt lat="43.5591" lon="6.21606">
        <ele>411</ele>
        <time>2019-02-03T10:42:12Z</time>
      </trkpt>
      <trkpt lat="43.55908" lon="6.21593">
        <ele>411.5</ele>
        <time>2019-02-03T10:42:21Z</time>
      </trkpt>
      <trkpt lat="43.55908" lon="6.2158">
        <ele>412.5</ele>
        <time>2019-02-03T10:42:31Z</time>
      </trkpt>
      <trkpt lat="43.55904" lon="6.21568">
        <ele>413.1</ele>
        <time>2019-02-03T10:42:40Z</time>
      </trkpt>
      <trkpt lat="43.55905" lon="6.21555">
        <ele>413.5</ele>
        <time>2019-02-03T10:42:48Z</time>
      </trkpt>
      <trkpt lat="43.55902" lon="6.21543">
        <ele>413.7</ele>
        <time>2019-02-03T10:42:57Z</time>
      </trkpt>
      <trkpt lat="43.55898" lon="6.21531">
        <ele>414</ele>
        <time>2019-02-03T10:43:07Z</time>
      </trkpt>
      <trkpt lat="43.55897" lon="6.21518">
        <ele>414.6</ele>
        <time>2019-02-03T10:43:16Z</time>
      </trkpt>
      <trkpt lat="43.55896" lon="6.21504">
        <ele>415</ele>
        <time>2019-02-03T10:43:26Z</time>
      </trkpt>
      <trkpt lat="43.55894" lon="6.21491">
        <ele>415.2</ele>
        <time>2019-02-03T10:43:39Z</time>
      </trkpt>
      <trkpt lat="43.55895" lon="6.21479">
        <ele>415.2</ele>
        <time>2019-02-03T10:43:52Z</time>
      </trkpt>
      <trkpt lat="43.55897" lon="6.21467">
        <ele>415.2</ele>
        <time>2019-02-03T10:44:01Z</time>
      </trkpt>
      <trkpt lat="43.55898" lon="6.21454">
        <ele>415.1</ele>
        <time>2019-02-03T10:44:10Z</time>
      </trkpt>
      <trkpt lat="43.55896" lon="6.21441">
        <ele>415.1</ele>
        <time>2019-02-03T10:44:20Z</time>
      </trkpt>
      <trkpt lat="43.55898" lon="6.21429">
        <ele>414.9</ele>
        <time>2019-02-03T10:44:30Z</time>
      </trkpt>
      <trkpt lat="43.55896" lon="6.21416">
        <ele>414.4</ele>
        <time>2019-02-03T10:44:39Z</time>
      </trkpt>
      <trkpt lat="43.55894" lon="6.21403">
        <ele>413.9</ele>
        <time>2019-02-03T10:44:47Z</time>
      </trkpt>
      <trkpt lat="43.55893" lon="6.2139">
        <ele>413.6</ele>
        <time>2019-02-03T10:44:56Z</time>
      </trkpt>
      <trkpt lat="43.55889" lon="6.21379">
        <ele>413.4</ele>
        <time>2019-02-03T10:45:04Z</time>
      </trkpt>
      <trkpt lat="43.55884" lon="6.21368">
        <ele>412.8</ele>
        <time>2019-02-03T10:45:12Z</time>
      </trkpt>
      <trkpt lat="43.55882" lon="6.21355">
        <ele>412.4</ele>
        <time>2019-02-03T10:45:21Z</time>
      </trkpt>
      <trkpt lat="43.55881" lon="6.21341">
        <ele>412</ele>
        <time>2019-02-03T10:45:31Z</time>
      </trkpt>
      <trkpt lat="43.55878" lon="6.21329">
        <ele>411.3</ele>
        <time>2019-02-03T10:45:39Z</time>
      </trkpt>
      <trkpt lat="43.55877" lon="6.21315">
        <ele>411</ele>
        <time>2019-02-03T10:45:47Z</time>
      </trkpt>
      <trkpt lat="43.55872" lon="6.21303">
        <ele>410.7</ele>
        <time>2019-02-03T10:45:56Z</time>
      </trkpt>
      <trkpt lat="43.55869" lon="6.21291">
        <ele>410.3</ele>
        <time>2019-02-03T10:46:05Z</time>
      </trkpt>
      <trkpt lat="43.55864" lon="6.2128">
        <ele>409.7</ele>
        <time>2019-02-03T10:46:13Z</time>
      </trkpt>
      <trkpt lat="43.5586" lon="6.21268">
        <ele>409.3</ele>
        <time>2019-02-03T10:46:22Z</time>
      </trkpt>
      <trkpt lat="43.55859" lon="6.21254">
        <ele>408.8</ele>
        <time>2019-02-03T10:46:29Z</time>
      </trkpt>
      <trkpt lat="43.5586" lon="6.2124">
        <ele>408.5</ele>
        <time>2019-02-03T10:46:38Z</time>
      </trkpt>
      <trkpt lat="43.55858" lon="6.21227">
        <ele>408.2</ele>
        <time>2019-02-03T10:46:50Z</time>
      </trkpt>
      <trkpt lat="43.55857" lon="6.21213">
        <ele>408.1</ele>
        <time>2019-02-03T10:46:56Z</time>
      </trkpt>
      <trkpt lat="43.55855" lon="6.212">
        <ele>408</ele>
        <time>2019-02-03T10:47:04Z</time>
      </trkpt>
      <trkpt lat="43.55855" lon="6.21188">
        <ele>407.9</ele>
        <time>2019-02-03T10:47:14Z</time>
      </trkpt>
      <trkpt lat="43.55851" lon="6.21176">
        <ele>407.9</ele>
        <time>2019-02-03T10:47:24Z</time>
      </trkpt>
      <trkpt lat="43.55847" lon="6.21165">
        <ele>407.7</ele>
        <time>2019-02-03T10:47:33Z</time>
      </trkpt>
      <trkpt lat="43.55847" lon="6.21152">
        <ele>407</ele>
        <time>2019-02-03T10:47:43Z</time>
      </trkpt>
      <trkpt lat="43.55847" lon="6.21138">
        <ele>406.2</ele>
        <time>2019-02-03T10:47:53Z</time>
      </trkpt>
      <trkpt lat="43.55849" lon="6.21125">
        <ele>405.5</ele>
        <time>2019-02-03T10:48:03Z</time>
      </trkpt>
      <trkpt lat="43.55842" lon="6.21116">
        <ele>404.9</ele>
        <time>2019-02-03T10:48:12Z</time>
      </trkpt>
      <trkpt lat="43.5584" lon="6.21102">
        <ele>404.2</ele>
        <time>2019-02-03T10:48:23Z</time>
      </trkpt>
      <trkpt lat="43.55839" lon="6.21089">
        <ele>403.9</ele>
        <time>2019-02-03T10:48:32Z</time>
      </trkpt>
      <trkpt lat="43.55839" lon="6.21075">
        <ele>403.8</ele>
        <time>2019-02-03T10:48:40Z</time>
      </trkpt>
      <trkpt lat="43.55839" lon="6.21062">
        <ele>404</ele>
        <time>2019-02-03T10:48:50Z</time>
      </trkpt>
      <trkpt lat="43.55837" lon="6.21049">
        <ele>404.2</ele>
        <time>2019-02-03T10:48:57Z</time>
      </trkpt>
      <trkpt lat="43.55837" lon="6.21035">
        <ele>404.2</ele>
        <time>2019-02-03T10:49:06Z</time>
      </trkpt>
      <trkpt lat="43.55833" lon="6.21024">
        <ele>404.2</ele>
        <time>2019-02-03T10:49:14Z</time>
      </trkpt>
      <trkpt lat="43.55835" lon="6.2101">
        <ele>404</ele>
        <time>2019-02-03T10:49:22Z</time>
      </trkpt>
      <trkpt lat="43.55836" lon="6.20998">
        <ele>403.5</ele>
        <time>2019-02-03T10:49:32Z</time>
      </trkpt>
      <trkpt lat="43.55835" lon="6.20984">
        <ele>402.8</ele>
        <time>2019-02-03T10:49:42Z</time>
      </trkpt>
      <trkpt lat="43.55837" lon="6.20972">
        <ele>402.2</ele>
        <time>2019-02-03T10:49:49Z</time>
      </trkpt>
      <trkpt lat="43.55833" lon="6.20961">
        <ele>401.7</ele>
        <time>2019-02-03T10:49:55Z</time>
      </trkpt>
      <trkpt lat="43.55834" lon="6.20948">
        <ele>401.2</ele>
        <time>2019-02-03T10:50:05Z</time>
      </trkpt>
      <trkpt lat="43.55834" lon="6.20935">
        <ele>400.7</ele>
        <time>2019-02-03T10:50:14Z</time>
      </trkpt>
      <trkpt lat="43.55834" lon="6.20921">
        <ele>400.3</ele>
        <time>2019-02-03T10:50:23Z</time>
      </trkpt>
      <trkpt lat="43.55831" lon="6.20908">
        <ele>399.8</ele>
        <time>2019-02-03T10:50:34Z</time>
      </trkpt>
      <trkpt lat="43.5583" lon="6.20896">
        <ele>399.6</ele>
        <time>2019-02-03T10:50:44Z</time>
      </trkpt>
      <trkpt lat="43.55832" lon="6.20884">
        <ele>399.3</ele>
        <time>2019-02-03T10:50:53Z</time>
      </trkpt>
      <trkpt lat="43.55831" lon="6.20871">
        <ele>398.9</ele>
        <time>2019-02-03T10:51:01Z</time>
      </trkpt>
      <trkpt lat="43.55834" lon="6.20857">
        <ele>398.6</ele>
        <time>2019-02-03T10:51:08Z</time>
      </trkpt>
      <trkpt lat="43.5583" lon="6.20846">
        <ele>398.2</ele>
        <time>2019-02-03T10:51:17Z</time>
      </trkpt>
      <trkpt lat="43.55824" lon="6.20835">
        <ele>397.9</ele>
        <time>2019-02-03T10:51:27Z</time>
      </trkpt>
      <trkpt lat="43.55819" lon="6.20825">
        <ele>397.8</ele>
        <time>2019-02-03T10:51:35Z</time>
      </trkpt>
      <trkpt lat="43.55818" lon="6.20812">
        <ele>397.7</ele>
        <time>2019-02-03T10:51:43Z</time>
      </trkpt>
      <trkpt lat="43.55812" lon="6.20801">
        <ele>397.6</ele>
        <time>2019-02-03T10:51:50Z</time>
      </trkpt>
      <trkpt lat="43.5581" lon="6.20788">
        <ele>397.9</ele>
        <time>2019-02-03T10:52:01Z</time>
      </trkpt>
      <trkpt lat="43.55808" lon="6.20776">
        <ele>398.1</ele>
        <time>2019-02-03T10:52:10Z</time>
      </trkpt>
      <trkpt lat="43.55802" lon="6.20766">
        <ele>398.3</ele>
        <time>2019-02-03T10:52:20Z</time>
      </trkpt>
      <trkpt lat="43.55796" lon="6.20756">
        <ele>398.4</ele>
        <time>2019-02-03T10:52:26Z</time>
      </trkpt>
      <trkpt lat="43.55794" lon="6.20744">
        <ele>398.5</ele>
        <time>2019-02-03T10:52:35Z</time>
      </trkpt>
      <trkpt lat="43.55791" lon="6.20732">
        <ele>398.8</ele>
        <time>2019-02-03T10:52:48Z</time>
      </trkpt>
      <trkpt lat="43.55783" lon="6.20724">
        <ele>398.9</ele>
        <time>2019-02-03T10:52:54Z</time>
      </trkpt>
      <trkpt lat="43.55774" lon="6.20717">
        <ele>399</ele>
        <time>2019-02-03T10:52:59Z</time>
      </trkpt>
      <trkpt lat="43.55765" lon="6.20715">
        <ele>399.2</ele>
        <time>2019-02-03T10:53:06Z</time>
      </trkpt>
      <trkpt lat="43.55755" lon="6.20715">
        <ele>399.1</ele>
        <time>2019-02-03T10:53:14Z</time>
      </trkpt>
      <trkpt lat="43.55745" lon="6.20715">
        <ele>398.8</ele>
        <time>2019-02-03T10:53:23Z</time>
      </trkpt>
      <trkpt lat="43.55736" lon="6.20717">
        <ele>398.2</ele>
        <time>2019-02-03T10:53:30Z</time>
      </trkpt>
      <trkpt lat="43.55727" lon="6.20712">
        <ele>397.5</ele>
        <time>2019-02-03T10:53:40Z</time>
      </trkpt>
      <trkpt lat="43.5572" lon="6.20703">
        <ele>397</ele>
        <time>2019-02-03T10:53:51Z</time>
      </trkpt>
      <trkpt lat="43.55713" lon="6.20694">
        <ele>396.7</ele>
        <time>2019-02-03T10:53:59Z</time>
      </trkpt>
      <trkpt lat="43.55706" lon="6.20684">
        <ele>395.8</ele>
        <time>2019-02-03T10:54:09Z</time>
      </trkpt>
      <trkpt lat="43.55698" lon="6.20677">
        <ele>395</ele>
        <time>2019-02-03T10:54:18Z</time>
      </trkpt>
      <trkpt lat="43.55689" lon="6.20673">
        <ele>394.2</ele>
        <time>2019-02-03T10:54:26Z</time>
      </trkpt>
      <trkpt lat="43.5568" lon="6.20668">
        <ele>393.6</ele>
        <time>2019-02-03T10:54:34Z</time>
      </trkpt>
      <trkpt lat="43.55673" lon="6.2066">
        <ele>393.2</ele>
        <time>2019-02-03T10:54:44Z</time>
      </trkpt>
      <trkpt lat="43.55663" lon="6.20657">
        <ele>392.9</ele>
        <time>2019-02-03T10:54:51Z</time>
      </trkpt>
      <trkpt lat="43.55657" lon="6.20647">
        <ele>392.4</ele>
        <time>2019-02-03T10:54:59Z</time>
      </trkpt>
      <trkpt lat="43.55649" lon="6.20641">
        <ele>391.9</ele>
        <time>2019-02-03T10:55:07Z</time>
      </trkpt>
      <trkpt lat="43.55639" lon="6.20636">
        <ele>391.9</ele>
        <time>2019-02-03T10:55:14Z</time>
      </trkpt>
      <trkpt lat="43.55629" lon="6.20637">
        <ele>391.9</ele>
        <time>2019-02-03T10:55:22Z</time>
      </trkpt>
      <trkpt lat="43.55619" lon="6.20634">
        <ele>391.8</ele>
        <time>2019-02-03T10:55:29Z</time>
      </trkpt>
      <trkpt lat="43.5561" lon="6.2063">
        <ele>391.7</ele>
        <time>2019-02-03T10:55:42Z</time>
      </trkpt>
      <trkpt lat="43.55601" lon="6.20627">
        <ele>391.7</ele>
        <time>2019-02-03T10:55:52Z</time>
      </trkpt>
      <trkpt lat="43.55593" lon="6.20621">
        <ele>391.7</ele>
        <time>2019-02-03T10:56:02Z</time>
      </trkpt>
      <trkpt lat="43.55586" lon="6.20612">
        <ele>391.3</ele>
        <time>2019-02-03T10:56:12Z</time>
      </trkpt>
      <trkpt lat="43.55577" lon="6.20602">
        <ele>391</ele>
        <time>2019-02-03T10:56:18Z</time>
      </trkpt>
      <trkpt lat="43.5557" lon="6.20595">
        <ele>390.8</ele>
        <time>2019-02-03T10:56:24Z</time>
      </trkpt>
      <trkpt lat="43.55561" lon="6.20591">
        <ele>390.5</ele>
        <time>2019-02-03T10:56:29Z</time>
      </trkpt>
      <trkpt lat="43.55553" lon="6.20584">
        <ele>390.5</ele>
        <time>2019-02-03T10:56:38Z</time>
      </trkpt>
      <trkpt lat="43.55549" lon="6.20573">
        <ele>390.4</ele>
        <time>2019-02-03T10:56:49Z</time>
      </trkpt>
      <trkpt lat="43.55545" lon="6.2056">
        <ele>390.2</ele>
        <time>2019-02-03T10:56:59Z</time>
      </trkpt>
      <trkpt lat="43.55547" lon="6.20547">
        <ele>389.6</ele>
        <time>2019-02-03T10:57:11Z</time>
      </trkpt>
      <trkpt lat="43.55544" lon="6.20535">
        <ele>389.1</ele>
        <time>2019-02-03T10:57:19Z</time>
      </trkpt>
      <trkpt lat="43.55536" lon="6.20527">
        <ele>388.7</ele>
        <time>2019-02-03T10:57:25Z</time>
      </trkpt>
      <trkpt lat="43.55533" lon="6.20514">
        <ele>388.1</ele>
        <time>2019-02-03T10:57:34Z</time>
      </trkpt>
      <trkpt lat="43.55527" lon="6.20504">
        <ele>387.8</ele>
        <time>2019-02-03T10:57:41Z</time>
      </trkpt>
      <trkpt lat="43.55519" lon="6.20497">
        <ele>387.5</ele>
        <time>2019-02-03T10:57:46Z</time>
      </trkpt>
      <trkpt lat="43.55512" lon="6.20489">
        <ele>387.2</ele>
        <time>2019-02-03T10:57:53Z</time>
      </trkpt>
      <trkpt lat="43.55505" lon="6.20481">
        <ele>387</ele>
        <time>2019-02-03T10:58:02Z</time>
      </trkpt>
      <trkpt lat="43.55497" lon="6.20473">
        <ele>386.8</ele>
        <time>2019-02-03T10:58:09Z</time>
      </trkpt>
      <trkpt lat="43.55489" lon="6.20468">
        <ele>386.7</ele>
        <time>2019-02-03T10:58:19Z</time>
      </trkpt>
      <trkpt lat="43.55482" lon="6.20459">
        <ele>386.5</ele>
        <time>2019-02-03T10:58:27Z</time>
      </trkpt>
      <trkpt lat="43.55476" lon="6.2045">
        <ele>386.1</ele>
        <time>2019-02-03T10:58:36Z</time>
      </trkpt>
      <trkpt lat="43.55468" lon="6.20443">
        <ele>385.9</ele>
        <time>2019-02-03T10:58:42Z</time>
      </trkpt>
      <trkpt lat="43.55459" lon="6.20439">
        <ele>385.6</ele>
        <time>2019-02-03T10:58:49Z</time>
      </trkpt>
      <trkpt lat="43.5545" lon="6.20432">
        <ele>385.5</ele>
        <time>2019-02-03T10:58:55Z</time>
      </trkpt>
      <trkpt lat="43.5544" lon="6.20432">
        <ele>385</ele>
        <time>2019-02-03T10:59:05Z</time>
      </trkpt>
      <trkpt lat="43.5543" lon="6.20427">
        <ele>384.5</ele>
        <time>2019-02-03T10:59:17Z</time>
      </trkpt>
      <trkpt lat="43.55421" lon="6.20424">
        <ele>384.4</ele>
        <time>2019-02-03T10:59:27Z</time>
      </trkpt>
      <trkpt lat="43.55413" lon="6.2042">
        <ele>384.3</ele>
        <time>2019-02-03T10:59:35Z</time>
      </trkpt>
      <trkpt lat="43.55404" lon="6.20414">
        <ele>384.6</ele>
        <time>2019-02-03T10:59:44Z</time>
      </trkpt>
      <trkpt lat="43.55395" lon="6.20409">
        <ele>384.7</ele>
        <time>2019-02-03T10:59:52Z</time>
      </trkpt>
      <trkpt lat="43.55386" lon="6.20403">
        <ele>384.8</ele>
        <time>2019-02-03T10:59:58Z</time>
      </trkpt>
      <trkpt lat="43.55377" lon="6.204">
        <ele>385</ele>
        <time>2019-02-03T11:00:08Z</time>
      </trkpt>
      <trkpt lat="43.55368" lon="6.20394">
        <ele>385.6</ele>
        <time>2019-02-03T11:00:18Z</time>
      </trkpt>
      <trkpt lat="43.55359" lon="6.20387">
        <ele>385.6</ele>
        <time>2019-02-03T11:00:28Z</time>
      </trkpt>
      <trkpt lat="43.55351" lon="6.20381">
        <ele>385.5</ele>
        <time>2019-02-03T11:00:38Z</time>
      </trkpt>
      <trkpt lat="43.55341" lon="6.20382">
        <ele>385.3</ele>
        <time>2019-02-03T11:00:45Z</time>
      </trkpt>
      <trkpt lat="43.55333" lon="6.20377">
        <ele>384.6</ele>
        <time>2019-02-03T11:00:55Z</time>
      </trkpt>
      <trkpt lat="43.55324" lon="6.20372">
        <ele>383.8</ele>
        <time>2019-02-03T11:01:06Z</time>
      </trkpt>
      <trkpt lat="43.55315" lon="6.20364">
        <ele>383</ele>
        <time>2019-02-03T11:01:15Z</time>
      </trkpt>
      <trkpt lat="43.55307" lon="6.20355">
        <ele>382.4</ele>
        <time>2019-02-03T11:01:24Z</time>
      </trkpt>
      <trkpt lat="43.553" lon="6.20347">
        <ele>381.5</ele>
        <time>2019-02-03T11:01:40Z</time>
      </trkpt>
      <trkpt lat="43.55292" lon="6.2034">
        <ele>381.3</ele>
        <time>2019-02-03T11:01:47Z</time>
      </trkpt>
      <trkpt lat="43.55284" lon="6.20332">
        <ele>380.9</ele>
        <time>2019-02-03T11:01:56Z</time>
      </trkpt>
      <trkpt lat="43.55276" lon="6.20325">
        <ele>380.6</ele>
        <time>2019-02-03T11:02:03Z</time>
      </trkpt>
      <trkpt lat="43.55268" lon="6.20318">
        <ele>380.3</ele>
        <time>2019-02-03T11:02:09Z</time>
      </trkpt>
      <trkpt lat="43.55262" lon="6.20307">
        <ele>380</ele>
        <time>2019-02-03T11:02:18Z</time>
      </trkpt>
      <trkpt lat="43.55252" lon="6.20304">
        <ele>379.8</ele>
        <time>2019-02-03T11:02:27Z</time>
      </trkpt>
      <trkpt lat="43.55246" lon="6.20293">
        <ele>379.8</ele>
        <time>2019-02-03T11:02:39Z</time>
      </trkpt>
      <trkpt lat="43.55238" lon="6.20285">
        <ele>379.8</ele>
        <time>2019-02-03T11:02:48Z</time>
      </trkpt>
      <trkpt lat="43.55229" lon="6.20281">
        <ele>379.8</ele>
        <time>2019-02-03T11:02:55Z</time>
      </trkpt>
      <trkpt lat="43.5522" lon="6.20274">
        <ele>379.6</ele>
        <time>2019-02-03T11:03:03Z</time>
      </trkpt>
      <trkpt lat="43.55211" lon="6.2027">
        <ele>379.5</ele>
        <time>2019-02-03T11:03:11Z</time>
      </trkpt>
      <trkpt lat="43.55202" lon="6.20265">
        <ele>379.4</ele>
        <time>2019-02-03T11:03:21Z</time>
      </trkpt>
      <trkpt lat="43.55193" lon="6.20259">
        <ele>379.3</ele>
        <time>2019-02-03T11:03:35Z</time>
      </trkpt>
      <trkpt lat="43.5519" lon="6.20247">
        <ele>378.9</ele>
        <time>2019-02-03T11:03:46Z</time>
      </trkpt>
      <trkpt lat="43.55183" lon="6.20238">
        <ele>378.5</ele>
        <time>2019-02-03T11:03:51Z</time>
      </trkpt>
      <trkpt lat="43.55176" lon="6.2023">
        <ele>377.7</ele>
        <time>2019-02-03T11:03:59Z</time>
      </trkpt>
      <trkpt lat="43.55166" lon="6.20225">
        <ele>376.7</ele>
        <time>2019-02-03T11:04:07Z</time>
      </trkpt>
      <trkpt lat="43.5516" lon="6.20216">
        <ele>375.6</ele>
        <time>2019-02-03T11:04:15Z</time>
      </trkpt>
      <trkpt lat="43.55152" lon="6.20206">
        <ele>373</ele>
        <time>2019-02-03T11:04:28Z</time>
      </trkpt>
      <trkpt lat="43.55147" lon="6.20196">
        <ele>371.7</ele>
        <time>2019-02-03T11:04:41Z</time>
      </trkpt>
      <trkpt lat="43.5514" lon="6.20186">
        <ele>370.3</ele>
        <time>2019-02-03T11:04:51Z</time>
      </trkpt>
      <trkpt lat="43.55131" lon="6.20179">
        <ele>369</ele>
        <time>2019-02-03T11:05:00Z</time>
      </trkpt>
      <trkpt lat="43.55122" lon="6.20174">
        <ele>368.3</ele>
        <time>2019-02-03T11:05:51Z</time>
      </trkpt>
      <trkpt lat="43.55114" lon="6.20168">
        <ele>368.2</ele>
        <time>2019-02-03T11:06:01Z</time>
      </trkpt>
      <trkpt lat="43.55105" lon="6.20163">
        <ele>367.9</ele>
        <time>2019-02-03T11:06:09Z</time>
      </trkpt>
      <trkpt lat="43.55096" lon="6.20162">
        <ele>367.8</ele>
        <time>2019-02-03T11:06:19Z</time>
      </trkpt>
      <trkpt lat="43.55085" lon="6.20163">
        <ele>367.3</ele>
        <time>2019-02-03T11:06:27Z</time>
      </trkpt>
      <trkpt lat="43.55075" lon="6.2016">
        <ele>367.1</ele>
        <time>2019-02-03T11:06:37Z</time>
      </trkpt>
      <trkpt lat="43.55066" lon="6.20157">
        <ele>367</ele>
        <time>2019-02-03T11:06:46Z</time>
      </trkpt>
      <trkpt lat="43.55057" lon="6.20155">
        <ele>367</ele>
        <time>2019-02-03T11:06:53Z</time>
      </trkpt>
      <trkpt lat="43.55048" lon="6.20153">
        <ele>367.3</ele>
        <time>2019-02-03T11:07:04Z</time>
      </trkpt>
      <trkpt lat="43.55039" lon="6.20154">
        <ele>367.4</ele>
        <time>2019-02-03T11:07:12Z</time>
      </trkpt>
      <trkpt lat="43.55029" lon="6.20153">
        <ele>367.4</ele>
        <time>2019-02-03T11:07:22Z</time>
      </trkpt>
      <trkpt lat="43.55021" lon="6.20162">
        <ele>367.7</ele>
        <time>2019-02-03T11:07:37Z</time>
      </trkpt>
      <trkpt lat="43.55012" lon="6.20162">
        <ele>367.4</ele>
        <time>2019-02-03T11:07:44Z</time>
      </trkpt>
      <trkpt lat="43.55002" lon="6.20161">
        <ele>367.1</ele>
        <time>2019-02-03T11:07:54Z</time>
      </trkpt>
      <trkpt lat="43.54993" lon="6.20163">
        <ele>366.4</ele>
        <time>2019-02-03T11:08:07Z</time>
      </trkpt>
      <trkpt lat="43.54985" lon="6.20158">
        <ele>365.8</ele>
        <time>2019-02-03T11:08:15Z</time>
      </trkpt>
      <trkpt lat="43.54976" lon="6.20158">
        <ele>365.7</ele>
        <time>2019-02-03T11:08:58Z</time>
      </trkpt>
      <trkpt lat="43.54965" lon="6.20158">
        <ele>365.6</ele>
        <time>2019-02-03T11:10:20Z</time>
      </trkpt>
      <trkpt lat="43.54956" lon="6.20158">
        <ele>365.2</ele>
        <time>2019-02-03T11:10:29Z</time>
      </trkpt>
      <trkpt lat="43.54946" lon="6.20158">
        <ele>364.8</ele>
        <time>2019-02-03T11:10:40Z</time>
      </trkpt>
      <trkpt lat="43.54936" lon="6.20157">
        <ele>364.6</ele>
        <time>2019-02-03T11:11:08Z</time>
      </trkpt>
      <trkpt lat="43.54927" lon="6.20156">
        <ele>364.6</ele>
        <time>2019-02-03T11:11:25Z</time>
      </trkpt>
      <trkpt lat="43.54918" lon="6.20153">
        <ele>364.5</ele>
        <time>2019-02-03T11:11:40Z</time>
      </trkpt>
      <trkpt lat="43.54907" lon="6.20151">
        <ele>364.4</ele>
        <time>2019-02-03T11:11:47Z</time>
      </trkpt>
      <trkpt lat="43.54897" lon="6.20153">
        <ele>363.9</ele>
        <time>2019-02-03T11:11:56Z</time>
      </trkpt>
      <trkpt lat="43.54888" lon="6.20149">
        <ele>363.5</ele>
        <time>2019-02-03T11:12:03Z</time>
      </trkpt>
      <trkpt lat="43.5488" lon="6.2014">
        <ele>363.1</ele>
        <time>2019-02-03T11:12:13Z</time>
      </trkpt>
      <trkpt lat="43.54871" lon="6.20135">
        <ele>362.9</ele>
        <time>2019-02-03T11:12:21Z</time>
      </trkpt>
      <trkpt lat="43.54861" lon="6.20129">
        <ele>363</ele>
        <time>2019-02-03T11:12:27Z</time>
      </trkpt>
      <trkpt lat="43.54854" lon="6.20122">
        <ele>362.7</ele>
        <time>2019-02-03T11:12:34Z</time>
      </trkpt>
      <trkpt lat="43.54846" lon="6.20117">
        <ele>362.5</ele>
        <time>2019-02-03T11:12:43Z</time>
      </trkpt>
      <trkpt lat="43.54835" lon="6.20118">
        <ele>362.1</ele>
        <time>2019-02-03T11:12:52Z</time>
      </trkpt>
      <trkpt lat="43.54833" lon="6.20131">
        <ele>362.1</ele>
        <time>2019-02-03T11:13:53Z</time>
      </trkpt>
      <trkpt lat="43.54825" lon="6.20138">
        <ele>361.3</ele>
        <time>2019-02-03T11:14:32Z</time>
      </trkpt>
      <trkpt lat="43.54819" lon="6.20148">
        <ele>361.2</ele>
        <time>2019-02-03T11:14:41Z</time>
      </trkpt>
      <trkpt lat="43.54812" lon="6.20158">
        <ele>361.3</ele>
        <time>2019-02-03T11:14:49Z</time>
      </trkpt>
      <trkpt lat="43.54809" lon="6.2017">
        <ele>361.4</ele>
        <time>2019-02-03T11:14:59Z</time>
      </trkpt>
      <trkpt lat="43.54793" lon="6.20167">
        <ele>352.9</ele>
        <time>2019-02-03T12:23:13Z</time>
      </trkpt>
      <trkpt lat="43.54755" lon="6.20183">
        <ele>375.7</ele>
        <time>2019-02-03T12:23:17Z</time>
      </trkpt>
      <trkpt lat="43.54767" lon="6.20244">
        <ele>373.9</ele>
        <time>2019-02-03T12:23:21Z</time>
      </trkpt>
      <trkpt lat="43.54817" lon="6.20221">
        <ele>377.3</ele>
        <time>2019-02-03T12:23:26Z</time>
      </trkpt>
      <trkpt lat="43.54802" lon="6.20165">
        <ele>354</ele>
        <time>2019-02-03T12:23:31Z</time>
      </trkpt>
      <trkpt lat="43.5481" lon="6.20157">
        <ele>355.1</ele>
        <time>2019-02-03T12:23:48Z</time>
      </trkpt>
      <trkpt lat="43.54818" lon="6.2015">
        <ele>355.7</ele>
        <time>2019-02-03T12:24:02Z</time>
      </trkpt>
      <trkpt lat="43.54822" lon="6.20138">
        <ele>356</ele>
        <time>2019-02-03T12:24:12Z</time>
      </trkpt>
      <trkpt lat="43.54832" lon="6.20135">
        <ele>356.3</ele>
        <time>2019-02-03T12:24:33Z</time>
      </trkpt>
      <trkpt lat="43.54839" lon="6.20127">
        <ele>356.6</ele>
        <time>2019-02-03T12:25:02Z</time>
      </trkpt>
      <trkpt lat="43.54846" lon="6.2012">
        <ele>356.5</ele>
        <time>2019-02-03T12:27:01Z</time>
      </trkpt>
      <trkpt lat="43.54854" lon="6.20127">
        <ele>356</ele>
        <time>2019-02-03T12:27:12Z</time>
      </trkpt>
      <trkpt lat="43.54861" lon="6.20136">
        <ele>356.2</ele>
        <time>2019-02-03T12:27:25Z</time>
      </trkpt>
      <trkpt lat="43.54869" lon="6.20141">
        <ele>356.2</ele>
        <time>2019-02-03T12:27:34Z</time>
      </trkpt>
      <trkpt lat="43.54877" lon="6.20147">
        <ele>356</ele>
        <time>2019-02-03T12:27:42Z</time>
      </trkpt>
      <trkpt lat="43.54886" lon="6.20153">
        <ele>356.3</ele>
        <time>2019-02-03T12:27:51Z</time>
      </trkpt>
      <trkpt lat="43.54895" lon="6.20155">
        <ele>356.9</ele>
        <time>2019-02-03T12:28:01Z</time>
      </trkpt>
      <trkpt lat="43.54905" lon="6.20157">
        <ele>357.2</ele>
        <time>2019-02-03T12:28:09Z</time>
      </trkpt>
      <trkpt lat="43.54914" lon="6.20156">
        <ele>357.5</ele>
        <time>2019-02-03T12:28:18Z</time>
      </trkpt>
      <trkpt lat="43.54923" lon="6.20159">
        <ele>358</ele>
        <time>2019-02-03T12:28:30Z</time>
      </trkpt>
      <trkpt lat="43.54932" lon="6.20165">
        <ele>358.2</ele>
        <time>2019-02-03T12:28:41Z</time>
      </trkpt>
      <trkpt lat="43.54942" lon="6.20165">
        <ele>358.3</ele>
        <time>2019-02-03T12:28:51Z</time>
      </trkpt>
      <trkpt lat="43.54951" lon="6.20166">
        <ele>358.4</ele>
        <time>2019-02-03T12:29:01Z</time>
      </trkpt>
      <trkpt lat="43.54961" lon="6.20166">
        <ele>358.6</ele>
        <time>2019-02-03T12:29:11Z</time>
      </trkpt>
      <trkpt lat="43.54971" lon="6.20167">
        <ele>358.8</ele>
        <time>2019-02-03T12:29:20Z</time>
      </trkpt>
      <trkpt lat="43.54981" lon="6.20168">
        <ele>359.2</ele>
        <time>2019-02-03T12:29:30Z</time>
      </trkpt>
      <trkpt lat="43.5499" lon="6.20172">
        <ele>359.6</ele>
        <time>2019-02-03T12:29:39Z</time>
      </trkpt>
      <trkpt lat="43.54999" lon="6.20176">
        <ele>359.8</ele>
        <time>2019-02-03T12:29:50Z</time>
      </trkpt>
      <trkpt lat="43.55008" lon="6.20176">
        <ele>360.2</ele>
        <time>2019-02-03T12:30:00Z</time>
      </trkpt>
      <trkpt lat="43.55017" lon="6.20168">
        <ele>360.3</ele>
        <time>2019-02-03T12:30:06Z</time>
      </trkpt>
      <trkpt lat="43.55026" lon="6.20164">
        <ele>360.8</ele>
        <time>2019-02-03T12:30:15Z</time>
      </trkpt>
      <trkpt lat="43.55036" lon="6.20163">
        <ele>361.2</ele>
        <time>2019-02-03T12:30:24Z</time>
      </trkpt>
      <trkpt lat="43.55045" lon="6.20167">
        <ele>361.4</ele>
        <time>2019-02-03T12:30:34Z</time>
      </trkpt>
      <trkpt lat="43.55054" lon="6.2017">
        <ele>361.6</ele>
        <time>2019-02-03T12:30:42Z</time>
      </trkpt>
      <trkpt lat="43.55064" lon="6.2017">
        <ele>361.6</ele>
        <time>2019-02-03T12:30:49Z</time>
      </trkpt>
      <trkpt lat="43.55074" lon="6.20169">
        <ele>361.5</ele>
        <time>2019-02-03T12:30:57Z</time>
      </trkpt>
      <trkpt lat="43.55082" lon="6.20175">
        <ele>361.5</ele>
        <time>2019-02-03T12:31:07Z</time>
      </trkpt>
      <trkpt lat="43.55091" lon="6.20176">
        <ele>361.4</ele>
        <time>2019-02-03T12:31:16Z</time>
      </trkpt>
      <trkpt lat="43.551" lon="6.20179">
        <ele>361.3</ele>
        <time>2019-02-03T12:31:24Z</time>
      </trkpt>
      <trkpt lat="43.5511" lon="6.20182">
        <ele>361.6</ele>
        <time>2019-02-03T12:31:33Z</time>
      </trkpt>
      <trkpt lat="43.55119" lon="6.20183">
        <ele>361.9</ele>
        <time>2019-02-03T12:31:42Z</time>
      </trkpt>
      <trkpt lat="43.55125" lon="6.20174">
        <ele>362.1</ele>
        <time>2019-02-03T12:31:52Z</time>
      </trkpt>
      <trkpt lat="43.55131" lon="6.20164">
        <ele>362.4</ele>
        <time>2019-02-03T12:31:59Z</time>
      </trkpt>
      <trkpt lat="43.55136" lon="6.20154">
        <ele>362.8</ele>
        <time>2019-02-03T12:32:06Z</time>
      </trkpt>
      <trkpt lat="43.55143" lon="6.20143">
        <ele>363.8</ele>
        <time>2019-02-03T12:32:14Z</time>
      </trkpt>
      <trkpt lat="43.5515" lon="6.20135">
        <ele>364.3</ele>
        <time>2019-02-03T12:32:20Z</time>
      </trkpt>
      <trkpt lat="43.55152" lon="6.20122">
        <ele>365.2</ele>
        <time>2019-02-03T12:32:34Z</time>
      </trkpt>
      <trkpt lat="43.55157" lon="6.2011">
        <ele>366.2</ele>
        <time>2019-02-03T12:32:44Z</time>
      </trkpt>
      <trkpt lat="43.55161" lon="6.20097">
        <ele>366.9</ele>
        <time>2019-02-03T12:32:51Z</time>
      </trkpt>
      <trkpt lat="43.55163" lon="6.20085">
        <ele>367.4</ele>
        <time>2019-02-03T12:32:58Z</time>
      </trkpt>
      <trkpt lat="43.55166" lon="6.20072">
        <ele>367.7</ele>
        <time>2019-02-03T12:33:06Z</time>
      </trkpt>
      <trkpt lat="43.5517" lon="6.20059">
        <ele>367.8</ele>
        <time>2019-02-03T12:33:14Z</time>
      </trkpt>
      <trkpt lat="43.55174" lon="6.20046">
        <ele>367.9</ele>
        <time>2019-02-03T12:33:23Z</time>
      </trkpt>
      <trkpt lat="43.55177" lon="6.20033">
        <ele>367.5</ele>
        <time>2019-02-03T12:33:31Z</time>
      </trkpt>
      <trkpt lat="43.5518" lon="6.20021">
        <ele>367</ele>
        <time>2019-02-03T12:33:38Z</time>
      </trkpt>
      <trkpt lat="43.55183" lon="6.20008">
        <ele>366.6</ele>
        <time>2019-02-03T12:33:46Z</time>
      </trkpt>
      <trkpt lat="43.55186" lon="6.19995">
        <ele>366.3</ele>
        <time>2019-02-03T12:33:55Z</time>
      </trkpt>
      <trkpt lat="43.55191" lon="6.19984">
        <ele>366.3</ele>
        <time>2019-02-03T12:34:02Z</time>
      </trkpt>
      <trkpt lat="43.55195" lon="6.19973">
        <ele>366</ele>
        <time>2019-02-03T12:34:10Z</time>
      </trkpt>
      <trkpt lat="43.552" lon="6.19962">
        <ele>365.8</ele>
        <time>2019-02-03T12:34:17Z</time>
      </trkpt>
      <trkpt lat="43.55208" lon="6.19953">
        <ele>365.5</ele>
        <time>2019-02-03T12:34:24Z</time>
      </trkpt>
      <trkpt lat="43.55213" lon="6.19942">
        <ele>365.3</ele>
        <time>2019-02-03T12:34:32Z</time>
      </trkpt>
      <trkpt lat="43.55219" lon="6.1993">
        <ele>365.2</ele>
        <time>2019-02-03T12:34:42Z</time>
      </trkpt>
      <trkpt lat="43.55224" lon="6.1992">
        <ele>364.5</ele>
        <time>2019-02-03T12:34:53Z</time>
      </trkpt>
      <trkpt lat="43.5523" lon="6.19909">
        <ele>363.7</ele>
        <time>2019-02-03T12:35:05Z</time>
      </trkpt>
      <trkpt lat="43.55237" lon="6.199">
        <ele>362.6</ele>
        <time>2019-02-03T12:35:16Z</time>
      </trkpt>
      <trkpt lat="43.55244" lon="6.19889">
        <ele>362</ele>
        <time>2019-02-03T12:35:25Z</time>
      </trkpt>
      <trkpt lat="43.5525" lon="6.19881">
        <ele>361.7</ele>
        <time>2019-02-03T12:35:35Z</time>
      </trkpt>
      <trkpt lat="43.55258" lon="6.19872">
        <ele>361.2</ele>
        <time>2019-02-03T12:36:06Z</time>
      </trkpt>
      <trkpt lat="43.55264" lon="6.19862">
        <ele>361</ele>
        <time>2019-02-03T12:36:16Z</time>
      </trkpt>
      <trkpt lat="43.55271" lon="6.19856">
        <ele>361</ele>
        <time>2019-02-03T12:36:25Z</time>
      </trkpt>
      <trkpt lat="43.5528" lon="6.19851">
        <ele>361.7</ele>
        <time>2019-02-03T12:36:36Z</time>
      </trkpt>
      <trkpt lat="43.55288" lon="6.19842">
        <ele>362.8</ele>
        <time>2019-02-03T12:36:46Z</time>
      </trkpt>
      <trkpt lat="43.55296" lon="6.19836">
        <ele>363.9</ele>
        <time>2019-02-03T12:36:56Z</time>
      </trkpt>
      <trkpt lat="43.55304" lon="6.19829">
        <ele>365.3</ele>
        <time>2019-02-03T12:37:04Z</time>
      </trkpt>
      <trkpt lat="43.55312" lon="6.19822">
        <ele>366.8</ele>
        <time>2019-02-03T12:37:13Z</time>
      </trkpt>
      <trkpt lat="43.5532" lon="6.19816">
        <ele>368.6</ele>
        <time>2019-02-03T12:37:26Z</time>
      </trkpt>
      <trkpt lat="43.55327" lon="6.19806">
        <ele>369.6</ele>
        <time>2019-02-03T12:37:34Z</time>
      </trkpt>
      <trkpt lat="43.55331" lon="6.19795">
        <ele>370.4</ele>
        <time>2019-02-03T12:37:43Z</time>
      </trkpt>
      <trkpt lat="43.5533" lon="6.19781">
        <ele>370.9</ele>
        <time>2019-02-03T12:37:52Z</time>
      </trkpt>
      <trkpt lat="43.5533" lon="6.19768">
        <ele>371.5</ele>
        <time>2019-02-03T12:38:01Z</time>
      </trkpt>
      <trkpt lat="43.55325" lon="6.19757">
        <ele>372.1</ele>
        <time>2019-02-03T12:38:10Z</time>
      </trkpt>
      <trkpt lat="43.55322" lon="6.19745">
        <ele>372.3</ele>
        <time>2019-02-03T12:38:18Z</time>
      </trkpt>
      <trkpt lat="43.55322" lon="6.1973">
        <ele>372.3</ele>
        <time>2019-02-03T12:38:26Z</time>
      </trkpt>
      <trkpt lat="43.55319" lon="6.19719">
        <ele>372.3</ele>
        <time>2019-02-03T12:38:35Z</time>
      </trkpt>
      <trkpt lat="43.55321" lon="6.19706">
        <ele>372.5</ele>
        <time>2019-02-03T12:38:43Z</time>
      </trkpt>
      <trkpt lat="43.55317" lon="6.19695">
        <ele>373</ele>
        <time>2019-02-03T12:38:52Z</time>
      </trkpt>
      <trkpt lat="43.55313" lon="6.19682">
        <ele>373.4</ele>
        <time>2019-02-03T12:39:02Z</time>
      </trkpt>
      <trkpt lat="43.55315" lon="6.19669">
        <ele>373.4</ele>
        <time>2019-02-03T12:39:12Z</time>
      </trkpt>
      <trkpt lat="43.55324" lon="6.19665">
        <ele>373.4</ele>
        <time>2019-02-03T12:39:25Z</time>
      </trkpt>
      <trkpt lat="43.55333" lon="6.19666">
        <ele>374.1</ele>
        <time>2019-02-03T12:39:37Z</time>
      </trkpt>
      <trkpt lat="43.55342" lon="6.19665">
        <ele>375</ele>
        <time>2019-02-03T12:39:48Z</time>
      </trkpt>
      <trkpt lat="43.55351" lon="6.19664">
        <ele>375.6</ele>
        <time>2019-02-03T12:39:57Z</time>
      </trkpt>
      <trkpt lat="43.55359" lon="6.19655">
        <ele>376.4</ele>
        <time>2019-02-03T12:40:06Z</time>
      </trkpt>
      <trkpt lat="43.55365" lon="6.19645">
        <ele>377.5</ele>
        <time>2019-02-03T12:40:15Z</time>
      </trkpt>
      <trkpt lat="43.55371" lon="6.19635">
        <ele>378.3</ele>
        <time>2019-02-03T12:40:24Z</time>
      </trkpt>
      <trkpt lat="43.55377" lon="6.19625">
        <ele>379.2</ele>
        <time>2019-02-03T12:40:32Z</time>
      </trkpt>
      <trkpt lat="43.55382" lon="6.19615">
        <ele>380</ele>
        <time>2019-02-03T12:40:42Z</time>
      </trkpt>
      <trkpt lat="43.55387" lon="6.19603">
        <ele>380.3</ele>
        <time>2019-02-03T12:40:50Z</time>
      </trkpt>
      <trkpt lat="43.55394" lon="6.19593">
        <ele>380.3</ele>
        <time>2019-02-03T12:40:59Z</time>
      </trkpt>
      <trkpt lat="43.554" lon="6.19583">
        <ele>380.2</ele>
        <time>2019-02-03T12:41:07Z</time>
      </trkpt>
      <trkpt lat="43.55406" lon="6.19573">
        <ele>380.2</ele>
        <time>2019-02-03T12:41:16Z</time>
      </trkpt>
      <trkpt lat="43.55415" lon="6.19567">
        <ele>380.5</ele>
        <time>2019-02-03T12:41:23Z</time>
      </trkpt>
      <trkpt lat="43.55423" lon="6.1956">
        <ele>380.8</ele>
        <time>2019-02-03T12:41:35Z</time>
      </trkpt>
      <trkpt lat="43.55432" lon="6.19555">
        <ele>381</ele>
        <time>2019-02-03T12:41:43Z</time>
      </trkpt>
      <trkpt lat="43.55441" lon="6.1955">
        <ele>381.4</ele>
        <time>2019-02-03T12:41:51Z</time>
      </trkpt>
      <trkpt lat="43.5545" lon="6.19549">
        <ele>382.4</ele>
        <time>2019-02-03T12:42:00Z</time>
      </trkpt>
      <trkpt lat="43.5546" lon="6.19548">
        <ele>383.2</ele>
        <time>2019-02-03T12:42:09Z</time>
      </trkpt>
      <trkpt lat="43.5547" lon="6.19548">
        <ele>383.8</ele>
        <time>2019-02-03T12:42:17Z</time>
      </trkpt>
      <trkpt lat="43.55479" lon="6.1955">
        <ele>384.2</ele>
        <time>2019-02-03T12:42:25Z</time>
      </trkpt>
      <trkpt lat="43.55488" lon="6.19553">
        <ele>384.5</ele>
        <time>2019-02-03T12:42:31Z</time>
      </trkpt>
      <trkpt lat="43.55498" lon="6.19554">
        <ele>384.6</ele>
        <time>2019-02-03T12:42:39Z</time>
      </trkpt>
      <trkpt lat="43.55507" lon="6.19555">
        <ele>384.6</ele>
        <time>2019-02-03T12:42:47Z</time>
      </trkpt>
      <trkpt lat="43.55516" lon="6.1955">
        <ele>384.6</ele>
        <time>2019-02-03T12:42:57Z</time>
      </trkpt>
      <trkpt lat="43.55522" lon="6.19541">
        <ele>384.9</ele>
        <time>2019-02-03T12:43:05Z</time>
      </trkpt>
      <trkpt lat="43.55528" lon="6.19528">
        <ele>385.3</ele>
        <time>2019-02-03T12:43:12Z</time>
      </trkpt>
      <trkpt lat="43.55532" lon="6.19516">
        <ele>385.8</ele>
        <time>2019-02-03T12:43:20Z</time>
      </trkpt>
      <trkpt lat="43.55538" lon="6.19505">
        <ele>386.1</ele>
        <time>2019-02-03T12:43:30Z</time>
      </trkpt>
      <trkpt lat="43.5554" lon="6.19492">
        <ele>386.2</ele>
        <time>2019-02-03T12:43:35Z</time>
      </trkpt>
      <trkpt lat="43.55544" lon="6.1948">
        <ele>386.3</ele>
        <time>2019-02-03T12:43:44Z</time>
      </trkpt>
      <trkpt lat="43.55548" lon="6.19466">
        <ele>386.5</ele>
        <time>2019-02-03T12:43:52Z</time>
      </trkpt>
      <trkpt lat="43.55553" lon="6.19455">
        <ele>386.8</ele>
        <time>2019-02-03T12:44:02Z</time>
      </trkpt>
      <trkpt lat="43.55558" lon="6.19443">
        <ele>387</ele>
        <time>2019-02-03T12:44:10Z</time>
      </trkpt>
      <trkpt lat="43.55563" lon="6.19432">
        <ele>387</ele>
        <time>2019-02-03T12:44:18Z</time>
      </trkpt>
      <trkpt lat="43.55568" lon="6.1942">
        <ele>387.1</ele>
        <time>2019-02-03T12:44:26Z</time>
      </trkpt>
      <trkpt lat="43.55575" lon="6.19411">
        <ele>387</ele>
        <time>2019-02-03T12:44:33Z</time>
      </trkpt>
      <trkpt lat="43.55581" lon="6.19401">
        <ele>386.9</ele>
        <time>2019-02-03T12:44:41Z</time>
      </trkpt>
      <trkpt lat="43.55589" lon="6.19393">
        <ele>386.9</ele>
        <time>2019-02-03T12:44:49Z</time>
      </trkpt>
      <trkpt lat="43.55597" lon="6.19386">
        <ele>387.1</ele>
        <time>2019-02-03T12:44:57Z</time>
      </trkpt>
      <trkpt lat="43.55605" lon="6.19377">
        <ele>387.6</ele>
        <time>2019-02-03T12:45:06Z</time>
      </trkpt>
      <trkpt lat="43.55612" lon="6.19369">
        <ele>388</ele>
        <time>2019-02-03T12:45:15Z</time>
      </trkpt>
      <trkpt lat="43.55618" lon="6.19359">
        <ele>388.3</ele>
        <time>2019-02-03T12:45:22Z</time>
      </trkpt>
      <trkpt lat="43.55623" lon="6.19348">
        <ele>388.8</ele>
        <time>2019-02-03T12:45:31Z</time>
      </trkpt>
      <trkpt lat="43.55627" lon="6.19336">
        <ele>389.8</ele>
        <time>2019-02-03T12:45:40Z</time>
      </trkpt>
      <trkpt lat="43.55628" lon="6.19323">
        <ele>390.6</ele>
        <time>2019-02-03T12:45:49Z</time>
      </trkpt>
      <trkpt lat="43.5563" lon="6.19311">
        <ele>391.5</ele>
        <time>2019-02-03T12:46:00Z</time>
      </trkpt>
      <trkpt lat="43.55628" lon="6.19299">
        <ele>391.8</ele>
        <time>2019-02-03T12:50:03Z</time>
      </trkpt>
      <trkpt lat="43.55637" lon="6.19292">
        <ele>392.7</ele>
        <time>2019-02-03T12:50:17Z</time>
      </trkpt>
      <trkpt lat="43.55646" lon="6.19292">
        <ele>393.1</ele>
        <time>2019-02-03T12:50:27Z</time>
      </trkpt>
      <trkpt lat="43.55656" lon="6.19291">
        <ele>393.9</ele>
        <time>2019-02-03T12:50:38Z</time>
      </trkpt>
      <trkpt lat="43.55665" lon="6.1929">
        <ele>394.5</ele>
        <time>2019-02-03T12:50:49Z</time>
      </trkpt>
      <trkpt lat="43.55674" lon="6.19293">
        <ele>394.9</ele>
        <time>2019-02-03T12:50:57Z</time>
      </trkpt>
      <trkpt lat="43.55683" lon="6.19297">
        <ele>395.1</ele>
        <time>2019-02-03T12:51:05Z</time>
      </trkpt>
      <trkpt lat="43.55693" lon="6.19301">
        <ele>395.6</ele>
        <time>2019-02-03T12:51:15Z</time>
      </trkpt>
      <trkpt lat="43.55701" lon="6.19295">
        <ele>396.4</ele>
        <time>2019-02-03T12:51:26Z</time>
      </trkpt>
      <trkpt lat="43.55704" lon="6.19283">
        <ele>396.8</ele>
        <time>2019-02-03T12:51:34Z</time>
      </trkpt>
      <trkpt lat="43.55707" lon="6.1927">
        <ele>397.2</ele>
        <time>2019-02-03T12:51:44Z</time>
      </trkpt>
      <trkpt lat="43.55709" lon="6.19257">
        <ele>397.5</ele>
        <time>2019-02-03T12:51:52Z</time>
      </trkpt>
      <trkpt lat="43.55704" lon="6.19245">
        <ele>397.7</ele>
        <time>2019-02-03T12:52:00Z</time>
      </trkpt>
      <trkpt lat="43.55705" lon="6.19232">
        <ele>398.5</ele>
        <time>2019-02-03T12:52:10Z</time>
      </trkpt>
      <trkpt lat="43.55706" lon="6.19218">
        <ele>399.7</ele>
        <time>2019-02-03T12:52:22Z</time>
      </trkpt>
      <trkpt lat="43.55711" lon="6.19207">
        <ele>400.2</ele>
        <time>2019-02-03T12:52:30Z</time>
      </trkpt>
      <trkpt lat="43.55708" lon="6.19194">
        <ele>400.6</ele>
        <time>2019-02-03T12:52:40Z</time>
      </trkpt>
      <trkpt lat="43.55705" lon="6.19181">
        <ele>400.7</ele>
        <time>2019-02-03T12:52:49Z</time>
      </trkpt>
      <trkpt lat="43.55702" lon="6.19169">
        <ele>400.7</ele>
        <time>2019-02-03T12:52:58Z</time>
      </trkpt>
      <trkpt lat="43.55697" lon="6.19158">
        <ele>400.7</ele>
        <time>2019-02-03T12:53:06Z</time>
      </trkpt>
      <trkpt lat="43.55697" lon="6.19146">
        <ele>401.4</ele>
        <time>2019-02-03T12:53:16Z</time>
      </trkpt>
      <trkpt lat="43.55699" lon="6.19133">
        <ele>401.6</ele>
        <time>2019-02-03T12:53:27Z</time>
      </trkpt>
      <trkpt lat="43.55704" lon="6.19121">
        <ele>402.3</ele>
        <time>2019-02-03T12:53:39Z</time>
      </trkpt>
      <trkpt lat="43.55712" lon="6.19114">
        <ele>403.2</ele>
        <time>2019-02-03T12:53:47Z</time>
      </trkpt>
      <trkpt lat="43.55715" lon="6.19101">
        <ele>404.7</ele>
        <time>2019-02-03T12:53:58Z</time>
      </trkpt>
      <trkpt lat="43.55718" lon="6.19089">
        <ele>405.4</ele>
        <time>2019-02-03T12:54:06Z</time>
      </trkpt>
      <trkpt lat="43.55717" lon="6.19076">
        <ele>405.9</ele>
        <time>2019-02-03T12:54:17Z</time>
      </trkpt>
      <trkpt lat="43.55714" lon="6.19063">
        <ele>407.8</ele>
        <time>2019-02-03T12:54:28Z</time>
      </trkpt>
      <trkpt lat="43.55713" lon="6.1905">
        <ele>409.1</ele>
        <time>2019-02-03T12:54:38Z</time>
      </trkpt>
      <trkpt lat="43.5571" lon="6.19037">
        <ele>409.6</ele>
        <time>2019-02-03T12:54:49Z</time>
      </trkpt>
      <trkpt lat="43.55712" lon="6.19024">
        <ele>411</ele>
        <time>2019-02-03T12:55:02Z</time>
      </trkpt>
      <trkpt lat="43.55716" lon="6.19013">
        <ele>412.5</ele>
        <time>2019-02-03T12:55:16Z</time>
      </trkpt>
      <trkpt lat="43.55722" lon="6.19002">
        <ele>413.4</ele>
        <time>2019-02-03T12:55:27Z</time>
      </trkpt>
      <trkpt lat="43.55724" lon="6.18989">
        <ele>414.5</ele>
        <time>2019-02-03T12:55:37Z</time>
      </trkpt>
      <trkpt lat="43.55726" lon="6.18976">
        <ele>415.9</ele>
        <time>2019-02-03T12:55:49Z</time>
      </trkpt>
      <trkpt lat="43.55731" lon="6.18966">
        <ele>417</ele>
        <time>2019-02-03T12:56:00Z</time>
      </trkpt>
      <trkpt lat="43.55734" lon="6.18953">
        <ele>418.4</ele>
        <time>2019-02-03T12:56:20Z</time>
      </trkpt>
      <trkpt lat="43.55726" lon="6.18946">
        <ele>419.8</ele>
        <time>2019-02-03T12:57:06Z</time>
      </trkpt>
      <trkpt lat="43.55735" lon="6.18942">
        <ele>421.2</ele>
        <time>2019-02-03T12:57:33Z</time>
      </trkpt>
      <trkpt lat="43.55744" lon="6.18945">
        <ele>421.8</ele>
        <time>2019-02-03T12:57:46Z</time>
      </trkpt>
      <trkpt lat="43.55754" lon="6.18944">
        <ele>422.3</ele>
        <time>2019-02-03T12:57:57Z</time>
      </trkpt>
      <trkpt lat="43.55757" lon="6.18932">
        <ele>422.9</ele>
        <time>2019-02-03T12:58:11Z</time>
      </trkpt>
      <trkpt lat="43.55766" lon="6.18926">
        <ele>424</ele>
        <time>2019-02-03T12:58:24Z</time>
      </trkpt>
      <trkpt lat="43.55775" lon="6.18926">
        <ele>425</ele>
        <time>2019-02-03T12:58:34Z</time>
      </trkpt>
      <trkpt lat="43.55782" lon="6.18917">
        <ele>426.9</ele>
        <time>2019-02-03T12:58:48Z</time>
      </trkpt>
      <trkpt lat="43.55791" lon="6.18913">
        <ele>427.2</ele>
        <time>2019-02-03T12:59:00Z</time>
      </trkpt>
      <trkpt lat="43.55796" lon="6.18902">
        <ele>427.7</ele>
        <time>2019-02-03T12:59:11Z</time>
      </trkpt>
      <trkpt lat="43.55803" lon="6.18893">
        <ele>428.3</ele>
        <time>2019-02-03T12:59:24Z</time>
      </trkpt>
      <trkpt lat="43.55807" lon="6.18881">
        <ele>428.9</ele>
        <time>2019-02-03T12:59:33Z</time>
      </trkpt>
      <trkpt lat="43.55815" lon="6.18873">
        <ele>429.6</ele>
        <time>2019-02-03T12:59:42Z</time>
      </trkpt>
      <trkpt lat="43.55821" lon="6.18863">
        <ele>430</ele>
        <time>2019-02-03T12:59:51Z</time>
      </trkpt>
      <trkpt lat="43.55829" lon="6.18854">
        <ele>430.3</ele>
        <time>2019-02-03T13:00:00Z</time>
      </trkpt>
      <trkpt lat="43.55831" lon="6.18842">
        <ele>430.5</ele>
        <time>2019-02-03T13:00:12Z</time>
      </trkpt>
      <trkpt lat="43.55838" lon="6.18831">
        <ele>430.9</ele>
        <time>2019-02-03T13:00:21Z</time>
      </trkpt>
      <trkpt lat="43.55845" lon="6.18823">
        <ele>430.6</ele>
        <time>2019-02-03T13:00:34Z</time>
      </trkpt>
      <trkpt lat="43.55855" lon="6.1882">
        <ele>430.9</ele>
        <time>2019-02-03T13:00:45Z</time>
      </trkpt>
      <trkpt lat="43.55864" lon="6.18816">
        <ele>431.2</ele>
        <time>2019-02-03T13:00:54Z</time>
      </trkpt>
      <trkpt lat="43.55873" lon="6.18819">
        <ele>432.7</ele>
        <time>2019-02-03T13:01:13Z</time>
      </trkpt>
      <trkpt lat="43.55883" lon="6.18817">
        <ele>432.9</ele>
        <time>2019-02-03T13:01:21Z</time>
      </trkpt>
      <trkpt lat="43.55892" lon="6.18812">
        <ele>433.2</ele>
        <time>2019-02-03T13:01:29Z</time>
      </trkpt>
      <trkpt lat="43.55899" lon="6.18819">
        <ele>434.5</ele>
        <time>2019-02-03T13:02:15Z</time>
      </trkpt>
      <trkpt lat="43.55908" lon="6.18813">
        <ele>435</ele>
        <time>2019-02-03T13:02:26Z</time>
      </trkpt>
      <trkpt lat="43.55915" lon="6.18806">
        <ele>436.4</ele>
        <time>2019-02-03T13:03:04Z</time>
      </trkpt>
      <trkpt lat="43.55923" lon="6.188">
        <ele>436.6</ele>
        <time>2019-02-03T13:05:29Z</time>
      </trkpt>
      <trkpt lat="43.55914" lon="6.18805">
        <ele>437.8</ele>
        <time>2019-02-03T13:15:02Z</time>
      </trkpt>
      <trkpt lat="43.55906" lon="6.18809">
        <ele>437.7</ele>
        <time>2019-02-03T13:15:19Z</time>
      </trkpt>
      <trkpt lat="43.55897" lon="6.18812">
        <ele>437.5</ele>
        <time>2019-02-03T13:15:51Z</time>
      </trkpt>
      <trkpt lat="43.55893" lon="6.18824">
        <ele>437.3</ele>
        <time>2019-02-03T13:16:21Z</time>
      </trkpt>
      <trkpt lat="43.55896" lon="6.18836">
        <ele>437.5</ele>
        <time>2019-02-03T13:16:39Z</time>
      </trkpt>
      <trkpt lat="43.55894" lon="6.18849">
        <ele>438.3</ele>
        <time>2019-02-03T13:16:51Z</time>
      </trkpt>
      <trkpt lat="43.55886" lon="6.18856">
        <ele>439.1</ele>
        <time>2019-02-03T13:17:04Z</time>
      </trkpt>
      <trkpt lat="43.55878" lon="6.18864">
        <ele>439.4</ele>
        <time>2019-02-03T13:17:16Z</time>
      </trkpt>
      <trkpt lat="43.5587" lon="6.1887">
        <ele>439.2</ele>
        <time>2019-02-03T13:17:29Z</time>
      </trkpt>
      <trkpt lat="43.55861" lon="6.18875">
        <ele>438.6</ele>
        <time>2019-02-03T13:17:42Z</time>
      </trkpt>
      <trkpt lat="43.55858" lon="6.18887">
        <ele>437.8</ele>
        <time>2019-02-03T13:17:52Z</time>
      </trkpt>
      <trkpt lat="43.55854" lon="6.18899">
        <ele>437.1</ele>
        <time>2019-02-03T13:18:01Z</time>
      </trkpt>
      <trkpt lat="43.55857" lon="6.18911">
        <ele>436.6</ele>
        <time>2019-02-03T13:18:13Z</time>
      </trkpt>
      <trkpt lat="43.55859" lon="6.18923">
        <ele>436.2</ele>
        <time>2019-02-03T13:18:29Z</time>
      </trkpt>
      <trkpt lat="43.55854" lon="6.18934">
        <ele>435.4</ele>
        <time>2019-02-03T13:18:57Z</time>
      </trkpt>
      <trkpt lat="43.55858" lon="6.18946">
        <ele>434.4</ele>
        <time>2019-02-03T13:19:10Z</time>
      </trkpt>
      <trkpt lat="43.55861" lon="6.18958">
        <ele>431.6</ele>
        <time>2019-02-03T13:19:27Z</time>
      </trkpt>
      <trkpt lat="43.55865" lon="6.1897">
        <ele>430.5</ele>
        <time>2019-02-03T13:19:41Z</time>
      </trkpt>
      <trkpt lat="43.55867" lon="6.18983">
        <ele>429.4</ele>
        <time>2019-02-03T13:19:55Z</time>
      </trkpt>
      <trkpt lat="43.55869" lon="6.18996">
        <ele>427.2</ele>
        <time>2019-02-03T13:20:12Z</time>
      </trkpt>
      <trkpt lat="43.5587" lon="6.19008">
        <ele>425.3</ele>
        <time>2019-02-03T13:20:28Z</time>
      </trkpt>
      <trkpt lat="43.55872" lon="6.19021">
        <ele>423.2</ele>
        <time>2019-02-03T13:21:02Z</time>
      </trkpt>
      <trkpt lat="43.55871" lon="6.19033">
        <ele>420.7</ele>
        <time>2019-02-03T13:23:57Z</time>
      </trkpt>
      <trkpt lat="43.55865" lon="6.19044">
        <ele>419.5</ele>
        <time>2019-02-03T13:25:16Z</time>
      </trkpt>
      <trkpt lat="43.55858" lon="6.19052">
        <ele>417.4</ele>
        <time>2019-02-03T13:25:42Z</time>
      </trkpt>
      <trkpt lat="43.55851" lon="6.19061">
        <ele>415.9</ele>
        <time>2019-02-03T13:25:56Z</time>
      </trkpt>
      <trkpt lat="43.55849" lon="6.19074">
        <ele>414</ele>
        <time>2019-02-03T13:26:09Z</time>
      </trkpt>
      <trkpt lat="43.55852" lon="6.19086">
        <ele>411.9</ele>
        <time>2019-02-03T13:26:20Z</time>
      </trkpt>
      <trkpt lat="43.55861" lon="6.19092">
        <ele>409.6</ele>
        <time>2019-02-03T13:26:35Z</time>
      </trkpt>
      <trkpt lat="43.55864" lon="6.19104">
        <ele>407.6</ele>
        <time>2019-02-03T13:27:04Z</time>
      </trkpt>
      <trkpt lat="43.55857" lon="6.19112">
        <ele>405</ele>
        <time>2019-02-03T13:27:26Z</time>
      </trkpt>
      <trkpt lat="43.55848" lon="6.19116">
        <ele>403.1</ele>
        <time>2019-02-03T13:27:36Z</time>
      </trkpt>
      <trkpt lat="43.55854" lon="6.19126">
        <ele>401.2</ele>
        <time>2019-02-03T13:27:50Z</time>
      </trkpt>
      <trkpt lat="43.55859" lon="6.19137">
        <ele>398.8</ele>
        <time>2019-02-03T13:28:10Z</time>
      </trkpt>
      <trkpt lat="43.55852" lon="6.19146">
        <ele>393.9</ele>
        <time>2019-02-03T13:28:53Z</time>
      </trkpt>
      <trkpt lat="43.55843" lon="6.1915">
        <ele>392.4</ele>
        <time>2019-02-03T13:29:32Z</time>
      </trkpt>
      <trkpt lat="43.55841" lon="6.19162">
        <ele>390.9</ele>
        <time>2019-02-03T13:30:16Z</time>
      </trkpt>
      <trkpt lat="43.55838" lon="6.19174">
        <ele>387.2</ele>
        <time>2019-02-03T13:30:53Z</time>
      </trkpt>
      <trkpt lat="43.55836" lon="6.19188">
        <ele>384.4</ele>
        <time>2019-02-03T13:31:09Z</time>
      </trkpt>
      <trkpt lat="43.55841" lon="6.19197">
        <ele>383</ele>
        <time>2019-02-03T13:31:23Z</time>
      </trkpt>
      <trkpt lat="43.5585" lon="6.19201">
        <ele>381.7</ele>
        <time>2019-02-03T13:31:33Z</time>
      </trkpt>
      <trkpt lat="43.55858" lon="6.19207">
        <ele>380.6</ele>
        <time>2019-02-03T13:31:44Z</time>
      </trkpt>
      <trkpt lat="43.55868" lon="6.19209">
        <ele>379.7</ele>
        <time>2019-02-03T13:31:58Z</time>
      </trkpt>
      <trkpt lat="43.55876" lon="6.19215">
        <ele>378.4</ele>
        <time>2019-02-03T13:32:13Z</time>
      </trkpt>
      <trkpt lat="43.55884" lon="6.19222">
        <ele>375.6</ele>
        <time>2019-02-03T13:32:29Z</time>
      </trkpt>
      <trkpt lat="43.55894" lon="6.19222">
        <ele>373.8</ele>
        <time>2019-02-03T13:32:44Z</time>
      </trkpt>
      <trkpt lat="43.55903" lon="6.19226">
        <ele>372.5</ele>
        <time>2019-02-03T13:32:52Z</time>
      </trkpt>
      <trkpt lat="43.55913" lon="6.19224">
        <ele>370.8</ele>
        <time>2019-02-03T13:33:04Z</time>
      </trkpt>
      <trkpt lat="43.55923" lon="6.19225">
        <ele>369.3</ele>
        <time>2019-02-03T13:33:20Z</time>
      </trkpt>
      <trkpt lat="43.55932" lon="6.19222">
        <ele>367.8</ele>
        <time>2019-02-03T13:34:19Z</time>
      </trkpt>
      <trkpt lat="43.55928" lon="6.19234">
        <ele>365.2</ele>
        <time>2019-02-03T13:35:45Z</time>
      </trkpt>
      <trkpt lat="43.55927" lon="6.19246">
        <ele>364</ele>
        <time>2019-02-03T13:36:15Z</time>
      </trkpt>
      <trkpt lat="43.55927" lon="6.1926">
        <ele>362.2</ele>
        <time>2019-02-03T13:37:02Z</time>
      </trkpt>
      <trkpt lat="43.55929" lon="6.19272">
        <ele>360.6</ele>
        <time>2019-02-03T13:37:16Z</time>
      </trkpt>
      <trkpt lat="43.55929" lon="6.19285">
        <ele>359</ele>
        <time>2019-02-03T13:37:29Z</time>
      </trkpt>
      <trkpt lat="43.55932" lon="6.19297">
        <ele>357.4</ele>
        <time>2019-02-03T13:37:40Z</time>
      </trkpt>
      <trkpt lat="43.55932" lon="6.1931">
        <ele>355.8</ele>
        <time>2019-02-03T13:37:54Z</time>
      </trkpt>
      <trkpt lat="43.55935" lon="6.19321">
        <ele>354.6</ele>
        <time>2019-02-03T13:38:08Z</time>
      </trkpt>
      <trkpt lat="43.5594" lon="6.19333">
        <ele>353.5</ele>
        <time>2019-02-03T13:38:21Z</time>
      </trkpt>
      <trkpt lat="43.55946" lon="6.19343">
        <ele>352.2</ele>
        <time>2019-02-03T13:38:41Z</time>
      </trkpt>
      <trkpt lat="43.55955" lon="6.19349">
        <ele>350.8</ele>
        <time>2019-02-03T13:38:53Z</time>
      </trkpt>
      <trkpt lat="43.55962" lon="6.19357">
        <ele>349.8</ele>
        <time>2019-02-03T13:39:08Z</time>
      </trkpt>
      <trkpt lat="43.5597" lon="6.19364">
        <ele>349.5</ele>
        <time>2019-02-03T13:39:17Z</time>
      </trkpt>
      <trkpt lat="43.55978" lon="6.19372">
        <ele>349</ele>
        <time>2019-02-03T13:39:27Z</time>
      </trkpt>
      <trkpt lat="43.55983" lon="6.19383">
        <ele>347.8</ele>
        <time>2019-02-03T13:39:38Z</time>
      </trkpt>
      <trkpt lat="43.55987" lon="6.19394">
        <ele>346.3</ele>
        <time>2019-02-03T13:39:49Z</time>
      </trkpt>
      <trkpt lat="43.5599" lon="6.19406">
        <ele>344.8</ele>
        <time>2019-02-03T13:39:59Z</time>
      </trkpt>
      <trkpt lat="43.55994" lon="6.19418">
        <ele>343.3</ele>
        <time>2019-02-03T13:40:09Z</time>
      </trkpt>
      <trkpt lat="43.55999" lon="6.19429">
        <ele>342.4</ele>
        <time>2019-02-03T13:40:19Z</time>
      </trkpt>
      <trkpt lat="43.56001" lon="6.19442">
        <ele>341</ele>
        <time>2019-02-03T13:40:31Z</time>
      </trkpt>
      <trkpt lat="43.56003" lon="6.19455">
        <ele>339.2</ele>
        <time>2019-02-03T13:40:41Z</time>
      </trkpt>
      <trkpt lat="43.56005" lon="6.19468">
        <ele>338</ele>
        <time>2019-02-03T13:40:50Z</time>
      </trkpt>
      <trkpt lat="43.56012" lon="6.19477">
        <ele>336.6</ele>
        <time>2019-02-03T13:41:00Z</time>
      </trkpt>
      <trkpt lat="43.56019" lon="6.19485">
        <ele>335.3</ele>
        <time>2019-02-03T13:41:09Z</time>
      </trkpt>
      <trkpt lat="43.56027" lon="6.19493">
        <ele>333.9</ele>
        <time>2019-02-03T13:41:18Z</time>
      </trkpt>
      <trkpt lat="43.56036" lon="6.19498">
        <ele>332.6</ele>
        <time>2019-02-03T13:41:27Z</time>
      </trkpt>
      <trkpt lat="43.56044" lon="6.19504">
        <ele>331.4</ele>
        <time>2019-02-03T13:41:38Z</time>
      </trkpt>
      <trkpt lat="43.56051" lon="6.19511">
        <ele>330.6</ele>
        <time>2019-02-03T13:41:47Z</time>
      </trkpt>
      <trkpt lat="43.5606" lon="6.19517">
        <ele>329.5</ele>
        <time>2019-02-03T13:41:56Z</time>
      </trkpt>
      <trkpt lat="43.56067" lon="6.19525">
        <ele>328.2</ele>
        <time>2019-02-03T13:42:05Z</time>
      </trkpt>
      <trkpt lat="43.56074" lon="6.19534">
        <ele>327.7</ele>
        <time>2019-02-03T13:42:15Z</time>
      </trkpt>
      <trkpt lat="43.56082" lon="6.19541">
        <ele>327.3</ele>
        <time>2019-02-03T13:42:24Z</time>
      </trkpt>
      <trkpt lat="43.5609" lon="6.1955">
        <ele>327</ele>
        <time>2019-02-03T13:42:32Z</time>
      </trkpt>
      <trkpt lat="43.56099" lon="6.19555">
        <ele>326.9</ele>
        <time>2019-02-03T13:42:42Z</time>
      </trkpt>
      <trkpt lat="43.56107" lon="6.19561">
        <ele>327</ele>
        <time>2019-02-03T13:42:51Z</time>
      </trkpt>
      <trkpt lat="43.56116" lon="6.19566">
        <ele>326.7</ele>
        <time>2019-02-03T13:43:00Z</time>
      </trkpt>
      <trkpt lat="43.56123" lon="6.19573">
        <ele>325.6</ele>
        <time>2019-02-03T13:43:08Z</time>
      </trkpt>
      <trkpt lat="43.56132" lon="6.19581">
        <ele>324.9</ele>
        <time>2019-02-03T13:43:15Z</time>
      </trkpt>
      <trkpt lat="43.56139" lon="6.19589">
        <ele>324.5</ele>
        <time>2019-02-03T13:43:24Z</time>
      </trkpt>
      <trkpt lat="43.56143" lon="6.19601">
        <ele>324.5</ele>
        <time>2019-02-03T13:43:32Z</time>
      </trkpt>
      <trkpt lat="43.56152" lon="6.19608">
        <ele>324.1</ele>
        <time>2019-02-03T13:43:41Z</time>
      </trkpt>
      <trkpt lat="43.56162" lon="6.19612">
        <ele>324.4</ele>
        <time>2019-02-03T13:43:52Z</time>
      </trkpt>
      <trkpt lat="43.56171" lon="6.19617">
        <ele>325.1</ele>
        <time>2019-02-03T13:44:01Z</time>
      </trkpt>
      <trkpt lat="43.56179" lon="6.19622">
        <ele>325.7</ele>
        <time>2019-02-03T13:44:15Z</time>
      </trkpt>
      <trkpt lat="43.56184" lon="6.19634">
        <ele>327.1</ele>
        <time>2019-02-03T13:44:47Z</time>
      </trkpt>
      <trkpt lat="43.56183" lon="6.19646">
        <ele>326.5</ele>
        <time>2019-02-03T13:45:03Z</time>
      </trkpt>
      <trkpt lat="43.56187" lon="6.19658">
        <ele>325.6</ele>
        <time>2019-02-03T13:45:13Z</time>
      </trkpt>
      <trkpt lat="43.56188" lon="6.19671">
        <ele>324.1</ele>
        <time>2019-02-03T13:45:25Z</time>
      </trkpt>
      <trkpt lat="43.56186" lon="6.19685">
        <ele>322.9</ele>
        <time>2019-02-03T13:45:34Z</time>
      </trkpt>
      <trkpt lat="43.56188" lon="6.19698">
        <ele>321.4</ele>
        <time>2019-02-03T13:45:45Z</time>
      </trkpt>
      <trkpt lat="43.56192" lon="6.1971">
        <ele>319.8</ele>
        <time>2019-02-03T13:45:57Z</time>
      </trkpt>
      <trkpt lat="43.56199" lon="6.19717">
        <ele>316.3</ele>
        <time>2019-02-03T13:47:37Z</time>
      </trkpt>
      <trkpt lat="43.56205" lon="6.19727">
        <ele>316</ele>
        <time>2019-02-03T13:48:35Z</time>
      </trkpt>
      <trkpt lat="43.56196" lon="6.19728">
        <ele>315.9</ele>
        <time>2019-02-03T13:51:13Z</time>
      </trkpt>
      <trkpt lat="43.56188" lon="6.19736">
        <ele>315.4</ele>
        <time>2019-02-03T13:51:26Z</time>
      </trkpt>
      <trkpt lat="43.56181" lon="6.19743">
        <ele>315</ele>
        <time>2019-02-03T13:51:36Z</time>
      </trkpt>
      <trkpt lat="43.56174" lon="6.19751">
        <ele>314.9</ele>
        <time>2019-02-03T13:51:45Z</time>
      </trkpt>
      <trkpt lat="43.56167" lon="6.1976">
        <ele>314.8</ele>
        <time>2019-02-03T13:51:53Z</time>
      </trkpt>
      <trkpt lat="43.56163" lon="6.19772">
        <ele>314.7</ele>
        <time>2019-02-03T13:52:02Z</time>
      </trkpt>
      <trkpt lat="43.56164" lon="6.19784">
        <ele>314.8</ele>
        <time>2019-02-03T13:52:10Z</time>
      </trkpt>
      <trkpt lat="43.56165" lon="6.19798">
        <ele>315.7</ele>
        <time>2019-02-03T13:52:23Z</time>
      </trkpt>
      <trkpt lat="43.56168" lon="6.1981">
        <ele>316.9</ele>
        <time>2019-02-03T13:52:33Z</time>
      </trkpt>
      <trkpt lat="43.56169" lon="6.19823">
        <ele>317.9</ele>
        <time>2019-02-03T13:52:44Z</time>
      </trkpt>
      <trkpt lat="43.56175" lon="6.19835">
        <ele>318.6</ele>
        <time>2019-02-03T13:52:52Z</time>
      </trkpt>
      <trkpt lat="43.56182" lon="6.19842">
        <ele>319.3</ele>
        <time>2019-02-03T13:53:00Z</time>
      </trkpt>
      <trkpt lat="43.56192" lon="6.19846">
        <ele>320</ele>
        <time>2019-02-03T13:53:10Z</time>
      </trkpt>
      <trkpt lat="43.56201" lon="6.1985">
        <ele>320.3</ele>
        <time>2019-02-03T13:53:21Z</time>
      </trkpt>
      <trkpt lat="43.5621" lon="6.19855">
        <ele>320.6</ele>
        <time>2019-02-03T13:53:31Z</time>
      </trkpt>
      <trkpt lat="43.56219" lon="6.19861">
        <ele>321.1</ele>
        <time>2019-02-03T13:53:42Z</time>
      </trkpt>
      <trkpt lat="43.56228" lon="6.19868">
        <ele>322.2</ele>
        <time>2019-02-03T13:53:52Z</time>
      </trkpt>
      <trkpt lat="43.56237" lon="6.19871">
        <ele>323.1</ele>
        <time>2019-02-03T13:54:00Z</time>
      </trkpt>
      <trkpt lat="43.56247" lon="6.19875">
        <ele>323.6</ele>
        <time>2019-02-03T13:54:09Z</time>
      </trkpt>
      <trkpt lat="43.56255" lon="6.19878">
        <ele>323.7</ele>
        <time>2019-02-03T13:54:15Z</time>
      </trkpt>
      <trkpt lat="43.56264" lon="6.19884">
        <ele>323.8</ele>
        <time>2019-02-03T13:54:23Z</time>
      </trkpt>
      <trkpt lat="43.56273" lon="6.19888">
        <ele>323.7</ele>
        <time>2019-02-03T13:54:31Z</time>
      </trkpt>
      <trkpt lat="43.56281" lon="6.19893">
        <ele>322.9</ele>
        <time>2019-02-03T13:54:39Z</time>
      </trkpt>
      <trkpt lat="43.56289" lon="6.199">
        <ele>322.2</ele>
        <time>2019-02-03T13:54:46Z</time>
      </trkpt>
      <trkpt lat="43.56295" lon="6.1991">
        <ele>321.4</ele>
        <time>2019-02-03T13:54:54Z</time>
      </trkpt>
      <trkpt lat="43.56301" lon="6.19921">
        <ele>320.6</ele>
        <time>2019-02-03T13:55:03Z</time>
      </trkpt>
      <trkpt lat="43.56305" lon="6.19932">
        <ele>319.9</ele>
        <time>2019-02-03T13:55:12Z</time>
      </trkpt>
      <trkpt lat="43.56307" lon="6.19945">
        <ele>319.5</ele>
        <time>2019-02-03T13:55:20Z</time>
      </trkpt>
      <trkpt lat="43.56311" lon="6.19956">
        <ele>319.1</ele>
        <time>2019-02-03T13:55:29Z</time>
      </trkpt>
      <trkpt lat="43.56318" lon="6.19966">
        <ele>318.7</ele>
        <time>2019-02-03T13:55:39Z</time>
      </trkpt>
      <trkpt lat="43.56326" lon="6.19976">
        <ele>318.3</ele>
        <time>2019-02-03T13:55:47Z</time>
      </trkpt>
      <trkpt lat="43.56329" lon="6.19989">
        <ele>318</ele>
        <time>2019-02-03T13:55:55Z</time>
      </trkpt>
      <trkpt lat="43.56332" lon="6.20003">
        <ele>317.4</ele>
        <time>2019-02-03T13:56:03Z</time>
      </trkpt>
      <trkpt lat="43.56332" lon="6.20015">
        <ele>316.2</ele>
        <time>2019-02-03T13:56:13Z</time>
      </trkpt>
      <trkpt lat="43.56337" lon="6.20027">
        <ele>315.6</ele>
        <time>2019-02-03T13:56:21Z</time>
      </trkpt>
      <trkpt lat="43.56342" lon="6.20038">
        <ele>315.4</ele>
        <time>2019-02-03T13:56:32Z</time>
      </trkpt>
      <trkpt lat="43.56346" lon="6.20051">
        <ele>315.1</ele>
        <time>2019-02-03T13:56:42Z</time>
      </trkpt>
      <trkpt lat="43.56344" lon="6.20063">
        <ele>314.9</ele>
        <time>2019-02-03T13:56:49Z</time>
      </trkpt>
      <trkpt lat="43.56337" lon="6.20071">
        <ele>314.8</ele>
        <time>2019-02-03T13:56:57Z</time>
      </trkpt>
      <trkpt lat="43.56336" lon="6.20084">
        <ele>314.8</ele>
        <time>2019-02-03T13:57:07Z</time>
      </trkpt>
      <trkpt lat="43.56341" lon="6.20095">
        <ele>315</ele>
        <time>2019-02-03T13:57:13Z</time>
      </trkpt>
      <trkpt lat="43.5635" lon="6.20103">
        <ele>315.4</ele>
        <time>2019-02-03T13:57:21Z</time>
      </trkpt>
      <trkpt lat="43.56357" lon="6.20111">
        <ele>315.9</ele>
        <time>2019-02-03T13:57:29Z</time>
      </trkpt>
      <trkpt lat="43.56367" lon="6.20118">
        <ele>315.6</ele>
        <time>2019-02-03T13:57:35Z</time>
      </trkpt>
      <trkpt lat="43.56374" lon="6.20126">
        <ele>315.2</ele>
        <time>2019-02-03T13:57:42Z</time>
      </trkpt>
      <trkpt lat="43.56378" lon="6.20138">
        <ele>313.4</ele>
        <time>2019-02-03T13:57:55Z</time>
      </trkpt>
      <trkpt lat="43.56379" lon="6.2015">
        <ele>312.7</ele>
        <time>2019-02-03T13:58:03Z</time>
      </trkpt>
      <trkpt lat="43.56383" lon="6.20162">
        <ele>313</ele>
        <time>2019-02-03T13:58:16Z</time>
      </trkpt>
      <trkpt lat="43.5639" lon="6.20171">
        <ele>313.3</ele>
        <time>2019-02-03T13:58:25Z</time>
      </trkpt>
      <trkpt lat="43.56396" lon="6.20181">
        <ele>313.5</ele>
        <time>2019-02-03T13:58:34Z</time>
      </trkpt>
      <trkpt lat="43.56398" lon="6.20193">
        <ele>313.6</ele>
        <time>2019-02-03T13:58:42Z</time>
      </trkpt>
      <trkpt lat="43.56404" lon="6.20202">
        <ele>313.5</ele>
        <time>2019-02-03T13:58:50Z</time>
      </trkpt>
      <trkpt lat="43.56412" lon="6.2021">
        <ele>313.3</ele>
        <time>2019-02-03T13:58:56Z</time>
      </trkpt>
      <trkpt lat="43.56418" lon="6.20221">
        <ele>312.8</ele>
        <time>2019-02-03T13:59:01Z</time>
      </trkpt>
      <trkpt lat="43.56424" lon="6.20233">
        <ele>312.2</ele>
        <time>2019-02-03T13:59:09Z</time>
      </trkpt>
      <trkpt lat="43.56427" lon="6.20246">
        <ele>311.6</ele>
        <time>2019-02-03T13:59:18Z</time>
      </trkpt>
      <trkpt lat="43.5643" lon="6.20259">
        <ele>311</ele>
        <time>2019-02-03T13:59:28Z</time>
      </trkpt>
      <trkpt lat="43.56434" lon="6.20272">
        <ele>310.3</ele>
        <time>2019-02-03T13:59:37Z</time>
      </trkpt>
      <trkpt lat="43.56436" lon="6.20285">
        <ele>309.8</ele>
        <time>2019-02-03T13:59:46Z</time>
      </trkpt>
      <trkpt lat="43.56435" lon="6.20298">
        <ele>310.4</ele>
        <time>2019-02-03T13:59:57Z</time>
      </trkpt>
      <trkpt lat="43.56442" lon="6.20306">
        <ele>310.6</ele>
        <time>2019-02-03T14:00:04Z</time>
      </trkpt>
      <trkpt lat="43.56447" lon="6.20317">
        <ele>310.5</ele>
        <time>2019-02-03T14:00:12Z</time>
      </trkpt>
      <trkpt lat="43.56449" lon="6.20331">
        <ele>310.3</ele>
        <time>2019-02-03T14:00:21Z</time>
      </trkpt>
      <trkpt lat="43.56451" lon="6.20344">
        <ele>309.8</ele>
        <time>2019-02-03T14:00:29Z</time>
      </trkpt>
      <trkpt lat="43.56455" lon="6.20355">
        <ele>309.4</ele>
        <time>2019-02-03T14:00:36Z</time>
      </trkpt>
      <trkpt lat="43.56459" lon="6.20367">
        <ele>308.8</ele>
        <time>2019-02-03T14:00:43Z</time>
      </trkpt>
      <trkpt lat="43.56463" lon="6.20379">
        <ele>308.3</ele>
        <time>2019-02-03T14:00:52Z</time>
      </trkpt>
      <trkpt lat="43.56467" lon="6.20391">
        <ele>307.6</ele>
        <time>2019-02-03T14:01:02Z</time>
      </trkpt>
      <trkpt lat="43.56473" lon="6.20401">
        <ele>305.5</ele>
        <time>2019-02-03T14:01:15Z</time>
      </trkpt>
      <trkpt lat="43.56473" lon="6.20415">
        <ele>304.4</ele>
        <time>2019-02-03T14:01:25Z</time>
      </trkpt>
      <trkpt lat="43.56475" lon="6.20427">
        <ele>303.7</ele>
        <time>2019-02-03T14:01:34Z</time>
      </trkpt>
      <trkpt lat="43.56479" lon="6.20441">
        <ele>303</ele>
        <time>2019-02-03T14:01:42Z</time>
      </trkpt>
      <trkpt lat="43.56482" lon="6.20452">
        <ele>302.7</ele>
        <time>2019-02-03T14:01:49Z</time>
      </trkpt>
      <trkpt lat="43.56489" lon="6.2046">
        <ele>302.7</ele>
        <time>2019-02-03T14:01:57Z</time>
      </trkpt>
      <trkpt lat="43.56492" lon="6.20474">
        <ele>302.1</ele>
        <time>2019-02-03T14:02:11Z</time>
      </trkpt>
      <trkpt lat="43.56496" lon="6.20486">
        <ele>301.3</ele>
        <time>2019-02-03T14:02:19Z</time>
      </trkpt>
      <trkpt lat="43.56498" lon="6.20498">
        <ele>300.5</ele>
        <time>2019-02-03T14:02:27Z</time>
      </trkpt>
      <trkpt lat="43.56503" lon="6.20511">
        <ele>299.7</ele>
        <time>2019-02-03T14:02:36Z</time>
      </trkpt>
      <trkpt lat="43.56503" lon="6.20525">
        <ele>298.8</ele>
        <time>2019-02-03T14:02:45Z</time>
      </trkpt>
      <trkpt lat="43.56503" lon="6.20539">
        <ele>297.5</ele>
        <time>2019-02-03T14:02:55Z</time>
      </trkpt>
      <trkpt lat="43.56507" lon="6.20552">
        <ele>296.8</ele>
        <time>2019-02-03T14:03:04Z</time>
      </trkpt>
      <trkpt lat="43.5651" lon="6.20565">
        <ele>296.2</ele>
        <time>2019-02-03T14:03:14Z</time>
      </trkpt>
      <trkpt lat="43.56509" lon="6.20578">
        <ele>296.3</ele>
        <time>2019-02-03T14:03:25Z</time>
      </trkpt>
      <trkpt lat="43.56513" lon="6.2059">
        <ele>296.4</ele>
        <time>2019-02-03T14:03:33Z</time>
      </trkpt>
      <trkpt lat="43.56513" lon="6.20603">
        <ele>296.1</ele>
        <time>2019-02-03T14:03:39Z</time>
      </trkpt>
      <trkpt lat="43.56519" lon="6.20613">
        <ele>295.4</ele>
        <time>2019-02-03T14:03:46Z</time>
      </trkpt>
      <trkpt lat="43.56523" lon="6.20624">
        <ele>294.7</ele>
        <time>2019-02-03T14:03:55Z</time>
      </trkpt>
      <trkpt lat="43.5653" lon="6.20634">
        <ele>295.3</ele>
        <time>2019-02-03T14:04:05Z</time>
      </trkpt>
      <trkpt lat="43.56535" lon="6.20644">
        <ele>295.6</ele>
        <time>2019-02-03T14:04:12Z</time>
      </trkpt>
      <trkpt lat="43.5654" lon="6.20655">
        <ele>295.4</ele>
        <time>2019-02-03T14:04:21Z</time>
      </trkpt>
      <trkpt lat="43.56545" lon="6.20665">
        <ele>294.9</ele>
        <time>2019-02-03T14:04:31Z</time>
      </trkpt>
      <trkpt lat="43.5655" lon="6.20676">
        <ele>294.7</ele>
        <time>2019-02-03T14:04:40Z</time>
      </trkpt>
      <trkpt lat="43.56558" lon="6.20684">
        <ele>294.3</ele>
        <time>2019-02-03T14:04:49Z</time>
      </trkpt>
      <trkpt lat="43.56563" lon="6.20695">
        <ele>294.1</ele>
        <time>2019-02-03T14:04:57Z</time>
      </trkpt>
      <trkpt lat="43.5657" lon="6.20704">
        <ele>293.6</ele>
        <time>2019-02-03T14:05:04Z</time>
      </trkpt>
      <trkpt lat="43.56575" lon="6.20714">
        <ele>293.3</ele>
        <time>2019-02-03T14:05:13Z</time>
      </trkpt>
      <trkpt lat="43.56581" lon="6.20725">
        <ele>293.8</ele>
        <time>2019-02-03T14:05:20Z</time>
      </trkpt>
      <trkpt lat="43.56586" lon="6.20735">
        <ele>294.3</ele>
        <time>2019-02-03T14:05:28Z</time>
      </trkpt>
      <trkpt lat="43.56591" lon="6.20747">
        <ele>295.3</ele>
        <time>2019-02-03T14:05:39Z</time>
      </trkpt>
      <trkpt lat="43.56598" lon="6.20758">
        <ele>295.7</ele>
        <time>2019-02-03T14:05:48Z</time>
      </trkpt>
      <trkpt lat="43.56602" lon="6.20769">
        <ele>296.1</ele>
        <time>2019-02-03T14:05:56Z</time>
      </trkpt>
      <trkpt lat="43.56606" lon="6.2078">
        <ele>296.4</ele>
        <time>2019-02-03T14:06:04Z</time>
      </trkpt>
      <trkpt lat="43.56612" lon="6.20793">
        <ele>296.8</ele>
        <time>2019-02-03T14:06:14Z</time>
      </trkpt>
      <trkpt lat="43.56615" lon="6.20805">
        <ele>297.8</ele>
        <time>2019-02-03T14:06:24Z</time>
      </trkpt>
      <trkpt lat="43.56622" lon="6.20815">
        <ele>298.5</ele>
        <time>2019-02-03T14:06:32Z</time>
      </trkpt>
      <trkpt lat="43.56625" lon="6.20827">
        <ele>298.9</ele>
        <time>2019-02-03T14:06:38Z</time>
      </trkpt>
      <trkpt lat="43.56624" lon="6.20839">
        <ele>299.6</ele>
        <time>2019-02-03T14:06:47Z</time>
      </trkpt>
      <trkpt lat="43.56622" lon="6.20853">
        <ele>299.8</ele>
        <time>2019-02-03T14:06:55Z</time>
      </trkpt>
      <trkpt lat="43.56622" lon="6.20865">
        <ele>299.6</ele>
        <time>2019-02-03T14:07:02Z</time>
      </trkpt>
      <trkpt lat="43.56621" lon="6.20878">
        <ele>299</ele>
        <time>2019-02-03T14:07:11Z</time>
      </trkpt>
      <trkpt lat="43.56618" lon="6.20891">
        <ele>298.4</ele>
        <time>2019-02-03T14:07:20Z</time>
      </trkpt>
      <trkpt lat="43.56615" lon="6.20904">
        <ele>297.8</ele>
        <time>2019-02-03T14:07:30Z</time>
      </trkpt>
      <trkpt lat="43.56621" lon="6.20917">
        <ele>297.6</ele>
        <time>2019-02-03T14:07:37Z</time>
      </trkpt>
      <trkpt lat="43.56621" lon="6.20931">
        <ele>297.9</ele>
        <time>2019-02-03T14:07:46Z</time>
      </trkpt>
      <trkpt lat="43.56618" lon="6.20943">
        <ele>298.3</ele>
        <time>2019-02-03T14:07:57Z</time>
      </trkpt>
      <trkpt lat="43.56617" lon="6.20956">
        <ele>298.8</ele>
        <time>2019-02-03T14:08:05Z</time>
      </trkpt>
      <trkpt lat="43.56614" lon="6.20969">
        <ele>299.6</ele>
        <time>2019-02-03T14:08:13Z</time>
      </trkpt>
      <trkpt lat="43.56611" lon="6.20982">
        <ele>300.3</ele>
        <time>2019-02-03T14:08:22Z</time>
      </trkpt>
      <trkpt lat="43.56611" lon="6.20995">
        <ele>300.5</ele>
        <time>2019-02-03T14:08:30Z</time>
      </trkpt>
      <trkpt lat="43.56613" lon="6.21007">
        <ele>300.4</ele>
        <time>2019-02-03T14:08:37Z</time>
      </trkpt>
      <trkpt lat="43.56613" lon="6.2102">
        <ele>300</ele>
        <time>2019-02-03T14:08:46Z</time>
      </trkpt>
      <trkpt lat="43.56612" lon="6.21034">
        <ele>299.6</ele>
        <time>2019-02-03T14:08:55Z</time>
      </trkpt>
      <trkpt lat="43.56609" lon="6.21046">
        <ele>298.8</ele>
        <time>2019-02-03T14:09:05Z</time>
      </trkpt>
      <trkpt lat="43.56607" lon="6.21058">
        <ele>297.8</ele>
        <time>2019-02-03T14:09:13Z</time>
      </trkpt>
      <trkpt lat="43.56598" lon="6.21063">
        <ele>296.5</ele>
        <time>2019-02-03T14:09:29Z</time>
      </trkpt>
      <trkpt lat="43.56604" lon="6.21073">
        <ele>295.1</ele>
        <time>2019-02-03T14:10:12Z</time>
      </trkpt>
      <trkpt lat="43.56595" lon="6.21071">
        <ele>294.3</ele>
        <time>2019-02-03T14:11:35Z</time>
      </trkpt>
      <trkpt lat="43.56597" lon="6.21084">
        <ele>294.3</ele>
        <time>2019-02-03T14:12:32Z</time>
      </trkpt>
      <trkpt lat="43.56599" lon="6.21097">
        <ele>293.3</ele>
        <time>2019-02-03T14:12:47Z</time>
      </trkpt>
      <trkpt lat="43.56603" lon="6.2111">
        <ele>292.6</ele>
        <time>2019-02-03T14:12:58Z</time>
      </trkpt>
      <trkpt lat="43.56604" lon="6.21123">
        <ele>292.1</ele>
        <time>2019-02-03T14:13:06Z</time>
      </trkpt>
      <trkpt lat="43.56606" lon="6.21136">
        <ele>290.8</ele>
        <time>2019-02-03T14:13:14Z</time>
      </trkpt>
      <trkpt lat="43.56607" lon="6.21149">
        <ele>289.6</ele>
        <time>2019-02-03T14:13:22Z</time>
      </trkpt>
      <trkpt lat="43.56612" lon="6.21161">
        <ele>288.7</ele>
        <time>2019-02-03T14:13:30Z</time>
      </trkpt>
      <trkpt lat="43.56613" lon="6.21173">
        <ele>287.6</ele>
        <time>2019-02-03T14:13:40Z</time>
      </trkpt>
      <trkpt lat="43.56612" lon="6.21186">
        <ele>286.7</ele>
        <time>2019-02-03T14:13:50Z</time>
      </trkpt>
      <trkpt lat="43.56614" lon="6.21199">
        <ele>285.4</ele>
        <time>2019-02-03T14:14:01Z</time>
      </trkpt>
      <trkpt lat="43.56614" lon="6.21212">
        <ele>284.7</ele>
        <time>2019-02-03T14:14:09Z</time>
      </trkpt>
      <trkpt lat="43.56615" lon="6.21226">
        <ele>284.1</ele>
        <time>2019-02-03T14:14:17Z</time>
      </trkpt>
      <trkpt lat="43.56617" lon="6.21239">
        <ele>283.6</ele>
        <time>2019-02-03T14:14:26Z</time>
      </trkpt>
      <trkpt lat="43.56616" lon="6.21254">
        <ele>283.4</ele>
        <time>2019-02-03T14:14:35Z</time>
      </trkpt>
      <trkpt lat="43.56614" lon="6.21266">
        <ele>283.3</ele>
        <time>2019-02-03T14:14:43Z</time>
      </trkpt>
      <trkpt lat="43.56614" lon="6.21279">
        <ele>283.1</ele>
        <time>2019-02-03T14:14:50Z</time>
      </trkpt>
      <trkpt lat="43.56615" lon="6.21293">
        <ele>282.7</ele>
        <time>2019-02-03T14:14:59Z</time>
      </trkpt>
      <trkpt lat="43.56612" lon="6.21306">
        <ele>282.5</ele>
        <time>2019-02-03T14:15:08Z</time>
      </trkpt>
      <trkpt lat="43.56617" lon="6.21318">
        <ele>282.4</ele>
        <time>2019-02-03T14:15:15Z</time>
      </trkpt>
      <trkpt lat="43.56614" lon="6.21331">
        <ele>282.2</ele>
        <time>2019-02-03T14:15:25Z</time>
      </trkpt>
      <trkpt lat="43.56611" lon="6.21343">
        <ele>281.6</ele>
        <time>2019-02-03T14:15:34Z</time>
      </trkpt>
      <trkpt lat="43.56607" lon="6.21355">
        <ele>280.6</ele>
        <time>2019-02-03T14:15:44Z</time>
      </trkpt>
      <trkpt lat="43.56605" lon="6.21367">
        <ele>279.4</ele>
        <time>2019-02-03T14:15:53Z</time>
      </trkpt>
      <trkpt lat="43.56601" lon="6.21379">
        <ele>278.1</ele>
        <time>2019-02-03T14:16:04Z</time>
      </trkpt>
      <trkpt lat="43.56594" lon="6.21387">
        <ele>277.4</ele>
        <time>2019-02-03T14:16:11Z</time>
      </trkpt>
      <trkpt lat="43.56588" lon="6.21396">
        <ele>276.5</ele>
        <time>2019-02-03T14:16:21Z</time>
      </trkpt>
      <trkpt lat="43.56583" lon="6.21407">
        <ele>276</ele>
        <time>2019-02-03T14:16:29Z</time>
      </trkpt>
      <trkpt lat="43.56578" lon="6.21418">
        <ele>275.6</ele>
        <time>2019-02-03T14:16:39Z</time>
      </trkpt>
      <trkpt lat="43.56574" lon="6.2143">
        <ele>274.8</ele>
        <time>2019-02-03T14:16:48Z</time>
      </trkpt>
      <trkpt lat="43.56569" lon="6.2144">
        <ele>273.2</ele>
        <time>2019-02-03T14:16:56Z</time>
      </trkpt>
      <trkpt lat="43.56568" lon="6.21453">
        <ele>271.3</ele>
        <time>2019-02-03T14:17:07Z</time>
      </trkpt>
      <trkpt lat="43.56566" lon="6.21466">
        <ele>270.5</ele>
        <time>2019-02-03T14:17:15Z</time>
      </trkpt>
      <trkpt lat="43.56566" lon="6.2148">
        <ele>269.8</ele>
        <time>2019-02-03T14:17:24Z</time>
      </trkpt>
      <trkpt lat="43.5656" lon="6.21491">
        <ele>269.2</ele>
        <time>2019-02-03T14:17:34Z</time>
      </trkpt>
      <trkpt lat="43.56556" lon="6.21503">
        <ele>268.5</ele>
        <time>2019-02-03T14:17:42Z</time>
      </trkpt>
      <trkpt lat="43.56551" lon="6.21514">
        <ele>267.9</ele>
        <time>2019-02-03T14:17:50Z</time>
      </trkpt>
      <trkpt lat="43.56548" lon="6.21527">
        <ele>267.3</ele>
        <time>2019-02-03T14:17:58Z</time>
      </trkpt>
      <trkpt lat="43.56546" lon="6.2154">
        <ele>266.1</ele>
        <time>2019-02-03T14:18:08Z</time>
      </trkpt>
      <trkpt lat="43.56542" lon="6.21552">
        <ele>265.2</ele>
        <time>2019-02-03T14:18:16Z</time>
      </trkpt>
      <trkpt lat="43.56537" lon="6.21563">
        <ele>264.5</ele>
        <time>2019-02-03T14:18:24Z</time>
      </trkpt>
      <trkpt lat="43.56531" lon="6.21574">
        <ele>264.1</ele>
        <time>2019-02-03T14:18:31Z</time>
      </trkpt>
      <trkpt lat="43.56525" lon="6.21583">
        <ele>263.8</ele>
        <time>2019-02-03T14:18:38Z</time>
      </trkpt>
      <trkpt lat="43.56521" lon="6.21594">
        <ele>263</ele>
        <time>2019-02-03T14:18:49Z</time>
      </trkpt>
      <trkpt lat="43.56516" lon="6.21606">
        <ele>262.3</ele>
        <time>2019-02-03T14:18:55Z</time>
      </trkpt>
      <trkpt lat="43.56513" lon="6.2162">
        <ele>261.2</ele>
        <time>2019-02-03T14:19:04Z</time>
      </trkpt>
      <trkpt lat="43.5651" lon="6.21633">
        <ele>260.6</ele>
        <time>2019-02-03T14:19:12Z</time>
      </trkpt>
      <trkpt lat="43.56506" lon="6.21644">
        <ele>260</ele>
        <time>2019-02-03T14:19:21Z</time>
      </trkpt>
      <trkpt lat="43.56502" lon="6.21656">
        <ele>259.6</ele>
        <time>2019-02-03T14:19:30Z</time>
      </trkpt>
      <trkpt lat="43.56495" lon="6.21664">
        <ele>259.5</ele>
        <time>2019-02-03T14:19:38Z</time>
      </trkpt>
      <trkpt lat="43.56496" lon="6.21677">
        <ele>259.3</ele>
        <time>2019-02-03T14:19:47Z</time>
      </trkpt>
      <trkpt lat="43.56488" lon="6.21685">
        <ele>259.2</ele>
        <time>2019-02-03T14:19:55Z</time>
      </trkpt>
      <trkpt lat="43.56479" lon="6.21692">
        <ele>258.9</ele>
        <time>2019-02-03T14:20:03Z</time>
      </trkpt>
      <trkpt lat="43.56471" lon="6.21699">
        <ele>258.4</ele>
        <time>2019-02-03T14:20:09Z</time>
      </trkpt>
      <trkpt lat="43.56464" lon="6.21707">
        <ele>257.9</ele>
        <time>2019-02-03T14:20:16Z</time>
      </trkpt>
      <trkpt lat="43.56462" lon="6.2172">
        <ele>257.3</ele>
        <time>2019-02-03T14:20:25Z</time>
      </trkpt>
      <trkpt lat="43.56459" lon="6.21733">
        <ele>256.9</ele>
        <time>2019-02-03T14:20:32Z</time>
      </trkpt>
      <trkpt lat="43.56455" lon="6.21744">
        <ele>256.5</ele>
        <time>2019-02-03T14:20:39Z</time>
      </trkpt>
      <trkpt lat="43.56451" lon="6.21757">
        <ele>256.3</ele>
        <time>2019-02-03T14:20:47Z</time>
      </trkpt>
      <trkpt lat="43.5645" lon="6.2177">
        <ele>256.1</ele>
        <time>2019-02-03T14:20:55Z</time>
      </trkpt>
      <trkpt lat="43.56446" lon="6.21782">
        <ele>256</ele>
        <time>2019-02-03T14:21:04Z</time>
      </trkpt>
      <trkpt lat="43.5644" lon="6.21792">
        <ele>255.3</ele>
        <time>2019-02-03T14:21:15Z</time>
      </trkpt>
      <trkpt lat="43.56434" lon="6.21803">
        <ele>254.4</ele>
        <time>2019-02-03T14:21:24Z</time>
      </trkpt>
      <trkpt lat="43.56429" lon="6.21815">
        <ele>253.5</ele>
        <time>2019-02-03T14:21:31Z</time>
      </trkpt>
      <trkpt lat="43.56423" lon="6.21826">
        <ele>252.8</ele>
        <time>2019-02-03T14:21:39Z</time>
      </trkpt>
      <trkpt lat="43.56417" lon="6.21835">
        <ele>252.3</ele>
        <time>2019-02-03T14:21:45Z</time>
      </trkpt>
      <trkpt lat="43.56409" lon="6.21842">
        <ele>251.7</ele>
        <time>2019-02-03T14:21:53Z</time>
      </trkpt>
      <trkpt lat="43.56402" lon="6.21852">
        <ele>251.3</ele>
        <time>2019-02-03T14:22:03Z</time>
      </trkpt>
      <trkpt lat="43.56396" lon="6.21862">
        <ele>250.9</ele>
        <time>2019-02-03T14:22:11Z</time>
      </trkpt>
      <trkpt lat="43.5639" lon="6.21875">
        <ele>250.4</ele>
        <time>2019-02-03T14:22:21Z</time>
      </trkpt>
      <trkpt lat="43.56386" lon="6.21886">
        <ele>250.4</ele>
        <time>2019-02-03T14:22:30Z</time>
      </trkpt>
      <trkpt lat="43.5638" lon="6.21898">
        <ele>250.8</ele>
        <time>2019-02-03T14:22:39Z</time>
      </trkpt>
      <trkpt lat="43.56377" lon="6.2191">
        <ele>250.9</ele>
        <time>2019-02-03T14:22:47Z</time>
      </trkpt>
      <trkpt lat="43.56376" lon="6.21924">
        <ele>250.5</ele>
        <time>2019-02-03T14:22:56Z</time>
      </trkpt>
      <trkpt lat="43.56378" lon="6.21938">
        <ele>249.8</ele>
        <time>2019-02-03T14:23:05Z</time>
      </trkpt>
      <trkpt lat="43.56383" lon="6.21948">
        <ele>248.2</ele>
        <time>2019-02-03T14:23:16Z</time>
      </trkpt>
      <trkpt lat="43.56389" lon="6.21958">
        <ele>246.6</ele>
        <time>2019-02-03T14:23:25Z</time>
      </trkpt>
      <trkpt lat="43.56391" lon="6.2197">
        <ele>245.2</ele>
        <time>2019-02-03T14:23:34Z</time>
      </trkpt>
      <trkpt lat="43.56398" lon="6.21981">
        <ele>243.6</ele>
        <time>2019-02-03T14:23:43Z</time>
      </trkpt>
      <trkpt lat="43.56403" lon="6.21993">
        <ele>242.1</ele>
        <time>2019-02-03T14:23:52Z</time>
      </trkpt>
      <trkpt lat="43.56409" lon="6.22004">
        <ele>240.4</ele>
        <time>2019-02-03T14:24:02Z</time>
      </trkpt>
      <trkpt lat="43.56413" lon="6.22016">
        <ele>239.4</ele>
        <time>2019-02-03T14:24:10Z</time>
      </trkpt>
      <trkpt lat="43.5642" lon="6.22024">
        <ele>238.3</ele>
        <time>2019-02-03T14:24:17Z</time>
      </trkpt>
      <trkpt lat="43.56422" lon="6.22038">
        <ele>237.2</ele>
        <time>2019-02-03T14:24:25Z</time>
      </trkpt>
      <trkpt lat="43.56426" lon="6.2205">
        <ele>235.5</ele>
        <time>2019-02-03T14:24:34Z</time>
      </trkpt>
      <trkpt lat="43.56425" lon="6.22063">
        <ele>234.3</ele>
        <time>2019-02-03T14:24:44Z</time>
      </trkpt>
      <trkpt lat="43.56425" lon="6.22075">
        <ele>233.6</ele>
        <time>2019-02-03T14:24:53Z</time>
      </trkpt>
      <trkpt lat="43.56422" lon="6.22087">
        <ele>232.8</ele>
        <time>2019-02-03T14:25:00Z</time>
      </trkpt>
      <trkpt lat="43.56417" lon="6.22098">
        <ele>232.1</ele>
        <time>2019-02-03T14:25:07Z</time>
      </trkpt>
      <trkpt lat="43.56414" lon="6.22112">
        <ele>231.5</ele>
        <time>2019-02-03T14:25:16Z</time>
      </trkpt>
      <trkpt lat="43.56412" lon="6.22126">
        <ele>231.1</ele>
        <time>2019-02-03T14:25:24Z</time>
      </trkpt>
      <trkpt lat="43.56414" lon="6.22139">
        <ele>230.3</ele>
        <time>2019-02-03T14:25:33Z</time>
      </trkpt>
      <trkpt lat="43.56414" lon="6.22153">
        <ele>229.5</ele>
        <time>2019-02-03T14:25:42Z</time>
      </trkpt>
      <trkpt lat="43.56413" lon="6.22167">
        <ele>228.5</ele>
        <time>2019-02-03T14:25:51Z</time>
      </trkpt>
      <trkpt lat="43.56417" lon="6.22179">
        <ele>227.5</ele>
        <time>2019-02-03T14:26:00Z</time>
      </trkpt>
      <trkpt lat="43.56422" lon="6.22192">
        <ele>226.7</ele>
        <time>2019-02-03T14:26:08Z</time>
      </trkpt>
      <trkpt lat="43.56424" lon="6.22205">
        <ele>225.7</ele>
        <time>2019-02-03T14:26:17Z</time>
      </trkpt>
      <trkpt lat="43.56427" lon="6.22218">
        <ele>225.1</ele>
        <time>2019-02-03T14:26:25Z</time>
      </trkpt>
      <trkpt lat="43.56425" lon="6.22231">
        <ele>224.5</ele>
        <time>2019-02-03T14:26:35Z</time>
      </trkpt>
      <trkpt lat="43.56422" lon="6.22244">
        <ele>224.1</ele>
        <time>2019-02-03T14:26:43Z</time>
      </trkpt>
      <trkpt lat="43.56418" lon="6.22256">
        <ele>223.7</ele>
        <time>2019-02-03T14:26:51Z</time>
      </trkpt>
      <trkpt lat="43.5642" lon="6.22269">
        <ele>222.5</ele>
        <time>2019-02-03T14:27:02Z</time>
      </trkpt>
      <trkpt lat="43.56423" lon="6.22282">
        <ele>221.6</ele>
        <time>2019-02-03T14:27:10Z</time>
      </trkpt>
      <trkpt lat="43.5642" lon="6.22294">
        <ele>219</ele>
        <time>2019-02-03T14:28:51Z</time>
      </trkpt>
      <trkpt lat="43.56427" lon="6.22303">
        <ele>217.5</ele>
        <time>2019-02-03T14:29:50Z</time>
      </trkpt>
      <trkpt lat="43.56429" lon="6.22316">
        <ele>216.8</ele>
        <time>2019-02-03T14:30:01Z</time>
      </trkpt>
      <trkpt lat="43.56436" lon="6.22324">
        <ele>216.1</ele>
        <time>2019-02-03T14:30:09Z</time>
      </trkpt>
      <trkpt lat="43.5644" lon="6.22335">
        <ele>215.5</ele>
        <time>2019-02-03T14:30:20Z</time>
      </trkpt>
      <trkpt lat="43.56446" lon="6.22344">
        <ele>214.7</ele>
        <time>2019-02-03T14:30:30Z</time>
      </trkpt>
      <trkpt lat="43.56451" lon="6.22355">
        <ele>213.9</ele>
        <time>2019-02-03T14:30:39Z</time>
      </trkpt>
      <trkpt lat="43.56454" lon="6.22368">
        <ele>213.4</ele>
        <time>2019-02-03T14:30:48Z</time>
      </trkpt>
      <trkpt lat="43.56458" lon="6.22379">
        <ele>212.7</ele>
        <time>2019-02-03T14:30:58Z</time>
      </trkpt>
      <trkpt lat="43.56462" lon="6.22391">
        <ele>212</ele>
        <time>2019-02-03T14:31:06Z</time>
      </trkpt>
      <trkpt lat="43.56466" lon="6.22405">
        <ele>211.3</ele>
        <time>2019-02-03T14:31:15Z</time>
      </trkpt>
      <trkpt lat="43.56469" lon="6.22417">
        <ele>210.1</ele>
        <time>2019-02-03T14:31:27Z</time>
      </trkpt>
      <trkpt lat="43.56469" lon="6.22431">
        <ele>208.9</ele>
        <time>2019-02-03T14:31:39Z</time>
      </trkpt>
      <trkpt lat="43.56474" lon="6.22443">
        <ele>207.4</ele>
        <time>2019-02-03T14:31:47Z</time>
      </trkpt>
      <trkpt lat="43.56484" lon="6.22446">
        <ele>206.1</ele>
        <time>2019-02-03T14:31:54Z</time>
      </trkpt>
      <trkpt lat="43.56494" lon="6.22447">
        <ele>204</ele>
        <time>2019-02-03T14:32:04Z</time>
      </trkpt>
      <trkpt lat="43.56503" lon="6.2245">
        <ele>202.1</ele>
        <time>2019-02-03T14:32:15Z</time>
      </trkpt>
      <trkpt lat="43.56514" lon="6.22457">
        <ele>200.9</ele>
        <time>2019-02-03T14:32:23Z</time>
      </trkpt>
      <trkpt lat="43.5652" lon="6.22467">
        <ele>200.1</ele>
        <time>2019-02-03T14:32:31Z</time>
      </trkpt>
      <trkpt lat="43.5652" lon="6.22479">
        <ele>199.2</ele>
        <time>2019-02-03T14:33:14Z</time>
      </trkpt>
      <trkpt lat="43.56519" lon="6.22492">
        <ele>198.2</ele>
        <time>2019-02-03T14:34:55Z</time>
      </trkpt>
      <trkpt lat="43.56515" lon="6.22503">
        <ele>198.3</ele>
        <time>2019-02-03T14:35:20Z</time>
      </trkpt>
      <trkpt lat="43.56515" lon="6.22516">
        <ele>198.4</ele>
        <time>2019-02-03T14:35:36Z</time>
      </trkpt>
      <trkpt lat="43.56522" lon="6.22526">
        <ele>199.7</ele>
        <time>2019-02-03T14:36:42Z</time>
      </trkpt>
      <trkpt lat="43.56529" lon="6.22534">
        <ele>199.8</ele>
        <time>2019-02-03T14:36:54Z</time>
      </trkpt>
      <trkpt lat="43.56529" lon="6.22547">
        <ele>199.3</ele>
        <time>2019-02-03T14:37:04Z</time>
      </trkpt>
      <trkpt lat="43.56525" lon="6.22559">
        <ele>198.9</ele>
        <time>2019-02-03T14:37:15Z</time>
      </trkpt>
      <trkpt lat="43.56524" lon="6.22572">
        <ele>198.8</ele>
        <time>2019-02-03T14:37:35Z</time>
      </trkpt>
      <trkpt lat="43.56528" lon="6.22569">
        <ele>198.3</ele>
        <time>2019-02-03T14:38:26Z</time>
      </trkpt>
    </trkseg>
  </trk>
</gpx>